Time,TemperatureF,DewpointF,PressureIn,WindDirection,WindDirectionDegrees,WindSpeedMPH,WindSpeedGustMPH,Humidity,HourlyPrecipIn,Conditions,Clouds,dailyrainin,SolarRadiationWatts/m^2,SoftwareType,DateUTC
2013-10-15 00:00:00,64.2,20.4,29.47,NNW,327,4.5,5.1,18,-99.99,,,0.00,0,rob ver 1B,2013-10-15 07:00:00,
2013-10-15 00:01:00,64.3,20.4,29.47,NW,324,4.3,5.2,18,-99.99,,,0.00,0,rob ver 1B,2013-10-15 07:01:00,
2013-10-15 00:02:00,64.4,20.5,29.47,NW,323,4.3,4.9,18,-99.99,,,0.00,0,rob ver 1B,2013-10-15 07:02:00,
2013-10-15 00:03:00,64.4,20.6,29.47,NW,321,4.5,5.4,18,-99.99,,,0.00,0,rob ver 1B,2013-10-15 07:03:00,
2013-10-15 00:04:00,66.4,25.6,29.41,WNW,293,4.9,5.4,21,-99.99,,,0.00,0,rob ver 1A,2013-10-15 07:04:00,
2013-10-15 00:05:00,64.3,20.6,29.47,NW,317,4.8,5.4,18,-99.99,,,0.00,0,rob ver 1B,2013-10-15 07:05:00,
2013-10-15 00:06:00,64.1,20.7,29.47,NW,317,4.6,5.3,18,-99.99,,,0.00,0,rob ver 1B,2013-10-15 07:06:00,
2013-10-15 00:07:00,64.1,20.6,29.47,NW,315,4.7,5.1,18,-99.99,,,0.00,0,rob ver 1B,2013-10-15 07:07:00,
2013-10-15 00:08:00,64.1,20.7,29.47,NW,315,4.7,5.5,18,-99.99,,,0.00,0,rob ver 1B,2013-10-15 07:08:00,
2013-10-15 00:09:00,66.8,25.0,29.41,NW,306,8.1,9.7,20,-99.99,,,0.00,0,rob ver 1A,2013-10-15 07:09:00,
2013-10-15 00:10:00,64.1,20.6,29.47,NW,317,4.6,5.1,18,-99.99,,,0.00,0,rob ver 1B,2013-10-15 07:10:00,
2013-10-15 00:11:00,64.2,20.6,29.47,NW,316,4.2,5.3,18,-99.99,,,0.00,0,rob ver 1B,2013-10-15 07:11:00,
2013-10-15 00:12:00,64.3,20.7,29.47,NW,311,4.0,4.5,18,-99.99,,,0.00,0,rob ver 1B,2013-10-15 07:12:00,
2013-10-15 00:13:00,64.2,20.7,29.47,NW,311,4.2,4.7,18,-99.99,,,0.00,0,rob ver 1B,2013-10-15 07:13:00,
2013-10-15 00:14:00,67.6,24.4,29.41,WNW,302,8.2,9.8,19,-99.99,,,0.00,0,rob ver 1A,2013-10-15 07:14:00,
2013-10-15 00:15:00,64.3,20.7,29.47,NW,307,3.9,4.4,18,-99.99,,,0.00,0,rob ver 1B,2013-10-15 07:15:00,
2013-10-15 00:16:00,64.3,20.6,29.47,WNW,299,3.4,4.0,18,-99.99,,,0.00,0,rob ver 1B,2013-10-15 07:16:00,
2013-10-15 00:17:00,64.4,20.5,29.47,WNW,283,2.5,3.0,18,-99.99,,,0.00,0,rob ver 1B,2013-10-15 07:17:00,
2013-10-15 00:18:00,64.1,20.2,29.47,SW,236,2.4,3.0,18,-99.99,,,0.00,0,rob ver 1B,2013-10-15 07:18:00,
2013-10-15 00:19:00,63.4,20.0,29.47,SW,231,2.8,3.4,18,-99.99,,,0.00,0,rob ver 1B,2013-10-15 07:19:00,
2013-10-15 00:20:00,67.4,24.4,29.41,WNW,297,8.3,9.5,19,-99.99,,,0.00,0,rob ver 1A,2013-10-15 07:20:00,
2013-10-15 00:21:00,62.4,20.4,29.47,WSW,244,3.3,3.6,19,-99.99,,,0.00,0,rob ver 1B,2013-10-15 07:21:00,
2013-10-15 00:22:00,62.3,20.4,29.47,WSW,251,3.2,3.6,19,-99.99,,,0.00,0,rob ver 1B,2013-10-15 07:22:00,
2013-10-15 00:23:00,62.2,20.4,29.47,WSW,256,2.8,3.4,19,-99.99,,,0.00,0,rob ver 1B,2013-10-15 07:23:00,
2013-10-15 00:24:00,62.1,20.5,29.47,WSW,256,2.9,3.1,20,-99.99,,,0.00,0,rob ver 1B,2013-10-15 07:24:00,
2013-10-15 00:25:00,66.9,24.4,29.41,WNW,299,8.5,9.4,19,-99.99,,,0.00,0,rob ver 1A,2013-10-15 07:25:00,
2013-10-15 00:26:00,61.9,20.7,29.47,West,272,2.8,3.0,20,-99.99,,,0.00,0,rob ver 1B,2013-10-15 07:26:00,
2013-10-15 00:27:00,62.0,20.7,29.47,WNW,285,2.9,3.2,20,-99.99,,,0.00,0,rob ver 1B,2013-10-15 07:27:00,
2013-10-15 00:28:00,62.3,20.7,29.47,WNW,287,3.0,3.2,19,-99.99,,,0.00,0,rob ver 1B,2013-10-15 07:28:00,
2013-10-15 00:29:00,62.5,20.7,29.47,WNW,283,2.9,3.1,19,-99.99,,,0.00,0,rob ver 1B,2013-10-15 07:29:00,
2013-10-15 00:30:00,66.6,24.4,29.41,WNW,303,8.5,10.2,20,-99.99,,,0.00,0,rob ver 1A,2013-10-15 07:30:00,
2013-10-15 00:31:00,62.6,20.6,29.47,West,264,3.2,3.7,19,-99.99,,,0.00,0,rob ver 1B,2013-10-15 07:31:00,
2013-10-15 00:32:00,62.5,20.6,29.47,WSW,245,3.6,4.1,19,-99.99,,,0.00,0,rob ver 1B,2013-10-15 07:32:00,
2013-10-15 00:33:00,62.3,20.4,29.47,SW,234,4.1,4.9,19,-99.99,,,0.00,0,rob ver 1B,2013-10-15 07:33:00,
2013-10-15 00:34:00,62.0,20.7,29.47,SW,234,5.3,5.9,20,-99.99,,,0.00,0,rob ver 1B,2013-10-15 07:34:00,
2013-10-15 00:35:00,68.0,23.7,29.41,WNW,301,10.9,12.6,18,-99.99,,,0.00,0,rob ver 1A,2013-10-15 07:35:00,
2013-10-15 00:36:00,62.0,20.9,29.47,WSW,252,4.8,5.8,20,-99.99,,,0.00,0,rob ver 1B,2013-10-15 07:36:00,
2013-10-15 00:37:00,62.2,20.8,29.47,WSW,249,4.7,5.3,20,-99.99,,,0.00,0,rob ver 1B,2013-10-15 07:37:00,
2013-10-15 00:38:00,62.4,21.0,29.47,WSW,247,5.1,5.9,20,-99.99,,,0.00,0,rob ver 1B,2013-10-15 07:38:00,
2013-10-15 00:39:00,62.5,21.1,29.47,WSW,249,4.6,5.6,20,-99.99,,,0.00,0,rob ver 1B,2013-10-15 07:39:00,
2013-10-15 00:40:00,68.6,23.7,29.41,WNW,302,9.8,12.1,18,-99.99,,,0.00,0,rob ver 1A,2013-10-15 07:40:00,
2013-10-15 00:41:00,62.5,21.1,29.47,WSW,250,4.2,5.4,20,-99.99,,,0.00,0,rob ver 1B,2013-10-15 07:41:00,
2013-10-15 00:42:00,62.5,21.2,29.47,WSW,252,4.4,5.0,20,-99.99,,,0.00,0,rob ver 1B,2013-10-15 07:42:00,
2013-10-15 00:43:00,62.6,21.1,29.47,West,259,4.6,5.3,20,-99.99,,,0.00,0,rob ver 1B,2013-10-15 07:43:00,
2013-10-15 00:44:00,62.8,21.0,29.47,West,265,3.9,4.3,19,-99.99,,,0.00,0,rob ver 1B,2013-10-15 07:44:00,
2013-10-15 00:45:00,68.1,23.8,29.41,WNW,303,9.5,11.4,18,-99.99,,,0.00,0,rob ver 1A,2013-10-15 07:45:00,
2013-10-15 00:46:00,62.8,20.9,29.47,West,266,4.0,4.6,19,-99.99,,,0.00,0,rob ver 1B,2013-10-15 07:46:00,
2013-10-15 00:47:00,62.8,21.0,29.47,West,265,4.3,4.7,19,-99.99,,,0.00,0,rob ver 1B,2013-10-15 07:47:00,
2013-10-15 00:48:00,62.8,21.1,29.47,West,270,4.2,4.5,19,-99.99,,,0.00,0,rob ver 1B,2013-10-15 07:48:00,
2013-10-15 00:49:00,62.9,21.1,29.47,West,270,4.3,4.6,19,-99.99,,,0.00,0,rob ver 1B,2013-10-15 07:49:00,
2013-10-15 00:50:00,67.8,23.9,29.41,NW,307,9.9,11.2,18,-99.99,,,0.00,0,rob ver 1A,2013-10-15 07:50:00,
2013-10-15 00:51:00,63.1,21.1,29.47,West,272,3.8,4.0,19,-99.99,,,0.00,0,rob ver 1B,2013-10-15 07:51:00,
2013-10-15 00:52:00,63.2,21.1,29.47,West,270,3.5,3.7,19,-99.99,,,0.00,0,rob ver 1B,2013-10-15 07:52:00,
2013-10-15 00:53:00,63.2,21.2,29.47,West,279,3.5,3.7,19,-99.99,,,0.00,0,rob ver 1B,2013-10-15 07:53:00,
2013-10-15 00:54:00,63.2,21.2,29.47,WNW,283,3.6,3.9,19,-99.99,,,0.00,0,rob ver 1B,2013-10-15 07:54:00,
2013-10-15 00:55:00,67.7,23.9,29.41,WNW,300,9.2,10.8,19,-99.99,,,0.00,0,rob ver 1A,2013-10-15 07:55:00,
2013-10-15 00:56:00,63.1,21.1,29.47,WNW,282,4.2,4.3,19,-99.99,,,0.00,0,rob ver 1B,2013-10-15 07:56:00,
2013-10-15 00:57:00,63.1,21.1,29.47,WNW,286,4.5,4.9,19,-99.99,,,0.00,0,rob ver 1B,2013-10-15 07:57:00,
2013-10-15 00:58:00,63.2,21.0,29.47,WNW,284,4.6,5.0,19,-99.99,,,0.00,0,rob ver 1B,2013-10-15 07:58:00,
2013-10-15 00:59:00,63.3,21.0,29.47,WNW,286,4.6,4.8,19,-99.99,,,0.00,0,rob ver 1B,2013-10-15 07:59:00,
2013-10-15 01:00:00,63.4,21.1,29.47,WNW,291,4.6,4.8,19,-99.99,,,0.00,0,rob ver 1B,2013-10-15 08:00:00,
2013-10-15 01:01:00,67.4,24.0,29.41,NW,304,9.1,11.0,19,-99.99,,,0.00,0,rob ver 1A,2013-10-15 08:01:00,
2013-10-15 01:02:00,63.4,21.2,29.47,WNW,288,4.3,4.4,19,-99.99,,,0.00,0,rob ver 1B,2013-10-15 08:02:00,
2013-10-15 01:03:00,63.4,21.1,29.47,WNW,292,4.1,4.4,19,-99.99,,,0.00,0,rob ver 1B,2013-10-15 08:03:00,
2013-10-15 01:04:00,63.3,21.1,29.47,WNW,293,3.7,4.1,19,-99.99,,,0.00,0,rob ver 1B,2013-10-15 08:04:00,
2013-10-15 01:05:00,63.1,21.2,29.47,WNW,292,3.7,4.2,19,-99.99,,,0.00,0,rob ver 1B,2013-10-15 08:05:00,
2013-10-15 01:06:00,67.2,24.0,29.41,NW,305,9.4,11.1,19,-99.99,,,0.00,0,rob ver 1A,2013-10-15 08:06:00,
2013-10-15 01:07:00,62.7,21.2,29.47,WNW,288,3.6,3.8,20,-99.99,,,0.00,0,rob ver 1B,2013-10-15 08:07:00,
2013-10-15 01:08:00,62.6,21.2,29.47,WNW,286,3.8,4.0,20,-99.99,,,0.00,0,rob ver 1B,2013-10-15 08:08:00,
2013-10-15 01:09:00,62.6,21.2,29.47,WNW,288,4.0,4.2,20,-99.99,,,0.00,0,rob ver 1B,2013-10-15 08:09:00,
2013-10-15 01:10:00,62.7,21.2,29.47,WNW,288,4.0,4.1,19,-99.99,,,0.00,0,rob ver 1B,2013-10-15 08:10:00,
2013-10-15 01:11:00,67.1,24.1,29.41,NW,311,9.0,10.7,19,-99.99,,,0.00,0,rob ver 1A,2013-10-15 08:11:00,
2013-10-15 01:12:00,62.9,21.1,29.47,WNW,285,4.2,4.4,19,-99.99,,,0.00,0,rob ver 1B,2013-10-15 08:12:00,
2013-10-15 01:13:00,63.0,21.1,29.47,West,279,4.0,4.3,19,-99.99,,,0.00,0,rob ver 1B,2013-10-15 08:13:00,
2013-10-15 01:14:00,63.2,21.1,29.47,West,277,4.1,4.5,19,-99.99,,,0.00,0,rob ver 1B,2013-10-15 08:14:00,
2013-10-15 01:15:00,63.3,21.0,29.47,West,273,3.8,4.4,19,-99.99,,,0.00,0,rob ver 1B,2013-10-15 08:15:00,
2013-10-15 01:16:00,67.6,24.1,29.41,NW,309,10.0,11.6,19,-99.99,,,0.00,0,rob ver 1A,2013-10-15 08:16:00,
2013-10-15 01:17:00,63.2,21.1,29.47,West,270,3.7,3.8,19,-99.99,,,0.00,0,rob ver 1B,2013-10-15 08:17:00,
2013-10-15 01:18:00,63.1,21.1,29.47,West,270,3.8,4.0,19,-99.99,,,0.00,0,rob ver 1B,2013-10-15 08:18:00,
2013-10-15 01:19:00,63.1,21.0,29.47,West,271,4.2,4.5,19,-99.99,,,0.00,0,rob ver 1B,2013-10-15 08:19:00,
2013-10-15 01:20:00,63.3,20.9,29.47,West,274,4.5,4.7,19,-99.99,,,0.00,0,rob ver 1B,2013-10-15 08:20:00,
2013-10-15 01:21:00,67.1,24.2,29.41,WNW,299,8.0,9.5,19,-99.99,,,0.00,0,rob ver 1A,2013-10-15 08:21:00,
2013-10-15 01:22:00,63.4,21.0,29.47,West,260,3.9,4.2,19,-99.99,,,0.00,0,rob ver 1B,2013-10-15 08:22:00,
2013-10-15 01:23:00,63.4,20.9,29.47,West,273,4.2,4.5,19,-99.99,,,0.00,0,rob ver 1B,2013-10-15 08:23:00,
2013-10-15 01:24:00,63.4,20.9,29.47,West,274,4.1,4.5,19,-99.99,,,0.00,0,rob ver 1B,2013-10-15 08:24:00,
2013-10-15 01:25:00,63.4,20.9,29.47,West,276,3.4,3.8,19,-99.99,,,0.00,0,rob ver 1B,2013-10-15 08:25:00,
2013-10-15 01:26:00,66.5,24.4,29.41,NW,308,8.5,10.3,20,-99.99,,,0.00,0,rob ver 1A,2013-10-15 08:26:00,
2013-10-15 01:27:00,63.1,20.9,29.47,West,272,3.6,4.1,19,-99.99,,,0.00,0,rob ver 1B,2013-10-15 08:27:00,
2013-10-15 01:28:00,63.0,20.9,29.47,WNW,282,3.7,4.2,19,-99.99,,,0.00,0,rob ver 1B,2013-10-15 08:28:00,
2013-10-15 01:29:00,63.0,21.0,29.47,WNW,283,3.8,4.3,19,-99.99,,,0.00,0,rob ver 1B,2013-10-15 08:29:00,
2013-10-15 01:30:00,63.2,20.9,29.47,West,276,4.4,5.4,19,-99.99,,,0.00,0,rob ver 1B,2013-10-15 08:30:00,
2013-10-15 01:31:00,67.4,24.8,29.41,NW,312,9.6,11.7,19,-99.99,,,0.00,0,rob ver 1A,2013-10-15 08:31:00,
2013-10-15 01:32:00,63.6,20.9,29.47,West,279,4.2,4.7,19,-99.99,,,0.00,0,rob ver 1B,2013-10-15 08:32:00,
2013-10-15 01:33:00,63.6,21.0,29.47,West,277,4.2,4.5,19,-99.99,,,0.00,0,rob ver 1B,2013-10-15 08:33:00,
2013-10-15 01:34:00,63.6,21.0,29.47,West,275,3.9,4.1,19,-99.99,,,0.00,0,rob ver 1B,2013-10-15 08:34:00,
2013-10-15 01:35:00,63.6,21.0,29.47,West,281,4.0,4.3,19,-99.99,,,0.00,0,rob ver 1B,2013-10-15 08:35:00,
2013-10-15 01:36:00,67.2,24.9,29.41,WNW,291,7.2,8.4,20,-99.99,,,0.00,0,rob ver 1A,2013-10-15 08:36:00,
2013-10-15 01:37:00,63.6,21.1,29.47,WNW,283,3.7,3.8,19,-99.99,,,0.00,0,rob ver 1B,2013-10-15 08:37:00,
2013-10-15 01:38:00,63.6,21.1,29.47,WNW,287,3.8,4.0,19,-99.99,,,0.00,0,rob ver 1B,2013-10-15 08:38:00,
2013-10-15 01:39:00,63.5,21.1,29.47,WNW,289,4.0,4.2,19,-99.99,,,0.00,0,rob ver 1B,2013-10-15 08:39:00,
2013-10-15 01:40:00,63.6,21.1,29.47,WNW,294,3.8,4.0,19,-99.99,,,0.00,0,rob ver 1B,2013-10-15 08:40:00,
2013-10-15 01:41:00,63.6,21.1,29.47,WNW,296,3.7,3.9,19,-99.99,,,0.00,0,rob ver 1B,2013-10-15 08:41:00,
2013-10-15 01:42:00,66.3,24.9,29.41,West,275,5.9,7.4,20,-99.99,,,0.00,0,rob ver 1A,2013-10-15 08:42:00,
2013-10-15 01:43:00,63.5,21.3,29.47,WNW,295,3.6,3.8,19,-99.99,,,0.00,0,rob ver 1B,2013-10-15 08:43:00,
2013-10-15 01:44:00,63.4,21.3,29.47,WNW,286,3.6,4.7,19,-99.99,,,0.00,0,rob ver 1B,2013-10-15 08:44:00,
2013-10-15 01:45:00,63.4,21.4,29.47,WNW,286,3.9,4.0,19,-99.99,,,0.00,0,rob ver 1B,2013-10-15 08:45:00,
2013-10-15 01:46:00,63.3,21.4,29.47,WNW,295,3.4,4.0,19,-99.99,,,0.00,0,rob ver 1B,2013-10-15 08:46:00,
2013-10-15 01:47:00,65.4,24.9,29.41,WNW,290,6.5,7.2,21,-99.99,,,0.00,0,rob ver 1A,2013-10-15 08:47:00,
2013-10-15 01:48:00,63.1,21.5,29.47,WNW,294,3.7,3.9,20,-99.99,,,0.00,0,rob ver 1B,2013-10-15 08:48:00,
2013-10-15 01:49:00,63.0,21.5,29.47,WNW,295,3.8,4.0,20,-99.99,,,0.00,0,rob ver 1B,2013-10-15 08:49:00,
2013-10-15 01:50:00,65.2,24.9,29.41,WNW,291,6.7,7.5,21,-99.99,,,0.00,0,rob ver 1A,2013-10-15 08:50:00,
2013-10-15 01:51:00,62.7,21.5,29.47,WNW,295,3.4,3.6,20,-99.99,,,0.00,0,rob ver 1B,2013-10-15 08:51:00,
2013-10-15 01:52:00,62.5,21.5,29.47,WNW,301,3.4,3.5,20,-99.99,,,0.00,0,rob ver 1B,2013-10-15 08:52:00,
2013-10-15 01:53:00,62.3,21.6,29.47,WNW,299,3.4,3.6,20,-99.99,,,0.00,0,rob ver 1B,2013-10-15 08:53:00,
2013-10-15 01:54:00,62.3,21.7,29.47,WNW,301,3.3,3.5,20,-99.99,,,0.00,0,rob ver 1B,2013-10-15 08:54:00,
2013-10-15 01:55:00,65.0,24.9,29.41,WNW,292,6.4,7.0,21,-99.99,,,0.00,0,rob ver 1A,2013-10-15 08:55:00,
2013-10-15 01:56:00,62.2,21.9,29.47,NW,306,3.4,3.8,21,-99.99,,,0.00,0,rob ver 1B,2013-10-15 08:56:00,
2013-10-15 01:57:00,62.1,21.8,29.47,WNW,297,3.3,3.7,21,-99.99,,,0.00,0,rob ver 1B,2013-10-15 08:57:00,
2013-10-15 01:58:00,62.0,21.9,29.47,WNW,296,3.6,3.9,21,-99.99,,,0.00,0,rob ver 1B,2013-10-15 08:58:00,
2013-10-15 01:59:00,61.9,22.0,29.47,NW,306,4.1,4.4,21,-99.99,,,0.00,0,rob ver 1B,2013-10-15 08:59:00,
2013-10-15 02:00:00,65.5,25.0,29.41,WNW,292,7.5,9.3,21,-99.99,,,0.00,0,rob ver 1A,2013-10-15 09:00:00,
2013-10-15 02:01:00,61.8,21.9,29.47,NW,309,4.2,4.5,21,-99.99,,,0.00,0,rob ver 1B,2013-10-15 09:01:00,
2013-10-15 02:02:00,61.6,22.0,29.47,NW,310,3.9,4.5,21,-99.99,,,0.00,0,rob ver 1B,2013-10-15 09:02:00,
2013-10-15 02:03:00,61.4,22.2,29.47,NW,313,4.1,4.8,22,-99.99,,,0.00,0,rob ver 1B,2013-10-15 09:03:00,
2013-10-15 02:04:00,61.4,22.1,29.47,NW,321,4.8,6.2,21,-99.99,,,0.00,0,rob ver 1B,2013-10-15 09:04:00,
2013-10-15 02:05:00,65.3,25.1,29.41,WNW,296,7.8,9.2,21,-99.99,,,0.00,0,rob ver 1A,2013-10-15 09:05:00,
2013-10-15 02:06:00,62.0,22.1,29.47,NW,321,5.5,7.0,21,-99.99,,,0.00,0,rob ver 1B,2013-10-15 09:06:00,
2013-10-15 02:07:00,62.3,22.0,29.47,NW,320,6.0,7.3,21,-99.99,,,0.00,0,rob ver 1B,2013-10-15 09:07:00,
2013-10-15 02:08:00,62.5,22.0,29.47,NW,317,6.3,7.1,20,-99.99,,,0.00,0,rob ver 1B,2013-10-15 09:08:00,
2013-10-15 02:09:00,62.6,22.1,29.47,NW,315,5.8,6.5,20,-99.99,,,0.00,0,rob ver 1B,2013-10-15 09:09:00,
2013-10-15 02:10:00,65.3,25.2,29.41,WNW,299,9.0,10.1,21,-99.99,,,0.00,0,rob ver 1A,2013-10-15 09:10:00,
2013-10-15 02:11:00,62.7,21.9,29.47,NW,311,6.0,7.1,20,-99.99,,,0.00,0,rob ver 1B,2013-10-15 09:11:00,
2013-10-15 02:12:00,62.8,21.8,29.47,NW,312,6.2,6.8,20,-99.99,,,0.00,0,rob ver 1B,2013-10-15 09:12:00,
2013-10-15 02:13:00,62.9,21.9,29.47,NW,312,6.5,7.3,20,-99.99,,,0.00,0,rob ver 1B,2013-10-15 09:13:00,
2013-10-15 02:14:00,63.0,21.9,29.47,NW,311,6.9,7.9,20,-99.99,,,0.00,0,rob ver 1B,2013-10-15 09:14:00,
2013-10-15 02:15:00,65.5,25.2,29.41,WNW,298,8.3,10.2,21,-99.99,,,0.00,0,rob ver 1A,2013-10-15 09:15:00,
2013-10-15 02:16:00,63.1,22.0,29.47,NW,314,7.0,7.9,20,-99.99,,,0.00,0,rob ver 1B,2013-10-15 09:16:00,
2013-10-15 02:17:00,63.1,22.0,29.47,NW,313,7.6,8.3,20,-99.99,,,0.00,0,rob ver 1B,2013-10-15 09:17:00,
2013-10-15 02:18:00,63.2,22.0,29.47,NW,310,7.3,8.2,20,-99.99,,,0.00,0,rob ver 1B,2013-10-15 09:18:00,
2013-10-15 02:19:00,63.3,22.0,29.47,NW,314,7.3,8.3,20,-99.99,,,0.00,0,rob ver 1B,2013-10-15 09:19:00,
2013-10-15 02:20:00,66.2,25.2,29.38,WNW,303,10.7,13.5,21,-99.99,,,0.00,0,rob ver 1A,2013-10-15 09:20:00,
2013-10-15 02:21:00,63.3,22.1,29.47,NW,316,7.1,8.0,20,-99.99,,,0.00,0,rob ver 1B,2013-10-15 09:21:00,
2013-10-15 02:22:00,63.2,22.2,29.47,NW,318,6.4,8.2,20,-99.99,,,0.00,0,rob ver 1B,2013-10-15 09:22:00,
2013-10-15 02:23:00,63.2,22.1,29.47,NW,321,6.6,7.7,20,-99.99,,,0.00,0,rob ver 1B,2013-10-15 09:23:00,
2013-10-15 02:24:00,63.3,22.0,29.47,NW,322,6.2,8.2,20,-99.99,,,0.00,0,rob ver 1B,2013-10-15 09:24:00,
2013-10-15 02:25:00,63.4,21.9,29.47,NW,322,7.2,8.7,20,-99.99,,,0.00,0,rob ver 1B,2013-10-15 09:25:00,
2013-10-15 02:26:00,66.3,25.2,29.38,NW,307,9.7,11.7,20,-99.99,,,0.00,0,rob ver 1A,2013-10-15 09:26:00,
2013-10-15 02:27:00,63.7,22.1,29.47,NW,319,7.3,8.5,20,-99.99,,,0.00,0,rob ver 1B,2013-10-15 09:27:00,
2013-10-15 02:28:00,63.7,22.1,29.47,NW,322,6.8,8.3,20,-99.99,,,0.00,0,rob ver 1B,2013-10-15 09:28:00,
2013-10-15 02:29:00,63.8,22.0,29.47,NW,324,7.5,8.9,19,-99.99,,,0.00,0,rob ver 1B,2013-10-15 09:29:00,
2013-10-15 02:30:00,64.0,21.9,29.47,NW,325,8.1,9.5,19,-99.99,,,0.00,0,rob ver 1B,2013-10-15 09:30:00,
2013-10-15 02:31:00,65.7,25.2,29.41,NW,308,8.8,10.7,21,-99.99,,,0.00,0,rob ver 1A,2013-10-15 09:31:00,
2013-10-15 02:32:00,64.3,21.9,29.47,NW,322,7.4,9.5,19,-99.99,,,0.00,0,rob ver 1B,2013-10-15 09:32:00,
2013-10-15 02:33:00,64.4,22.0,29.47,NW,323,7.8,9.8,19,-99.99,,,0.00,0,rob ver 1B,2013-10-15 09:33:00,
2013-10-15 02:34:00,64.5,22.0,29.47,NW,323,7.5,9.1,19,-99.99,,,0.00,0,rob ver 1B,2013-10-15 09:34:00,
2013-10-15 02:35:00,64.5,22.0,29.47,NW,323,7.7,9.1,19,-99.99,,,0.00,0,rob ver 1B,2013-10-15 09:35:00,
2013-10-15 02:36:00,65.2,25.4,29.38,NW,316,7.8,9.9,22,-99.99,,,0.00,0,rob ver 1A,2013-10-15 09:36:00,
2013-10-15 02:37:00,64.8,22.0,29.47,NW,319,8.5,10.3,19,-99.99,,,0.00,0,rob ver 1B,2013-10-15 09:37:00,
2013-10-15 02:38:00,64.9,22.0,29.47,NW,316,9.0,10.2,19,-99.99,,,0.00,0,rob ver 1B,2013-10-15 09:38:00,
2013-10-15 02:39:00,65.0,22.0,29.47,NW,312,8.8,9.8,19,-99.99,,,0.00,0,rob ver 1B,2013-10-15 09:39:00,
2013-10-15 02:40:00,65.0,22.0,29.47,NW,309,8.2,9.5,19,-99.99,,,0.00,0,rob ver 1B,2013-10-15 09:40:00,
2013-10-15 02:41:00,65.0,25.4,29.38,NW,310,6.7,8.2,22,-99.99,,,0.00,0,rob ver 1A,2013-10-15 09:41:00,
2013-10-15 02:42:00,65.0,21.9,29.47,WNW,302,8.2,9.4,19,-99.99,,,0.00,0,rob ver 1B,2013-10-15 09:42:00,
2013-10-15 02:43:00,65.0,21.9,29.47,NW,306,8.2,8.9,18,-99.99,,,0.00,0,rob ver 1B,2013-10-15 09:43:00,
2013-10-15 02:44:00,65.0,21.9,29.47,WNW,300,7.5,8.7,19,-99.99,,,0.00,0,rob ver 1B,2013-10-15 09:44:00,
2013-10-15 02:45:00,64.9,21.9,29.47,WNW,294,7.2,8.3,19,-99.99,,,0.00,0,rob ver 1B,2013-10-15 09:45:00,
2013-10-15 02:46:00,64.8,25.5,29.38,NW,315,7.2,9.1,22,-99.99,,,0.00,0,rob ver 1A,2013-10-15 09:46:00,
2013-10-15 02:47:00,64.6,21.9,29.47,WNW,292,7.3,8.3,19,-99.99,,,0.00,0,rob ver 1B,2013-10-15 09:47:00,
2013-10-15 02:48:00,64.5,21.9,29.47,WNW,289,7.2,8.0,19,-99.99,,,0.00,0,rob ver 1B,2013-10-15 09:48:00,
2013-10-15 02:49:00,64.4,21.9,29.47,WNW,286,6.8,7.8,19,-99.99,,,0.00,0,rob ver 1B,2013-10-15 09:49:00,
2013-10-15 02:50:00,64.3,21.9,29.47,WNW,286,6.8,7.8,19,-99.99,,,0.00,0,rob ver 1B,2013-10-15 09:50:00,
2013-10-15 02:51:00,64.9,25.6,29.38,NW,315,6.9,8.5,22,-99.99,,,0.00,0,rob ver 1A,2013-10-15 09:51:00,
2013-10-15 02:52:00,64.0,22.0,29.47,WNW,289,6.8,7.3,19,-99.99,,,0.00,0,rob ver 1B,2013-10-15 09:52:00,
2013-10-15 02:53:00,63.9,22.0,29.47,WNW,291,6.7,7.8,19,-99.99,,,0.00,0,rob ver 1B,2013-10-15 09:53:00,
2013-10-15 02:54:00,63.9,22.0,29.47,WNW,293,6.7,8.5,19,-99.99,,,0.00,0,rob ver 1B,2013-10-15 09:54:00,
2013-10-15 02:55:00,63.9,22.0,29.47,WNW,298,7.1,8.3,19,-99.99,,,0.00,0,rob ver 1B,2013-10-15 09:55:00,
2013-10-15 02:56:00,65.2,25.6,29.38,NW,318,7.8,9.5,22,-99.99,,,0.00,0,rob ver 1A,2013-10-15 09:56:00,
2013-10-15 02:57:00,64.1,21.9,29.47,WNW,293,7.1,7.6,19,-99.99,,,0.00,0,rob ver 1B,2013-10-15 09:57:00,
2013-10-15 02:58:00,64.0,22.0,29.47,WNW,282,6.5,7.3,19,-99.99,,,0.00,0,rob ver 1B,2013-10-15 09:58:00,
2013-10-15 02:59:00,63.8,22.0,29.47,WNW,284,6.3,7.0,20,-99.99,,,0.00,0,rob ver 1B,2013-10-15 09:59:00,
2013-10-15 03:00:00,63.6,22.0,29.47,WNW,284,6.2,7.0,20,-99.99,,,0.00,0,rob ver 1B,2013-10-15 10:00:00,
2013-10-15 03:01:00,65.6,25.5,29.38,NW,316,8.2,10.7,21,-99.99,,,0.00,0,rob ver 1A,2013-10-15 10:01:00,
2013-10-15 03:02:00,63.0,22.0,29.47,West,281,6.3,6.8,20,-99.99,,,0.00,0,rob ver 1B,2013-10-15 10:02:00,
2013-10-15 03:03:00,62.9,22.1,29.47,WNW,285,6.3,7.2,20,-99.99,,,0.00,0,rob ver 1B,2013-10-15 10:03:00,
2013-10-15 03:04:00,62.8,22.0,29.47,WNW,282,6.2,7.3,20,-99.99,,,0.00,0,rob ver 1B,2013-10-15 10:04:00,
2013-10-15 03:05:00,62.7,22.1,29.47,WNW,284,6.3,7.0,20,-99.99,,,0.00,0,rob ver 1B,2013-10-15 10:05:00,
2013-10-15 03:06:00,62.7,22.0,29.47,WNW,284,6.3,6.9,20,-99.99,,,0.00,0,rob ver 1B,2013-10-15 10:06:00,
2013-10-15 03:07:00,65.7,25.4,29.38,NW,309,8.2,9.6,21,-99.99,,,0.00,0,rob ver 1A,2013-10-15 10:07:00,
2013-10-15 03:08:00,62.7,22.0,29.47,WNW,290,7.0,8.3,20,-99.99,,,0.00,0,rob ver 1B,2013-10-15 10:08:00,
2013-10-15 03:09:00,63.0,22.0,29.47,WNW,297,7.4,8.7,20,-99.99,,,0.00,0,rob ver 1B,2013-10-15 10:09:00,
2013-10-15 03:10:00,63.4,22.0,29.47,WNW,297,7.9,9.4,20,-99.99,,,0.00,0,rob ver 1B,2013-10-15 10:10:00,
2013-10-15 03:11:00,63.7,22.0,29.47,WNW,294,8.0,9.1,20,-99.99,,,0.00,0,rob ver 1B,2013-10-15 10:11:00,
2013-10-15 03:12:00,65.4,25.4,29.38,WNW,300,7.4,8.8,21,-99.99,,,0.00,0,rob ver 1A,2013-10-15 10:12:00,
2013-10-15 03:13:00,64.0,22.0,29.47,WNW,297,7.8,9.2,19,-99.99,,,0.00,0,rob ver 1B,2013-10-15 10:13:00,
2013-10-15 03:14:00,64.1,22.0,29.47,WNW,299,7.7,9.0,19,-99.99,,,0.00,0,rob ver 1B,2013-10-15 10:14:00,
2013-10-15 03:15:00,64.1,22.0,29.47,WNW,296,7.4,8.5,19,-99.99,,,0.00,0,rob ver 1B,2013-10-15 10:15:00,
2013-10-15 03:16:00,64.0,22.0,29.47,WNW,292,6.6,7.6,20,-99.99,,,0.00,0,rob ver 1B,2013-10-15 10:16:00,
2013-10-15 03:17:00,65.3,25.4,29.38,NW,306,7.6,9.2,21,-99.99,,,0.00,0,rob ver 1A,2013-10-15 10:17:00,
2013-10-15 03:18:00,63.7,22.1,29.47,WNW,299,6.7,7.6,20,-99.99,,,0.00,0,rob ver 1B,2013-10-15 10:18:00,
2013-10-15 03:19:00,63.6,22.1,29.47,WNW,301,6.8,8.0,20,-99.99,,,0.00,0,rob ver 1B,2013-10-15 10:19:00,
2013-10-15 03:20:00,63.5,22.1,29.47,WNW,302,7.3,8.9,20,-99.99,,,0.00,0,rob ver 1B,2013-10-15 10:20:00,
2013-10-15 03:21:00,63.5,22.1,29.47,WNW,301,7.7,9.0,20,-99.99,,,0.00,0,rob ver 1B,2013-10-15 10:21:00,
2013-10-15 03:22:00,65.0,25.5,29.38,NW,312,7.3,9.2,22,-99.99,,,0.00,0,rob ver 1A,2013-10-15 10:22:00,
2013-10-15 03:23:00,63.7,22.1,29.47,WNW,303,7.8,8.9,20,-99.99,,,0.00,0,rob ver 1B,2013-10-15 10:23:00,
2013-10-15 03:24:00,63.9,22.1,29.47,NW,304,8.4,10.1,19,-99.99,,,0.00,0,rob ver 1B,2013-10-15 10:24:00,
2013-10-15 03:25:00,64.1,22.1,29.47,NW,306,8.7,11.3,19,-99.99,,,0.00,0,rob ver 1B,2013-10-15 10:25:00,
2013-10-15 03:26:00,64.3,22.1,29.47,NW,307,9.6,10.8,19,-99.99,,,0.00,0,rob ver 1B,2013-10-15 10:26:00,
2013-10-15 03:27:00,65.2,25.5,29.38,NW,311,8.3,9.9,22,-99.99,,,0.00,0,rob ver 1A,2013-10-15 10:27:00,
2013-10-15 03:28:00,64.8,22.1,29.47,WNW,301,9.5,12.0,19,-99.99,,,0.00,0,rob ver 1B,2013-10-15 10:28:00,
2013-10-15 03:29:00,65.1,22.0,29.47,WNW,300,9.1,10.6,19,-99.99,,,0.00,0,rob ver 1B,2013-10-15 10:29:00,
2013-10-15 03:30:00,65.1,22.0,29.47,WNW,293,8.2,9.9,19,-99.99,,,0.00,0,rob ver 1B,2013-10-15 10:30:00,
2013-10-15 03:31:00,64.8,22.0,29.47,West,273,5.7,7.7,19,-99.99,,,0.00,0,rob ver 1B,2013-10-15 10:31:00,
2013-10-15 03:32:00,65.4,25.5,29.38,NW,309,7.9,9.6,21,-99.99,,,0.00,0,rob ver 1A,2013-10-15 10:32:00,
2013-10-15 03:33:00,63.6,22.1,29.47,WNW,282,6.9,7.7,20,-99.99,,,0.00,0,rob ver 1B,2013-10-15 10:33:00,
2013-10-15 03:34:00,63.5,22.1,29.47,WNW,289,7.5,8.6,20,-99.99,,,0.00,0,rob ver 1B,2013-10-15 10:34:00,
2013-10-15 03:35:00,63.6,22.1,29.47,WNW,291,7.2,8.6,20,-99.99,,,0.00,0,rob ver 1B,2013-10-15 10:35:00,
2013-10-15 03:36:00,63.5,22.1,29.47,WNW,289,6.6,8.4,20,-99.99,,,0.00,0,rob ver 1B,2013-10-15 10:36:00,
2013-10-15 03:37:00,65.5,25.5,29.38,WNW,298,7.9,9.3,21,-99.99,,,0.00,0,rob ver 1A,2013-10-15 10:37:00,
2013-10-15 03:38:00,63.3,22.2,29.47,WNW,284,6.4,7.6,20,-99.99,,,0.00,0,rob ver 1B,2013-10-15 10:38:00,
2013-10-15 03:39:00,63.2,22.2,29.47,WNW,286,6.1,6.8,20,-99.99,,,0.00,0,rob ver 1B,2013-10-15 10:39:00,
2013-10-15 03:40:00,63.0,22.2,29.47,West,276,5.7,6.7,20,-99.99,,,0.00,0,rob ver 1B,2013-10-15 10:40:00,
2013-10-15 03:41:00,62.7,22.2,29.47,West,262,4.4,5.7,21,-99.99,,,0.00,0,rob ver 1B,2013-10-15 10:41:00,
2013-10-15 03:42:00,64.9,25.5,29.38,WNW,296,7.7,8.9,22,-99.99,,,0.00,0,rob ver 1A,2013-10-15 10:42:00,
2013-10-15 03:43:00,61.6,22.3,29.47,West,277,4.5,5.3,22,-99.99,,,0.00,0,rob ver 1B,2013-10-15 10:43:00,
2013-10-15 03:44:00,61.3,22.3,29.47,West,278,5.5,6.7,22,-99.99,,,0.00,0,rob ver 1B,2013-10-15 10:44:00,
2013-10-15 03:45:00,61.2,22.2,29.47,West,277,5.7,6.3,22,-99.99,,,0.00,0,rob ver 1B,2013-10-15 10:45:00,
2013-10-15 03:46:00,61.2,22.3,29.47,West,280,5.8,6.5,22,-99.99,,,0.00,0,rob ver 1B,2013-10-15 10:46:00,
2013-10-15 03:47:00,61.1,22.3,29.47,West,281,5.8,6.4,22,-99.99,,,0.00,0,rob ver 1B,2013-10-15 10:47:00,
2013-10-15 03:48:00,64.6,25.6,29.38,WNW,298,7.9,8.8,22,-99.99,,,0.00,0,rob ver 1A,2013-10-15 10:48:00,
2013-10-15 03:49:00,61.0,22.3,29.47,WNW,283,5.6,6.3,22,-99.99,,,0.00,0,rob ver 1B,2013-10-15 10:49:00,
2013-10-15 03:50:00,60.9,22.3,29.47,West,278,5.2,5.7,22,-99.99,,,0.00,0,rob ver 1B,2013-10-15 10:50:00,
2013-10-15 03:51:00,60.8,22.3,29.47,West,274,4.8,5.6,22,-99.99,,,0.00,0,rob ver 1B,2013-10-15 10:51:00,
2013-10-15 03:52:00,60.7,22.3,29.47,West,276,4.8,5.3,22,-99.99,,,0.00,0,rob ver 1B,2013-10-15 10:52:00,
2013-10-15 03:53:00,64.7,25.5,29.38,WNW,302,7.8,9.2,22,-99.99,,,0.00,0,rob ver 1A,2013-10-15 10:53:00,
2013-10-15 03:54:00,60.4,22.3,29.47,West,272,4.5,5.3,22,-99.99,,,0.00,0,rob ver 1B,2013-10-15 10:54:00,
2013-10-15 03:55:00,60.3,22.3,29.47,West,277,4.8,5.7,23,-99.99,,,0.00,0,rob ver 1B,2013-10-15 10:55:00,
2013-10-15 03:56:00,60.3,22.3,29.47,WNW,283,5.3,6.1,22,-99.99,,,0.00,0,rob ver 1B,2013-10-15 10:56:00,
2013-10-15 03:57:00,60.5,22.3,29.47,WNW,286,5.0,6.1,22,-99.99,,,0.00,0,rob ver 1B,2013-10-15 10:57:00,
2013-10-15 03:58:00,64.5,25.6,29.38,WNW,303,7.8,9.4,22,-99.99,,,0.00,0,rob ver 1A,2013-10-15 10:58:00,
2013-10-15 03:59:00,60.7,22.2,29.47,West,275,4.1,5.2,22,-99.99,,,0.00,0,rob ver 1B,2013-10-15 10:59:00,
2013-10-15 04:00:00,60.5,22.2,29.47,West,269,4.1,4.5,22,-99.99,,,0.00,0,rob ver 1B,2013-10-15 11:00:00,
2013-10-15 04:01:00,60.2,22.3,29.47,West,259,3.8,4.1,23,-99.99,,,0.00,0,rob ver 1B,2013-10-15 11:01:00,
2013-10-15 04:02:00,59.9,22.4,29.47,West,266,4.6,5.1,23,-99.99,,,0.00,0,rob ver 1B,2013-10-15 11:02:00,
2013-10-15 04:03:00,64.2,25.6,29.38,WNW,303,8.2,10.3,22,-99.99,,,0.00,0,rob ver 1A,2013-10-15 11:03:00,
2013-10-15 04:04:00,59.4,22.3,29.47,West,267,4.7,5.2,23,-99.99,,,0.00,0,rob ver 1B,2013-10-15 11:04:00,
2013-10-15 04:05:00,59.2,22.3,29.47,West,273,4.3,4.9,23,-99.99,,,0.00,0,rob ver 1B,2013-10-15 11:05:00,
2013-10-15 04:06:00,58.9,22.3,29.47,West,270,5.2,5.5,24,-99.99,,,0.00,0,rob ver 1B,2013-10-15 11:06:00,
2013-10-15 04:07:00,58.8,22.3,29.47,West,277,4.7,5.3,24,-99.99,,,0.00,0,rob ver 1B,2013-10-15 11:07:00,
2013-10-15 04:08:00,64.0,25.6,29.38,WNW,302,7.1,8.6,23,-99.99,,,0.00,0,rob ver 1A,2013-10-15 11:08:00,
2013-10-15 04:09:00,58.5,22.4,29.47,WNW,285,4.7,5.0,24,-99.99,,,0.00,0,rob ver 1B,2013-10-15 11:09:00,
2013-10-15 04:10:00,58.5,22.4,29.47,WNW,288,4.4,4.8,24,-99.99,,,0.00,0,rob ver 1B,2013-10-15 11:10:00,
2013-10-15 04:11:00,58.6,22.4,29.47,West,277,4.1,4.6,24,-99.99,,,0.00,0,rob ver 1B,2013-10-15 11:11:00,
2013-10-15 04:12:00,58.6,22.4,29.47,West,281,4.3,4.9,24,-99.99,,,0.00,0,rob ver 1B,2013-10-15 11:12:00,
2013-10-15 04:13:00,63.7,25.6,29.38,WNW,299,7.7,8.7,23,-99.99,,,0.00,0,rob ver 1A,2013-10-15 11:13:00,
2013-10-15 04:14:00,58.8,22.4,29.47,WNW,284,4.4,5.0,24,-99.99,,,0.00,0,rob ver 1B,2013-10-15 11:14:00,
2013-10-15 04:15:00,58.8,22.4,29.47,WNW,282,4.5,5.1,24,-99.99,,,0.00,0,rob ver 1B,2013-10-15 11:15:00,
2013-10-15 04:16:00,58.8,22.4,29.47,WNW,289,4.7,5.0,24,-99.99,,,0.00,0,rob ver 1B,2013-10-15 11:16:00,
2013-10-15 04:17:00,58.9,22.4,29.47,WNW,287,4.8,5.1,24,-99.99,,,0.00,0,rob ver 1B,2013-10-15 11:17:00,
2013-10-15 04:18:00,63.8,25.6,29.38,WNW,295,7.6,8.9,23,-99.99,,,0.00,0,rob ver 1A,2013-10-15 11:18:00,
2013-10-15 04:19:00,58.9,22.4,29.47,West,278,4.8,5.2,24,-99.99,,,0.00,0,rob ver 1B,2013-10-15 11:19:00,
2013-10-15 04:20:00,58.8,22.4,29.47,West,278,4.8,5.1,24,-99.99,,,0.00,0,rob ver 1B,2013-10-15 11:20:00,
2013-10-15 04:21:00,58.7,22.4,29.47,West,279,5.1,5.7,24,-99.99,,,0.00,0,rob ver 1B,2013-10-15 11:21:00,
2013-10-15 04:22:00,58.7,22.4,29.47,West,280,5.1,5.5,24,-99.99,,,0.00,0,rob ver 1B,2013-10-15 11:22:00,
2013-10-15 04:23:00,58.7,22.4,29.47,West,279,5.2,5.5,24,-99.99,,,0.00,0,rob ver 1B,2013-10-15 11:23:00,
2013-10-15 04:24:00,63.4,25.7,29.38,WNW,299,6.5,7.7,23,-99.99,,,0.00,0,rob ver 1A,2013-10-15 11:24:00,
2013-10-15 04:25:00,58.8,22.4,29.47,WNW,286,5.4,5.8,24,-99.99,,,0.00,0,rob ver 1B,2013-10-15 11:25:00,
2013-10-15 04:26:00,58.9,22.4,29.47,WNW,285,5.0,5.5,24,-99.99,,,0.00,0,rob ver 1B,2013-10-15 11:26:00,
2013-10-15 04:27:00,59.0,22.4,29.47,West,280,4.9,5.4,24,-99.99,,,0.00,0,rob ver 1B,2013-10-15 11:27:00,
2013-10-15 04:28:00,59.0,22.4,29.47,West,281,4.5,4.9,24,-99.99,,,0.00,0,rob ver 1B,2013-10-15 11:28:00,
2013-10-15 04:29:00,62.6,25.7,29.38,West,271,5.1,6.7,24,-99.99,,,0.00,0,rob ver 1A,2013-10-15 11:29:00,
2013-10-15 04:30:00,59.0,22.5,29.47,WNW,286,5.2,5.7,24,-99.99,,,0.00,0,rob ver 1B,2013-10-15 11:30:00,
2013-10-15 04:31:00,59.0,22.5,29.47,WNW,288,5.1,5.7,24,-99.99,,,0.00,0,rob ver 1B,2013-10-15 11:31:00,
2013-10-15 04:32:00,59.0,22.5,29.47,WNW,289,5.0,5.5,24,-99.99,,,0.00,0,rob ver 1B,2013-10-15 11:32:00,
2013-10-15 04:33:00,59.0,22.5,29.47,WNW,284,4.8,5.4,24,-99.99,,,0.00,0,rob ver 1B,2013-10-15 11:33:00,
2013-10-15 04:34:00,61.3,25.8,29.38,WNW,295,4.5,5.9,25,-99.99,,,0.00,0,rob ver 1A,2013-10-15 11:34:00,
2013-10-15 04:35:00,58.9,22.5,29.47,West,279,4.2,4.7,24,-99.99,,,0.00,0,rob ver 1B,2013-10-15 11:35:00,
2013-10-15 04:36:00,58.8,22.5,29.47,WNW,285,4.1,4.6,24,-99.99,,,0.00,0,rob ver 1B,2013-10-15 11:36:00,
2013-10-15 04:37:00,58.8,22.6,29.47,WNW,292,3.7,4.2,24,-99.99,,,0.00,0,rob ver 1B,2013-10-15 11:37:00,
2013-10-15 04:38:00,58.8,22.7,29.47,WNW,296,3.2,3.7,24,-99.99,,,0.00,0,rob ver 1B,2013-10-15 11:38:00,
2013-10-15 04:39:00,62.1,25.9,29.38,NW,304,6.3,7.8,24,-99.99,,,0.00,0,rob ver 1A,2013-10-15 11:39:00,
2013-10-15 04:40:00,58.8,22.7,29.47,NW,314,2.3,2.5,24,-99.99,,,0.00,0,rob ver 1B,2013-10-15 11:40:00,
2013-10-15 04:41:00,58.8,22.8,29.47,NW,320,2.1,2.4,24,-99.99,,,0.00,0,rob ver 1B,2013-10-15 11:41:00,
2013-10-15 04:42:00,58.9,22.9,29.47,NW,316,2.1,2.6,24,-99.99,,,0.00,0,rob ver 1B,2013-10-15 11:42:00,
2013-10-15 04:43:00,58.9,23.0,29.47,WNW,294,2.4,2.9,24,-99.99,,,0.00,0,rob ver 1B,2013-10-15 11:43:00,
2013-10-15 04:44:00,62.3,25.9,29.38,NW,306,6.1,6.8,24,-99.99,,,0.00,0,rob ver 1A,2013-10-15 11:44:00,
2013-10-15 04:45:00,59.0,22.5,29.47,WSW,243,2.8,3.4,24,-99.99,,,0.00,0,rob ver 1B,2013-10-15 11:45:00,
2013-10-15 04:46:00,58.7,22.5,29.47,SW,233,4.0,5.1,24,-99.99,,,0.00,0,rob ver 1B,2013-10-15 11:46:00,
2013-10-15 04:47:00,58.3,22.4,29.47,WSW,241,5.1,5.4,24,-99.99,,,0.00,0,rob ver 1B,2013-10-15 11:47:00,
2013-10-15 04:48:00,58.2,22.6,29.47,WSW,251,5.2,5.4,24,-99.99,,,0.00,0,rob ver 1B,2013-10-15 11:48:00,
2013-10-15 04:49:00,62.2,26.0,29.38,NW,305,6.7,7.4,25,-99.99,,,0.00,0,rob ver 1A,2013-10-15 11:49:00,
2013-10-15 04:50:00,58.4,22.5,29.47,West,260,5.4,5.8,24,-99.99,,,0.00,0,rob ver 1B,2013-10-15 11:50:00,
2013-10-15 04:51:00,58.4,22.6,29.47,West,264,5.6,6.0,24,-99.99,,,0.00,0,rob ver 1B,2013-10-15 11:51:00,
2013-10-15 04:52:00,58.3,22.5,29.50,West,270,6.1,6.6,24,-99.99,,,0.00,0,rob ver 1B,2013-10-15 11:52:00,
2013-10-15 04:53:00,58.3,22.4,29.47,West,271,6.3,7.0,24,-99.99,,,0.00,0,rob ver 1B,2013-10-15 11:53:00,
2013-10-15 04:54:00,62.3,26.0,29.38,WNW,299,6.7,7.4,24,-99.99,,,0.00,0,rob ver 1A,2013-10-15 11:54:00,
2013-10-15 04:55:00,58.3,22.4,29.47,West,280,6.1,6.5,24,-99.99,,,0.00,0,rob ver 1B,2013-10-15 11:55:00,
2013-10-15 04:56:00,58.2,22.5,29.50,WNW,288,6.0,6.5,24,-99.99,,,0.00,0,rob ver 1B,2013-10-15 11:56:00,
2013-10-15 04:57:00,58.4,22.7,29.50,WNW,292,5.7,6.7,25,-99.99,,,0.00,0,rob ver 1B,2013-10-15 11:57:00,
2013-10-15 04:58:00,58.6,22.8,29.47,WNW,294,5.7,6.6,24,-99.99,,,0.00,0,rob ver 1B,2013-10-15 11:58:00,
2013-10-15 04:59:00,58.9,22.8,29.50,WNW,294,5.8,7.3,24,-99.99,,,0.00,0,rob ver 1B,2013-10-15 11:59:00,
2013-10-15 05:00:00,62.3,26.1,29.38,WNW,297,6.3,7.4,25,-99.99,,,0.00,0,rob ver 1A,2013-10-15 12:00:00,
2013-10-15 05:01:00,59.2,22.9,29.50,WNW,284,5.5,6.0,24,-99.99,,,0.00,0,rob ver 1B,2013-10-15 12:01:00,
2013-10-15 05:02:00,59.1,22.8,29.50,West,276,4.9,5.7,24,-99.99,,,0.00,0,rob ver 1B,2013-10-15 12:02:00,
2013-10-15 05:03:00,58.9,22.9,29.50,West,276,5.3,5.9,24,-99.99,,,0.00,0,rob ver 1B,2013-10-15 12:03:00,
2013-10-15 05:04:00,58.8,22.9,29.50,West,281,5.7,6.5,24,-99.99,,,0.00,0,rob ver 1B,2013-10-15 12:04:00,
2013-10-15 05:05:00,60.8,26.0,29.38,West,269,5.1,5.9,26,-99.99,,,0.00,0,rob ver 1A,2013-10-15 12:05:00,
2013-10-15 05:06:00,58.9,23.0,29.50,WNW,292,5.5,6.6,24,-99.99,,,0.00,0,rob ver 1B,2013-10-15 12:06:00,
2013-10-15 05:07:00,59.1,23.1,29.50,WNW,296,5.7,6.3,24,-99.99,,,0.00,0,rob ver 1B,2013-10-15 12:07:00,
2013-10-15 05:08:00,59.3,23.1,29.47,WNW,296,5.5,6.4,24,-99.99,,,0.00,0,rob ver 1B,2013-10-15 12:08:00,
2013-10-15 05:09:00,59.4,23.1,29.50,WNW,293,5.8,6.7,24,-99.99,,,0.00,0,rob ver 1B,2013-10-15 12:09:00,
2013-10-15 05:10:00,60.6,26.0,29.38,West,276,5.7,6.4,26,-99.99,,,0.00,0,rob ver 1A,2013-10-15 12:10:00,
2013-10-15 05:11:00,59.6,23.1,29.50,WNW,295,6.1,6.8,24,-99.99,,,0.00,0,rob ver 1B,2013-10-15 12:11:00,
2013-10-15 05:12:00,59.6,23.1,29.50,WNW,298,6.1,6.7,24,-99.99,,,0.00,0,rob ver 1B,2013-10-15 12:12:00,
2013-10-15 05:13:00,59.7,23.1,29.50,WNW,302,6.3,7.1,24,-99.99,,,0.00,0,rob ver 1B,2013-10-15 12:13:00,
2013-10-15 05:14:00,59.9,23.1,29.50,WNW,303,6.5,7.1,23,-99.99,,,0.00,0,rob ver 1B,2013-10-15 12:14:00,
2013-10-15 05:15:00,61.1,26.0,29.38,WNW,291,4.9,6.0,26,-99.99,,,0.00,0,rob ver 1A,2013-10-15 12:15:00,
2013-10-15 05:16:00,60.2,23.1,29.50,WNW,300,6.8,7.6,23,-99.99,,,0.00,0,rob ver 1B,2013-10-15 12:16:00,
2013-10-15 05:17:00,60.5,23.0,29.50,WNW,297,6.7,7.3,23,-99.99,,,0.00,0,rob ver 1B,2013-10-15 12:17:00,
2013-10-15 05:18:00,60.7,23.0,29.50,WNW,292,6.7,7.8,23,-99.99,,,0.00,0,rob ver 1B,2013-10-15 12:18:00,
2013-10-15 05:19:00,60.8,22.9,29.50,WNW,289,7.1,8.3,23,-99.99,,,0.00,0,rob ver 1B,2013-10-15 12:19:00,
2013-10-15 05:20:00,62.2,26.2,29.38,NW,308,6.6,7.7,25,-99.99,,,0.00,0,rob ver 1A,2013-10-15 12:20:00,
2013-10-15 05:21:00,61.1,22.9,29.50,West,280,7.5,8.5,22,-99.99,,,0.00,0,rob ver 1B,2013-10-15 12:21:00,
2013-10-15 05:22:00,61.0,22.9,29.50,West,280,7.3,8.1,22,-99.99,,,0.00,0,rob ver 1B,2013-10-15 12:22:00,
2013-10-15 05:23:00,60.9,22.9,29.50,West,280,6.9,7.7,23,-99.99,,,0.00,0,rob ver 1B,2013-10-15 12:23:00,
2013-10-15 05:24:00,60.7,22.9,29.50,West,281,6.5,8.1,23,-99.99,,,0.00,0,rob ver 1B,2013-10-15 12:24:00,
2013-10-15 05:25:00,62.6,26.2,29.38,NW,306,7.1,8.9,24,-99.99,,,0.00,0,rob ver 1A,2013-10-15 12:25:00,
2013-10-15 05:26:00,60.4,23.0,29.50,WNW,294,5.5,6.2,23,-99.99,,,0.00,0,rob ver 1B,2013-10-15 12:26:00,
2013-10-15 05:27:00,60.4,23.0,29.50,WNW,293,6.1,7.1,23,-99.99,,,0.00,0,rob ver 1B,2013-10-15 12:27:00,
2013-10-15 05:28:00,60.4,23.0,29.50,WNW,299,6.5,7.7,23,-99.99,,,0.00,0,rob ver 1B,2013-10-15 12:28:00,
2013-10-15 05:29:00,60.5,23.0,29.50,WNW,303,6.7,7.4,23,-99.99,,,0.00,0,rob ver 1B,2013-10-15 12:29:00,
2013-10-15 05:30:00,62.9,26.2,29.38,WNW,303,7.5,8.7,24,-99.99,,,0.00,0,rob ver 1A,2013-10-15 12:30:00,
2013-10-15 05:31:00,60.5,23.0,29.50,WNW,302,6.7,7.7,23,-99.99,,,0.00,0,rob ver 1B,2013-10-15 12:31:00,
2013-10-15 05:32:00,60.4,23.0,29.50,NW,304,6.7,7.5,23,-99.99,,,0.00,0,rob ver 1B,2013-10-15 12:32:00,
2013-10-15 05:33:00,60.3,23.0,29.50,NW,304,7.0,7.8,23,-99.99,,,0.00,0,rob ver 1B,2013-10-15 12:33:00,
2013-10-15 05:34:00,60.2,23.1,29.50,WNW,302,6.5,8.1,23,-99.99,,,0.00,0,rob ver 1B,2013-10-15 12:34:00,
2013-10-15 05:35:00,62.8,26.3,29.38,NW,304,7.8,9.0,24,-99.99,,,0.00,0,rob ver 1A,2013-10-15 12:35:00,
2013-10-15 05:36:00,60.1,23.1,29.50,WNW,298,6.5,7.6,23,-99.99,,,0.00,0,rob ver 1B,2013-10-15 12:36:00,
2013-10-15 05:37:00,60.1,23.0,29.50,WNW,294,6.7,7.9,23,-99.99,,,0.00,0,rob ver 1B,2013-10-15 12:37:00,
2013-10-15 05:38:00,60.1,23.1,29.50,WNW,293,6.6,7.3,23,-99.99,,,0.00,0,rob ver 1B,2013-10-15 12:38:00,
2013-10-15 05:39:00,60.1,23.1,29.50,WNW,291,6.3,7.3,23,-99.99,,,0.00,0,rob ver 1B,2013-10-15 12:39:00,
2013-10-15 05:40:00,60.1,23.1,29.50,WNW,293,6.0,6.7,23,-99.99,,,0.00,0,rob ver 1B,2013-10-15 12:40:00,
2013-10-15 05:41:00,62.7,26.3,29.38,NW,306,7.2,8.2,24,-99.99,,,0.00,0,rob ver 1A,2013-10-15 12:41:00,
2013-10-15 05:42:00,62.8,26.4,29.38,WNW,303,7.6,8.9,24,-99.99,,,0.00,0,rob ver 1A,2013-10-15 12:42:00,
2013-10-15 05:43:00,60.0,23.1,29.50,WNW,298,6.3,7.0,23,-99.99,,,0.00,0,rob ver 1B,2013-10-15 12:43:00,
2013-10-15 05:44:00,60.0,23.1,29.50,WNW,301,6.2,7.3,24,-99.99,,,0.00,0,rob ver 1B,2013-10-15 12:44:00,
2013-10-15 05:45:00,60.0,23.1,29.50,WNW,303,6.6,7.5,24,-99.99,,,0.00,0,rob ver 1B,2013-10-15 12:45:00,
2013-10-15 05:46:00,60.0,23.1,29.50,NW,304,6.7,7.5,23,-99.99,,,0.00,0,rob ver 1B,2013-10-15 12:46:00,
2013-10-15 05:47:00,62.5,26.5,29.38,WNW,302,7.6,9.1,25,-99.99,,,0.00,0,rob ver 1A,2013-10-15 12:47:00,
2013-10-15 05:48:00,60.0,23.1,29.50,WNW,303,6.8,7.6,23,-99.99,,,0.00,0,rob ver 1B,2013-10-15 12:48:00,
2013-10-15 05:49:00,60.1,23.1,29.50,WNW,303,7.4,8.4,23,-99.99,,,0.00,0,rob ver 1B,2013-10-15 12:49:00,
2013-10-15 05:50:00,60.2,23.1,29.50,WNW,300,7.3,8.5,23,-99.99,,,0.00,0,rob ver 1B,2013-10-15 12:50:00,
2013-10-15 05:51:00,60.2,23.2,29.50,WNW,298,7.1,8.2,23,-99.99,,,0.00,0,rob ver 1B,2013-10-15 12:51:00,
2013-10-15 05:52:00,63.2,26.5,29.38,WNW,303,9.1,10.3,24,-99.99,,,0.00,0,rob ver 1A,2013-10-15 12:52:00,
2013-10-15 05:53:00,60.2,23.1,29.50,WNW,296,7.6,9.1,23,-99.99,,,0.00,0,rob ver 1B,2013-10-15 12:53:00,
2013-10-15 05:54:00,60.3,23.1,29.50,WNW,295,7.5,8.8,23,-99.99,,,0.00,0,rob ver 1B,2013-10-15 12:54:00,
2013-10-15 05:55:00,60.3,23.1,29.50,WNW,296,7.5,8.5,23,-99.99,,,0.00,0,rob ver 1B,2013-10-15 12:55:00,
2013-10-15 05:56:00,60.4,23.1,29.50,WNW,298,7.2,8.4,23,-99.99,,,0.00,0,rob ver 1B,2013-10-15 12:56:00,
2013-10-15 05:57:00,63.4,26.5,29.38,WNW,301,8.8,10.2,24,-99.99,,,0.00,0,rob ver 1A,2013-10-15 12:57:00,
2013-10-15 05:58:00,60.5,23.1,29.50,WNW,294,7.7,8.7,23,-99.99,,,0.00,0,rob ver 1B,2013-10-15 12:58:00,
2013-10-15 05:59:00,60.4,23.1,29.50,WNW,288,7.5,8.9,23,-99.99,,,0.00,0,rob ver 1B,2013-10-15 12:59:00,
2013-10-15 06:00:00,60.4,23.1,29.50,WNW,285,7.6,9.1,23,-99.99,,,0.00,0,rob ver 1B,2013-10-15 13:00:00,
2013-10-15 06:01:00,60.3,23.1,29.50,WNW,285,7.6,8.6,23,-99.99,,,0.00,0,rob ver 1B,2013-10-15 13:01:00,
2013-10-15 06:02:00,63.4,26.5,29.38,NW,305,8.1,9.1,24,-99.99,,,0.00,0,rob ver 1A,2013-10-15 13:02:00,
2013-10-15 06:03:00,60.2,23.1,29.50,WNW,288,7.0,8.6,23,-99.99,,,0.00,0,rob ver 1B,2013-10-15 13:03:00,
2013-10-15 06:04:00,60.1,23.2,29.50,WNW,290,7.3,8.6,23,-99.99,,,0.00,0,rob ver 1B,2013-10-15 13:04:00,
2013-10-15 06:05:00,60.1,23.2,29.50,WNW,287,7.3,9.4,23,-99.99,,,0.00,0,rob ver 1B,2013-10-15 13:05:00,
2013-10-15 06:06:00,60.1,23.1,29.50,WNW,288,7.9,9.5,23,-99.99,,,0.00,0,rob ver 1B,2013-10-15 13:06:00,
2013-10-15 06:07:00,63.4,26.5,29.38,WNW,296,7.1,8.7,24,-99.99,,,0.00,0,rob ver 1A,2013-10-15 13:07:00,
2013-10-15 06:08:00,60.3,23.1,29.50,WNW,288,8.3,10.2,23,-99.99,,,0.00,0,rob ver 1B,2013-10-15 13:08:00,
2013-10-15 06:09:00,60.4,23.1,29.50,WNW,290,8.2,9.8,23,-99.99,,,0.00,0,rob ver 1B,2013-10-15 13:09:00,
2013-10-15 06:10:00,60.4,23.1,29.50,WNW,289,7.9,9.4,23,-99.99,,,0.00,0,rob ver 1B,2013-10-15 13:10:00,
2013-10-15 06:11:00,60.4,23.1,29.50,WNW,290,8.2,9.5,23,-99.99,,,0.00,0,rob ver 1B,2013-10-15 13:11:00,
2013-10-15 06:12:00,63.2,26.6,29.38,WNW,301,7.5,9.1,24,-99.99,,,0.00,0,rob ver 1A,2013-10-15 13:12:00,
2013-10-15 06:13:00,60.3,23.2,29.50,WNW,289,8.9,10.8,23,-99.99,,,0.00,0,rob ver 1B,2013-10-15 13:13:00,
2013-10-15 06:14:00,60.3,23.2,29.50,WNW,289,8.9,10.1,23,-99.99,,,0.00,0,rob ver 1B,2013-10-15 13:14:00,
2013-10-15 06:15:00,60.3,23.2,29.50,WNW,289,9.4,10.8,23,-99.99,,,0.00,0,rob ver 1B,2013-10-15 13:15:00,
2013-10-15 06:16:00,60.3,23.2,29.50,WNW,288,9.5,11.6,23,-99.99,,,0.00,0,rob ver 1B,2013-10-15 13:16:00,
2013-10-15 06:17:00,63.3,26.6,29.41,NW,306,7.0,8.3,24,-99.99,,,0.00,0,rob ver 1A,2013-10-15 13:17:00,
2013-10-15 06:18:00,60.3,23.2,29.50,WNW,290,9.8,11.8,23,-99.99,,,0.00,0,rob ver 1B,2013-10-15 13:18:00,
2013-10-15 06:19:00,60.3,23.2,29.50,WNW,288,10.1,11.9,23,-99.99,,,0.00,0,rob ver 1B,2013-10-15 13:19:00,
2013-10-15 06:20:00,60.4,23.2,29.50,WNW,286,10.9,13.0,23,-99.99,,,0.00,0,rob ver 1B,2013-10-15 13:20:00,
2013-10-15 06:21:00,60.6,23.2,29.50,WNW,285,10.8,12.4,23,-99.99,,,0.00,0,rob ver 1B,2013-10-15 13:21:00,
2013-10-15 06:22:00,60.8,23.2,29.50,WNW,288,10.8,12.8,23,-99.99,,,0.00,.165,rob ver 1B,2013-10-15 13:22:00,
2013-10-15 06:23:00,63.3,26.5,29.38,NW,304,7.2,8.5,24,-99.99,,,0.00,0,rob ver 1A,2013-10-15 13:23:00,
2013-10-15 06:24:00,60.9,23.2,29.50,WNW,288,10.4,12.6,23,-99.99,,,0.00,.33,rob ver 1B,2013-10-15 13:24:00,
2013-10-15 06:25:00,60.9,23.2,29.50,WNW,288,10.0,12.1,23,-99.99,,,0.00,.33,rob ver 1B,2013-10-15 13:25:00,
2013-10-15 06:26:00,60.8,23.2,29.50,WNW,287,10.1,11.9,23,-99.99,,,0.00,.33,rob ver 1B,2013-10-15 13:26:00,
2013-10-15 06:27:00,60.8,23.2,29.50,WNW,288,10.0,12.7,23,-99.99,,,0.00,.66,rob ver 1B,2013-10-15 13:27:00,
2013-10-15 06:28:00,63.2,26.7,29.41,NW,314,6.0,7.6,24,-99.99,,,0.00,.66,rob ver 1A,2013-10-15 13:28:00,
2013-10-15 06:29:00,60.7,23.3,29.50,WNW,288,9.9,12.3,23,-99.99,,,0.00,.99,rob ver 1B,2013-10-15 13:29:00,
2013-10-15 06:30:00,60.6,23.3,29.50,WNW,289,9.3,11.1,23,-99.99,,,0.00,.99,rob ver 1B,2013-10-15 13:30:00,
2013-10-15 06:31:00,60.5,23.3,29.50,WNW,289,9.5,10.9,23,-99.99,,,0.00,.99,rob ver 1B,2013-10-15 13:31:00,
2013-10-15 06:32:00,60.4,23.3,29.50,WNW,288,9.2,11.6,23,-99.99,,,0.00,.99,rob ver 1B,2013-10-15 13:32:00,
2013-10-15 06:33:00,62.3,26.5,29.41,West,266,4.8,5.4,25,-99.99,,,0.00,1.32,rob ver 1A,2013-10-15 13:33:00,
2013-10-15 06:34:00,60.2,23.3,29.50,WNW,289,9.3,11.2,24,-99.99,,,0.00,1.485,rob ver 1B,2013-10-15 13:34:00,
2013-10-15 06:35:00,60.2,23.3,29.50,WNW,288,9.9,12.1,23,-99.99,,,0.00,1.98,rob ver 1B,2013-10-15 13:35:00,
2013-10-15 06:36:00,60.2,23.3,29.50,WNW,288,9.4,10.8,24,-99.99,,,0.00,2.145,rob ver 1B,2013-10-15 13:36:00,
2013-10-15 06:37:00,60.1,23.3,29.50,WNW,289,9.6,11.5,24,-99.99,,,0.00,2.64,rob ver 1B,2013-10-15 13:37:00,
2013-10-15 06:38:00,60.7,26.5,29.41,West,279,5.3,5.9,26,-99.99,,,0.00,2.969,rob ver 1A,2013-10-15 13:38:00,
2013-10-15 06:39:00,60.2,23.3,29.50,WNW,292,9.0,10.3,24,-99.99,,,0.00,3.3,rob ver 1B,2013-10-15 13:39:00,
2013-10-15 06:40:00,60.2,23.3,29.50,WNW,292,8.7,10.7,24,-99.99,,,0.00,3.96,rob ver 1B,2013-10-15 13:40:00,
2013-10-15 06:41:00,60.2,23.3,29.50,WNW,295,8.3,9.8,23,-99.99,,,0.00,4.62,rob ver 1B,2013-10-15 13:41:00,
2013-10-15 06:42:00,60.3,23.3,29.53,WNW,296,8.7,10.4,23,-99.99,,,0.00,5.115,rob ver 1B,2013-10-15 13:42:00,
2013-10-15 06:43:00,58.8,26.4,29.41,West,273,3.7,4.1,28,-99.99,,,0.00,5.608,rob ver 1A,2013-10-15 13:43:00,
2013-10-15 06:44:00,60.4,23.4,29.50,WNW,301,7.9,9.1,23,-99.99,,,0.00,5.94,rob ver 1B,2013-10-15 13:44:00,
2013-10-15 06:45:00,60.4,23.4,29.53,WNW,302,7.9,9.2,23,-99.99,,,0.00,7.75,rob ver 1B,2013-10-15 13:45:00,
2013-10-15 06:46:00,60.4,23.4,29.53,WNW,302,7.9,9.0,23,-99.99,,,0.00,11.22,rob ver 1B,2013-10-15 13:46:00,
2013-10-15 06:47:00,60.4,23.4,29.53,WNW,303,7.7,8.9,23,-99.99,,,0.00,14.52,rob ver 1B,2013-10-15 13:47:00,
2013-10-15 06:48:00,58.0,26.4,29.41,West,279,3.4,4.4,29,-99.99,,,0.00,17.32,rob ver 1A,2013-10-15 13:48:00,
2013-10-15 06:49:00,60.5,23.4,29.53,WNW,301,7.9,9.8,23,-99.99,,,0.00,19.47,rob ver 1B,2013-10-15 13:49:00,
2013-10-15 06:50:00,60.5,23.5,29.53,WNW,299,8.2,10.0,23,-99.99,,,0.00,21.78,rob ver 1B,2013-10-15 13:50:00,
2013-10-15 06:51:00,60.4,23.4,29.53,WNW,298,8.5,10.1,23,-99.99,,,0.00,24.75,rob ver 1B,2013-10-15 13:51:00,
2013-10-15 06:52:00,60.4,23.4,29.53,WNW,297,8.6,10.1,24,-99.99,,,0.00,27.72,rob ver 1B,2013-10-15 13:52:00,
2013-10-15 06:53:00,58.8,26.5,29.41,West,262,3.3,4.4,28,-99.99,,,0.00,30.02,rob ver 1A,2013-10-15 13:53:00,
2013-10-15 06:54:00,60.3,23.5,29.53,WNW,297,9.0,10.1,24,-99.99,,,0.00,33,rob ver 1B,2013-10-15 13:54:00,
2013-10-15 06:55:00,60.2,23.5,29.53,WNW,299,8.7,10.0,24,-99.99,,,0.00,35.64,rob ver 1B,2013-10-15 13:55:00,
2013-10-15 06:56:00,60.1,23.5,29.53,WNW,299,8.6,10.1,24,-99.99,,,0.00,38.28,rob ver 1B,2013-10-15 13:56:00,
2013-10-15 06:57:00,60.2,23.5,29.53,WNW,301,8.9,10.7,24,-99.99,,,0.00,40.59,rob ver 1B,2013-10-15 13:57:00,
2013-10-15 06:58:00,58.3,26.6,29.41,WNW,284,3.9,4.6,29,-99.99,,,0.00,42.89,rob ver 1A,2013-10-15 13:58:00,
2013-10-15 06:59:00,60.2,23.5,29.53,NW,305,8.6,9.6,24,-99.99,,,0.00,46.86,rob ver 1B,2013-10-15 13:59:00,
2013-10-15 07:00:00,60.2,23.5,29.53,NW,306,8.5,9.4,24,-99.99,,,0.00,48.84,rob ver 1B,2013-10-15 14:00:00,
2013-10-15 07:01:00,60.2,23.5,29.53,NW,307,8.4,10.2,24,-99.99,,,0.00,51.48,rob ver 1B,2013-10-15 14:01:00,
2013-10-15 07:02:00,60.2,23.6,29.53,NW,307,8.7,10.6,24,-99.99,,,0.00,54.78,rob ver 1B,2013-10-15 14:02:00,
2013-10-15 07:03:00,60.3,23.6,29.53,NW,305,8.9,10.2,24,-99.99,,,0.00,57.58,rob ver 1B,2013-10-15 14:03:00,
2013-10-15 07:04:00,61.3,26.8,29.41,WNW,297,6.2,7.4,26,-99.99,,,0.00,56.42,rob ver 1A,2013-10-15 14:04:00,
2013-10-15 07:05:00,60.3,23.6,29.53,WNW,301,9.5,10.9,24,-99.99,,,0.00,62.7,rob ver 1B,2013-10-15 14:05:00,
2013-10-15 07:06:00,60.3,23.7,29.53,WNW,300,9.8,11.0,24,-99.99,,,0.00,65.34,rob ver 1B,2013-10-15 14:06:00,
2013-10-15 07:07:00,60.3,23.7,29.53,WNW,299,9.9,11.0,24,-99.99,,,0.00,68.8,rob ver 1B,2013-10-15 14:07:00,
2013-10-15 07:08:00,60.4,23.7,29.53,WNW,298,10.2,11.2,24,-99.99,,,0.00,71.9,rob ver 1B,2013-10-15 14:08:00,
2013-10-15 07:09:00,62.9,26.9,29.41,WNW,293,5.3,6.1,25,-99.99,,,0.00,70.3,rob ver 1A,2013-10-15 14:09:00,
2013-10-15 07:10:00,60.4,23.8,29.53,WNW,300,10.2,12.5,24,-99.99,,,0.00,76.6,rob ver 1B,2013-10-15 14:10:00,
2013-10-15 07:11:00,60.5,23.7,29.53,WNW,301,10.4,11.6,24,-99.99,,,0.00,79.4,rob ver 1B,2013-10-15 14:11:00,
2013-10-15 07:12:00,60.7,23.8,29.53,WNW,303,10.4,12.1,24,-99.99,,,0.00,82.7,rob ver 1B,2013-10-15 14:12:00,
2013-10-15 07:13:00,60.8,23.8,29.53,WNW,301,10.2,11.7,23,-99.99,,,0.00,85.1,rob ver 1B,2013-10-15 14:13:00,
2013-10-15 07:14:00,61.0,23.9,29.53,WNW,301,9.7,11.9,23,-99.99,,,0.00,88.3,rob ver 1B,2013-10-15 14:14:00,
2013-10-15 07:15:00,60.7,26.8,29.41,WSW,256,4.0,4.9,27,-99.99,,,0.00,89.7,rob ver 1A,2013-10-15 14:15:00,
2013-10-15 07:16:00,61.4,23.8,29.53,WNW,301,10.4,12.3,23,-99.99,,,0.00,93.9,rob ver 1B,2013-10-15 14:16:00,
2013-10-15 07:17:00,61.5,23.8,29.53,WNW,302,10.3,12.4,23,-99.99,,,0.00,97,rob ver 1B,2013-10-15 14:17:00,
2013-10-15 07:18:00,61.7,23.8,29.53,WNW,301,10.4,12.5,23,-99.99,,,0.00,99.7,rob ver 1B,2013-10-15 14:18:00,
2013-10-15 07:19:00,61.9,23.9,29.53,WNW,298,10.0,12.0,23,-99.99,,,0.00,103,rob ver 1B,2013-10-15 14:19:00,
2013-10-15 07:20:00,61.6,26.9,29.41,West,261,4.4,6.0,26,-99.99,,,0.00,104.3,rob ver 1A,2013-10-15 14:20:00,
2013-10-15 07:21:00,62.0,23.9,29.53,WNW,297,8.9,11.2,23,-99.99,,,0.00,108.9,rob ver 1B,2013-10-15 14:21:00,
2013-10-15 07:22:00,62.1,23.9,29.53,WNW,297,9.3,11.3,23,-99.99,,,0.00,112.2,rob ver 1B,2013-10-15 14:22:00,
2013-10-15 07:23:00,62.2,24.0,29.53,WNW,299,8.9,10.8,23,-99.99,,,0.00,114.8,rob ver 1B,2013-10-15 14:23:00,
2013-10-15 07:24:00,62.3,24.0,29.53,WNW,297,8.8,11.0,22,-99.99,,,0.00,117.5,rob ver 1B,2013-10-15 14:24:00,
2013-10-15 07:25:00,62.7,27.0,29.41,WSW,253,6.1,7.9,25,-99.99,,,0.00,119.4,rob ver 1A,2013-10-15 14:25:00,
2013-10-15 07:26:00,62.5,24.1,29.53,WNW,298,8.3,11.0,22,-99.99,,,0.00,123.4,rob ver 1B,2013-10-15 14:26:00,
2013-10-15 07:27:00,62.6,24.1,29.53,WNW,295,8.0,10.6,22,-99.99,,,0.00,127,rob ver 1B,2013-10-15 14:27:00,
2013-10-15 07:28:00,62.7,24.1,29.53,WNW,297,8.3,10.2,22,-99.99,,,0.00,129.8,rob ver 1B,2013-10-15 14:28:00,
2013-10-15 07:29:00,62.8,24.1,29.53,WNW,290,7.7,9.6,22,-99.99,,,0.00,132.8,rob ver 1B,2013-10-15 14:29:00,
2013-10-15 07:30:00,62.9,24.2,29.53,WNW,289,6.7,8.3,22,-99.99,,,0.00,135.9,rob ver 1B,2013-10-15 14:30:00,
2013-10-15 07:31:00,62.8,27.2,29.41,West,265,5.1,7.2,25,-99.99,,,0.00,135.1,rob ver 1A,2013-10-15 14:31:00,
2013-10-15 07:32:00,62.9,24.2,29.53,WNW,285,7.1,8.7,22,-99.99,,,0.00,141.9,rob ver 1B,2013-10-15 14:32:00,
2013-10-15 07:33:00,63.0,24.2,29.53,WNW,288,7.1,9.4,22,-99.99,,,0.00,145.2,rob ver 1B,2013-10-15 14:33:00,
2013-10-15 07:34:00,63.1,24.3,29.53,WNW,289,7.2,8.8,22,-99.99,,,0.00,148.5,rob ver 1B,2013-10-15 14:34:00,
2013-10-15 07:35:00,63.2,24.2,29.53,WNW,290,8.1,10.8,22,-99.99,,,0.00,151.8,rob ver 1B,2013-10-15 14:35:00,
2013-10-15 07:36:00,62.3,27.5,29.41,WSW,256,4.2,5.3,26,-99.99,,,0.00,150.9,rob ver 1A,2013-10-15 14:36:00,
2013-10-15 07:37:00,63.4,24.2,29.53,WNW,292,9.5,11.4,22,-99.99,,,0.00,158.1,rob ver 1B,2013-10-15 14:37:00,
2013-10-15 07:38:00,63.5,24.3,29.53,WNW,291,8.6,10.6,22,-99.99,,,0.00,161.3,rob ver 1B,2013-10-15 14:38:00,
2013-10-15 07:39:00,63.6,24.2,29.53,WNW,294,9.8,11.9,22,-99.99,,,0.00,164.5,rob ver 1B,2013-10-15 14:39:00,
2013-10-15 07:40:00,63.7,24.2,29.53,WNW,291,10.5,12.4,22,-99.99,,,0.00,167.6,rob ver 1B,2013-10-15 14:40:00,
2013-10-15 07:41:00,61.9,27.7,29.41,SW,235,2.7,3.7,27,-99.99,,,0.00,166.3,rob ver 1A,2013-10-15 14:41:00,
2013-10-15 07:42:00,63.8,24.3,29.53,WNW,291,10.4,12.4,22,-99.99,,,0.00,174.9,rob ver 1B,2013-10-15 14:42:00,
2013-10-15 07:43:00,63.8,24.4,29.53,WNW,293,9.7,11.4,22,-99.99,,,0.00,177.8,rob ver 1B,2013-10-15 14:43:00,
2013-10-15 07:44:00,63.9,24.3,29.53,WNW,294,10.2,12.2,22,-99.99,,,0.00,181.5,rob ver 1B,2013-10-15 14:44:00,
2013-10-15 07:45:00,64.0,24.3,29.53,WNW,295,10.2,11.5,21,-99.99,,,0.00,184.8,rob ver 1B,2013-10-15 14:45:00,
2013-10-15 07:46:00,62.7,27.8,29.41,SW,234,3.3,4.2,26,-99.99,,,0.00,183.1,rob ver 1A,2013-10-15 14:46:00,
2013-10-15 07:47:00,64.2,24.3,29.53,WNW,293,11.2,13.5,21,-99.99,,,0.00,191,rob ver 1B,2013-10-15 14:47:00,
2013-10-15 07:48:00,64.3,24.3,29.53,WNW,294,10.6,12.5,21,-99.99,,,0.00,194.5,rob ver 1B,2013-10-15 14:48:00,
2013-10-15 07:49:00,64.3,24.3,29.53,WNW,296,11.3,15.0,21,-99.99,,,0.00,198.5,rob ver 1B,2013-10-15 14:49:00,
2013-10-15 07:50:00,64.5,24.4,29.53,WNW,293,9.8,12.1,21,-99.99,,,0.00,201.3,rob ver 1B,2013-10-15 14:50:00,
2013-10-15 07:51:00,63.5,28.0,29.41,WSW,246,2.9,3.5,25,-99.99,,,0.00,200.1,rob ver 1A,2013-10-15 14:51:00,
2013-10-15 07:52:00,64.6,24.3,29.53,WNW,294,11.5,14.7,21,-99.99,,,0.00,208.5,rob ver 1B,2013-10-15 14:52:00,
2013-10-15 07:53:00,64.7,24.2,29.53,WNW,293,11.1,13.3,21,-99.99,,,0.00,211.8,rob ver 1B,2013-10-15 14:53:00,
2013-10-15 07:54:00,64.7,24.3,29.53,WNW,293,10.6,13.5,21,-99.99,,,0.00,215,rob ver 1B,2013-10-15 14:54:00,
2013-10-15 07:55:00,64.8,24.3,29.53,WNW,293,11.0,12.7,21,-99.99,,,0.00,218.4,rob ver 1B,2013-10-15 14:55:00,
2013-10-15 07:56:00,64.9,24.3,29.53,WNW,292,10.8,13.2,21,-99.99,,,0.00,221.7,rob ver 1B,2013-10-15 14:56:00,
2013-10-15 07:57:00,64.9,24.3,29.53,WNW,293,11.0,13.4,21,-99.99,,,0.00,225.3,rob ver 1B,2013-10-15 14:57:00,
2013-10-15 07:58:00,65.0,24.3,29.53,WNW,290,11.6,15.0,21,-99.99,,,0.00,228.5,rob ver 1B,2013-10-15 14:58:00,
2013-10-15 07:59:00,65.0,24.3,29.53,WNW,291,11.7,14.8,21,-99.99,,,0.00,232.3,rob ver 1B,2013-10-15 14:59:00,
2013-10-15 08:00:00,65.1,24.4,29.53,WNW,292,10.7,13.2,21,-99.99,,,0.00,235.6,rob ver 1B,2013-10-15 15:00:00,
2013-10-15 08:01:00,65.2,24.3,29.53,WNW,290,12.1,14.4,21,-99.99,,,0.00,239.5,rob ver 1B,2013-10-15 15:01:00,
2013-10-15 08:03:00,65.2,24.2,29.53,WNW,290,13.2,15.9,20,-99.99,,,0.00,246.1,rob ver 1B,2013-10-15 15:03:00,
2013-10-15 08:04:00,65.3,24.3,29.53,WNW,291,12.8,15.0,21,-99.99,,,0.00,249.1,rob ver 1B,2013-10-15 15:04:00,
2013-10-15 08:05:00,65.3,24.3,29.53,WNW,291,12.3,14.7,20,-99.99,,,0.00,252.9,rob ver 1B,2013-10-15 15:05:00,
2013-10-15 08:06:00,65.4,24.3,29.53,WNW,288,13.0,16.1,20,-99.99,,,0.00,256,rob ver 1B,2013-10-15 15:06:00,
2013-10-15 08:07:00,65.4,24.4,29.53,WNW,288,11.9,14.5,20,-99.99,,,0.00,259.5,rob ver 1B,2013-10-15 15:07:00,
2013-10-15 08:08:00,65.5,24.3,29.53,WNW,291,12.4,15.7,20,-99.99,,,0.00,262.9,rob ver 1B,2013-10-15 15:08:00,
2013-10-15 08:09:00,67.3,27.4,29.44,WNW,297,9.3,10.7,22,-99.99,,,0.00,264.3,rob ver 1A,2013-10-15 15:09:00,
2013-10-15 08:10:00,65.7,24.6,29.56,WNW,291,9.9,13.0,20,-99.99,,,0.00,269.9,rob ver 1B,2013-10-15 15:10:00,
2013-10-15 08:11:00,65.8,24.4,29.56,WNW,288,12.6,15.5,20,-99.99,,,0.00,272.5,rob ver 1B,2013-10-15 15:11:00,
2013-10-15 08:12:00,65.8,24.4,29.53,WNW,286,12.5,14.4,20,-99.99,,,0.00,276.8,rob ver 1B,2013-10-15 15:12:00,
2013-10-15 08:13:00,65.9,24.5,29.56,WNW,286,12.0,14.1,20,-99.99,,,0.00,280.1,rob ver 1B,2013-10-15 15:13:00,
2013-10-15 08:14:00,65.9,24.3,29.56,WNW,284,12.7,14.5,20,-99.99,,,0.00,283.7,rob ver 1B,2013-10-15 15:14:00,
2013-10-15 08:15:00,66.0,24.5,29.56,WNW,288,11.4,14.6,20,-99.99,,,0.00,286.7,rob ver 1B,2013-10-15 15:15:00,
2013-10-15 08:16:00,66.1,24.3,29.56,WNW,288,12.6,14.9,20,-99.99,,,0.00,290.3,rob ver 1B,2013-10-15 15:16:00,
2013-10-15 08:17:00,66.2,24.5,29.56,WNW,286,11.3,14.6,20,-99.99,,,0.00,293.9,rob ver 1B,2013-10-15 15:17:00,
2013-10-15 08:18:00,66.3,24.3,29.56,WNW,283,12.4,15.6,19,-99.99,,,0.00,297.2,rob ver 1B,2013-10-15 15:18:00,
2013-10-15 08:19:00,66.4,24.4,29.56,WNW,288,11.2,13.7,20,-99.99,,,0.00,300.7,rob ver 1B,2013-10-15 15:19:00,
2013-10-15 08:20:00,66.5,24.4,29.56,WNW,286,12.0,17.2,20,-99.99,,,0.00,304.2,rob ver 1B,2013-10-15 15:20:00,
2013-10-15 08:21:00,67.5,27.3,29.44,WNW,303,9.1,10.4,22,-99.99,,,0.00,301.9,rob ver 1A,2013-10-15 15:21:00,
2013-10-15 08:22:00,66.7,24.3,29.56,WNW,289,12.0,13.7,19,-99.99,,,0.00,310.9,rob ver 1B,2013-10-15 15:22:00,
2013-10-15 08:23:00,66.7,24.3,29.56,WNW,287,13.4,16.8,19,-99.99,,,0.00,314.7,rob ver 1B,2013-10-15 15:23:00,
2013-10-15 08:24:00,66.8,24.4,29.56,WNW,288,12.1,16.0,19,-99.99,,,0.00,317.7,rob ver 1B,2013-10-15 15:24:00,
2013-10-15 08:25:00,66.9,24.5,29.56,WNW,282,10.8,12.9,20,-99.99,,,0.00,320.3,rob ver 1B,2013-10-15 15:25:00,
2013-10-15 08:26:00,67.6,27.3,29.44,WNW,303,9.5,11.4,21,-99.99,,,0.00,319.3,rob ver 1A,2013-10-15 15:26:00,
2013-10-15 08:27:00,67.0,24.8,29.56,West,267,10.8,12.9,20,-99.99,,,0.00,327.9,rob ver 1B,2013-10-15 15:27:00,
2013-10-15 08:28:00,66.9,25.2,29.56,WSW,257,10.5,12.4,20,-99.99,,,0.00,330.9,rob ver 1B,2013-10-15 15:28:00,
2013-10-15 08:29:00,66.5,25.2,29.56,WSW,254,11.9,14.7,20,-99.99,,,0.00,334.5,rob ver 1B,2013-10-15 15:29:00,
2013-10-15 08:30:00,66.2,25.1,29.56,WSW,257,11.5,13.6,21,-99.99,,,0.00,338.1,rob ver 1B,2013-10-15 15:30:00,
2013-10-15 08:31:00,68.1,27.5,29.44,WNW,289,8.7,10.3,21,-99.99,,,0.00,336,rob ver 1A,2013-10-15 15:31:00,
2013-10-15 08:32:00,66.1,25.0,29.56,West,263,10.9,13.4,20,-99.99,,,0.00,344.6,rob ver 1B,2013-10-15 15:32:00,
2013-10-15 08:33:00,66.2,25.1,29.56,West,262,9.9,12.1,20,-99.99,,,0.00,347.9,rob ver 1B,2013-10-15 15:33:00,
2013-10-15 08:34:00,66.3,24.9,29.56,West,260,10.8,13.3,20,-99.99,,,0.00,351.3,rob ver 1B,2013-10-15 15:34:00,
2013-10-15 08:35:00,66.3,24.9,29.56,West,261,11.0,12.7,20,-99.99,,,0.00,354.6,rob ver 1B,2013-10-15 15:35:00,
2013-10-15 08:36:00,68.5,27.5,29.44,WNW,291,8.2,10.4,21,-99.99,,,0.00,353,rob ver 1A,2013-10-15 15:36:00,
2013-10-15 08:37:00,66.4,24.9,29.56,WSW,258,11.1,12.7,20,-99.99,,,0.00,361.2,rob ver 1B,2013-10-15 15:37:00,
2013-10-15 08:38:00,66.4,25.1,29.56,WSW,258,10.0,13.0,20,-99.99,,,0.00,364.5,rob ver 1B,2013-10-15 15:38:00,
2013-10-15 08:39:00,66.6,24.9,29.56,WSW,257,11.8,13.6,20,-99.99,,,0.00,367.8,rob ver 1B,2013-10-15 15:39:00,
2013-10-15 08:40:00,66.6,24.9,29.56,WSW,256,10.9,13.9,20,-99.99,,,0.00,371.6,rob ver 1B,2013-10-15 15:40:00,
2013-10-15 08:41:00,68.7,27.5,29.44,WNW,291,8.5,10.2,21,-99.99,,,0.00,372.1,rob ver 1A,2013-10-15 15:41:00,
2013-10-15 08:42:00,66.7,25.1,29.56,West,259,10.9,14.0,20,-99.99,,,0.00,378.4,rob ver 1B,2013-10-15 15:42:00,
2013-10-15 08:43:00,66.8,25.1,29.56,West,261,10.0,12.6,20,-99.99,,,0.00,381,rob ver 1B,2013-10-15 15:43:00,
2013-10-15 08:44:00,67.0,25.1,29.56,West,259,11.0,13.1,20,-99.99,,,0.00,385,rob ver 1B,2013-10-15 15:44:00,
2013-10-15 08:45:00,67.2,25.0,29.56,West,264,10.4,12.7,20,-99.99,,,0.00,388.3,rob ver 1B,2013-10-15 15:45:00,
2013-10-15 08:46:00,69.2,27.5,29.44,WNW,287,8.6,9.9,20,-99.99,,,0.00,387.9,rob ver 1A,2013-10-15 15:46:00,
2013-10-15 08:47:00,67.5,24.7,29.56,West,263,12.1,16.4,19,-99.99,,,0.00,394.9,rob ver 1B,2013-10-15 15:47:00,
2013-10-15 08:48:00,67.6,24.5,29.56,West,269,14.2,15.8,19,-99.99,,,0.00,398,rob ver 1B,2013-10-15 15:48:00,
2013-10-15 08:49:00,67.6,24.6,29.56,West,270,12.6,16.3,19,-99.99,,,0.00,401.5,rob ver 1B,2013-10-15 15:49:00,
2013-10-15 08:50:00,67.8,24.6,29.56,West,272,11.1,13.7,19,-99.99,,,0.00,404.6,rob ver 1B,2013-10-15 15:50:00,
2013-10-15 08:51:00,68.0,24.2,29.56,West,271,13.7,17.4,19,-99.99,,,0.00,407.6,rob ver 1B,2013-10-15 15:51:00,
2013-10-15 08:52:00,69.7,27.5,29.44,WNW,291,8.2,9.5,20,-99.99,,,0.00,404.4,rob ver 1A,2013-10-15 15:52:00,
2013-10-15 08:53:00,68.0,24.2,29.56,West,268,12.9,16.4,18,-99.99,,,0.00,414,rob ver 1B,2013-10-15 15:53:00,
2013-10-15 08:54:00,68.1,24.1,29.56,West,273,14.7,17.3,18,-99.99,,,0.00,417.3,rob ver 1B,2013-10-15 15:54:00,
2013-10-15 08:55:00,68.1,24.3,29.56,West,266,13.6,16.1,18,-99.99,,,0.00,421.1,rob ver 1B,2013-10-15 15:55:00,
2013-10-15 08:56:00,68.2,24.3,29.56,West,269,12.7,15.8,18,-99.99,,,0.00,423.7,rob ver 1B,2013-10-15 15:56:00,
2013-10-15 08:57:00,69.9,27.2,29.44,WNW,292,9.4,11.3,19,-99.99,,,0.00,420.2,rob ver 1A,2013-10-15 15:57:00,
2013-10-15 08:58:00,68.4,24.2,29.56,West,274,13.5,16.7,18,-99.99,,,0.00,429.9,rob ver 1B,2013-10-15 15:58:00,
2013-10-15 08:59:00,68.5,24.0,29.56,West,273,14.1,16.5,18,-99.99,,,0.00,433.4,rob ver 1B,2013-10-15 15:59:00,
2013-10-15 09:00:00,68.5,23.8,29.56,West,275,14.7,18.0,18,-99.99,,,0.00,436.4,rob ver 1B,2013-10-15 16:00:00,
2013-10-15 09:01:00,68.7,23.9,29.56,West,278,13.5,16.7,18,-99.99,,,0.00,439.5,rob ver 1B,2013-10-15 16:01:00,
2013-10-15 09:02:00,70.5,27.0,29.44,WNW,289,10.2,12.0,19,-99.99,,,0.00,436.1,rob ver 1A,2013-10-15 16:02:00,
2013-10-15 09:03:00,69.1,23.9,29.56,West,267,14.3,18.7,17,-99.99,,,0.00,445.8,rob ver 1B,2013-10-15 16:03:00,
2013-10-15 09:04:00,69.2,23.7,29.56,West,280,13.6,16.8,17,-99.99,,,0.00,449.4,rob ver 1B,2013-10-15 16:04:00,
2013-10-15 09:05:00,69.3,23.3,29.56,West,280,17.5,22.1,17,-99.99,,,0.00,452.2,rob ver 1B,2013-10-15 16:05:00,
2013-10-15 09:06:00,69.2,23.4,29.56,West,277,18.5,22.3,17,-99.99,,,0.00,455.5,rob ver 1B,2013-10-15 16:06:00,
2013-10-15 09:07:00,70.2,27.0,29.44,WNW,291,9.1,10.3,19,-99.99,,,0.00,451.2,rob ver 1A,2013-10-15 16:07:00,
2013-10-15 09:08:00,69.4,23.4,29.56,West,278,14.9,17.9,17,-99.99,,,0.00,461.4,rob ver 1B,2013-10-15 16:08:00,
2013-10-15 09:09:00,69.7,23.2,29.56,West,280,17.9,23.4,16,-99.99,,,0.00,463.9,rob ver 1B,2013-10-15 16:09:00,
2013-10-15 09:10:00,69.6,23.2,29.56,West,278,17.7,21.2,17,-99.99,,,0.00,467.4,rob ver 1B,2013-10-15 16:10:00,
2013-10-15 09:11:00,69.5,23.5,29.56,West,280,17.7,21.5,17,-99.99,,,0.00,470.5,rob ver 1B,2013-10-15 16:11:00,
2013-10-15 09:12:00,70.9,27.4,29.44,West,280,9.0,12.2,19,-99.99,,,0.00,465.9,rob ver 1A,2013-10-15 16:12:00,
2013-10-15 09:13:00,69.6,23.2,29.56,WNW,284,18.6,22.8,17,-99.99,,,0.00,476.7,rob ver 1B,2013-10-15 16:13:00,
2013-10-15 09:14:00,69.5,23.2,29.56,WNW,282,18.2,23.6,17,-99.99,,,0.00,479.5,rob ver 1B,2013-10-15 16:14:00,
2013-10-15 09:15:00,69.7,23.4,29.56,West,280,16.0,21.7,17,-99.99,,,0.00,482.5,rob ver 1B,2013-10-15 16:15:00,
2013-10-15 09:16:00,69.8,23.3,29.56,West,281,16.3,21.0,16,-99.99,,,0.00,485.8,rob ver 1B,2013-10-15 16:16:00,
2013-10-15 09:17:00,71.2,27.1,29.44,West,278,11.4,12.9,19,-99.99,,,0.00,480.2,rob ver 1A,2013-10-15 16:17:00,
2013-10-15 09:18:00,69.9,23.0,29.56,West,281,15.7,20.5,17,-99.99,,,0.00,491.4,rob ver 1B,2013-10-15 16:18:00,
2013-10-15 09:19:00,70.1,22.7,29.56,WNW,286,15.6,20.1,16,-99.99,,,0.00,494.4,rob ver 1B,2013-10-15 16:19:00,
2013-10-15 09:20:00,70.4,23.2,29.56,WNW,288,14.8,19.6,16,-99.99,,,0.00,497,rob ver 1B,2013-10-15 16:20:00,
2013-10-15 09:21:00,70.6,22.3,29.56,WNW,294,14.5,18.7,15,-99.99,,,0.00,500.6,rob ver 1B,2013-10-15 16:21:00,
2013-10-15 09:22:00,71.6,27.0,29.44,West,281,10.6,12.3,18,-99.99,,,0.00,498,rob ver 1A,2013-10-15 16:22:00,
2013-10-15 09:23:00,70.6,21.3,29.56,WNW,283,19.6,24.2,15,-99.99,,,0.00,506.4,rob ver 1B,2013-10-15 16:23:00,
2013-10-15 09:24:00,70.5,21.2,29.56,West,279,21.4,25.8,15,-99.99,,,0.00,509,rob ver 1B,2013-10-15 16:24:00,
2013-10-15 09:25:00,70.4,21.2,29.56,West,275,21.3,24.6,15,-99.99,,,0.00,512.2,rob ver 1B,2013-10-15 16:25:00,
2013-10-15 09:26:00,70.4,21.1,29.56,West,281,19.4,23.3,15,-99.99,,,0.00,514.6,rob ver 1B,2013-10-15 16:26:00,
2013-10-15 09:27:00,70.5,21.2,29.56,WNW,285,17.2,21.2,15,-99.99,,,0.00,518.1,rob ver 1B,2013-10-15 16:27:00,
2013-10-15 09:28:00,72.1,27.2,29.44,West,275,11.2,15.2,18,-99.99,,,0.00,512.9,rob ver 1A,2013-10-15 16:28:00,
2013-10-15 09:29:00,70.7,21.2,29.56,WNW,284,20.3,24.1,15,-99.99,,,0.00,523.1,rob ver 1B,2013-10-15 16:29:00,
2013-10-15 09:30:00,70.7,21.3,29.56,WNW,283,16.9,20.2,15,-99.99,,,0.00,526,rob ver 1B,2013-10-15 16:30:00,
2013-10-15 09:31:00,70.8,21.3,29.56,WNW,289,18.4,21.7,15,-99.99,,,0.00,529.5,rob ver 1B,2013-10-15 16:31:00,
2013-10-15 09:32:00,70.8,21.3,29.56,WNW,288,17.4,23.0,15,-99.99,,,0.00,531.8,rob ver 1B,2013-10-15 16:32:00,
2013-10-15 09:33:00,72.2,27.2,29.44,West,281,12.5,14.4,18,-99.99,,,0.00,526.4,rob ver 1A,2013-10-15 16:33:00,
2013-10-15 09:34:00,70.8,21.2,29.56,WNW,289,17.6,20.8,15,-99.99,,,0.00,536.8,rob ver 1B,2013-10-15 16:34:00,
2013-10-15 09:35:00,70.8,21.2,29.56,WNW,287,18.9,23.1,15,-99.99,,,0.00,539.7,rob ver 1B,2013-10-15 16:35:00,
2013-10-15 09:36:00,71.0,21.3,29.56,West,278,17.8,20.8,14,-99.99,,,0.00,542.2,rob ver 1B,2013-10-15 16:36:00,
2013-10-15 09:37:00,71.3,21.2,29.56,West,279,18.2,22.5,14,-99.99,,,0.00,545.8,rob ver 1B,2013-10-15 16:37:00,
2013-10-15 09:38:00,72.5,27.2,29.44,West,276,9.4,11.7,18,-99.99,,,0.00,539,rob ver 1A,2013-10-15 16:38:00,
2013-10-15 09:39:00,71.2,21.2,29.56,WNW,295,17.9,22.5,15,-99.99,,,0.00,551.3,rob ver 1B,2013-10-15 16:39:00,
2013-10-15 09:40:00,71.3,21.4,29.56,WNW,285,15.9,18.6,15,-99.99,,,0.00,554.2,rob ver 1B,2013-10-15 16:40:00,
2013-10-15 09:41:00,71.4,21.1,29.53,WNW,283,18.8,23.4,14,-99.99,,,0.00,556.4,rob ver 1B,2013-10-15 16:41:00,
2013-10-15 09:42:00,71.4,21.3,29.56,West,279,17.3,22.2,14,-99.99,,,0.00,559.5,rob ver 1B,2013-10-15 16:42:00,
2013-10-15 09:43:00,73.1,27.4,29.44,WNW,283,13.0,15.4,18,-99.99,,,0.00,552.6,rob ver 1A,2013-10-15 16:43:00,
2013-10-15 09:44:00,71.3,21.1,29.56,West,279,20.6,25.7,15,-99.99,,,0.00,564.6,rob ver 1B,2013-10-15 16:44:00,
2013-10-15 09:45:00,71.2,21.1,29.56,WNW,283,18.0,23.1,15,-99.99,,,0.00,568.3,rob ver 1B,2013-10-15 16:45:00,
2013-10-15 09:46:00,71.5,21.3,29.53,WNW,291,16.9,22.7,14,-99.99,,,0.00,570.1,rob ver 1B,2013-10-15 16:46:00,
2013-10-15 09:47:00,71.8,21.2,29.53,WNW,297,20.2,23.8,14,-99.99,,,0.00,572.4,rob ver 1B,2013-10-15 16:47:00,
2013-10-15 09:48:00,73.7,27.7,29.44,West,281,10.7,13.3,17,-99.99,,,0.00,566.1,rob ver 1A,2013-10-15 16:48:00,
2013-10-15 09:49:00,71.5,21.2,29.53,WNW,290,21.8,25.6,14,-99.99,,,0.00,577,rob ver 1B,2013-10-15 16:49:00,
2013-10-15 09:50:00,71.4,21.2,29.53,WNW,295,19.0,23.0,14,-99.99,,,0.00,579.3,rob ver 1B,2013-10-15 16:50:00,
2013-10-15 09:51:00,71.5,21.1,29.53,WNW,294,20.1,25.1,14,-99.99,,,0.00,581.5,rob ver 1B,2013-10-15 16:51:00,
2013-10-15 09:52:00,71.5,21.1,29.53,WNW,290,19.1,23.2,14,-99.99,,,0.00,584.1,rob ver 1B,2013-10-15 16:52:00,
2013-10-15 09:53:00,74.3,27.5,29.44,West,280,13.0,15.3,17,-99.99,,,0.00,580.6,rob ver 1A,2013-10-15 16:53:00,
2013-10-15 09:54:00,71.6,21.2,29.53,WNW,284,17.8,24.0,14,-99.99,,,0.00,588.1,rob ver 1B,2013-10-15 16:54:00,
2013-10-15 09:55:00,71.8,21.2,29.53,WNW,287,21.1,24.2,14,-99.99,,,0.00,590.4,rob ver 1B,2013-10-15 16:55:00,
2013-10-15 09:56:00,71.8,21.2,29.56,WNW,288,17.1,20.7,14,-99.99,,,0.00,593,rob ver 1B,2013-10-15 16:56:00,
2013-10-15 09:57:00,71.9,21.3,29.56,WNW,286,14.9,18.3,14,-99.99,,,0.00,594.8,rob ver 1B,2013-10-15 16:57:00,
2013-10-15 09:58:00,74.6,27.4,29.44,WNW,293,8.8,11.6,17,-99.99,,,0.00,593.4,rob ver 1A,2013-10-15 16:58:00,
2013-10-15 09:59:00,72.2,21.3,29.56,WNW,289,15.7,19.2,14,-99.99,,,0.00,600.6,rob ver 1B,2013-10-15 16:59:00,
2013-10-15 10:00:00,72.1,21.2,29.56,WNW,286,17.3,20.8,14,-99.99,,,0.00,602.9,rob ver 1B,2013-10-15 17:00:00,
2013-10-15 10:01:00,72.1,21.2,29.56,West,278,18.1,22.7,14,-99.99,,,0.00,604.7,rob ver 1B,2013-10-15 17:01:00,
2013-10-15 10:02:00,72.1,21.2,29.56,WNW,293,16.9,22.7,14,-99.99,,,0.00,607.7,rob ver 1B,2013-10-15 17:02:00,
2013-10-15 10:03:00,75.4,27.4,29.44,WNW,300,10.5,12.9,16,-99.99,,,0.00,604.9,rob ver 1A,2013-10-15 17:03:00,
2013-10-15 10:04:00,72.4,21.3,29.56,WNW,288,15.5,22.4,14,-99.99,,,0.00,611.3,rob ver 1B,2013-10-15 17:04:00,
2013-10-15 10:05:00,72.5,21.3,29.56,West,277,13.2,16.2,14,-99.99,,,0.00,613.7,rob ver 1B,2013-10-15 17:05:00,
2013-10-15 10:06:00,72.6,21.3,29.56,West,280,16.7,21.2,14,-99.99,,,0.00,616,rob ver 1B,2013-10-15 17:06:00,
2013-10-15 10:07:00,72.7,21.4,29.56,WNW,282,16.2,19.8,14,-99.99,,,0.00,618.7,rob ver 1B,2013-10-15 17:07:00,
2013-10-15 10:08:00,72.8,21.2,29.56,WNW,285,17.0,21.1,14,-99.99,,,0.00,620.8,rob ver 1B,2013-10-15 17:08:00,
2013-10-15 10:09:00,76.0,27.3,29.44,NW,310,13.7,21.7,16,-99.99,,,0.00,616.5,rob ver 1A,2013-10-15 17:09:00,
2013-10-15 10:10:00,72.8,21.4,29.56,WNW,282,15.7,22.1,14,-99.99,,,0.00,624.8,rob ver 1B,2013-10-15 17:10:00,
2013-10-15 10:11:00,72.8,21.2,29.56,WNW,286,18.3,23.0,14,-99.99,,,0.00,626.7,rob ver 1B,2013-10-15 17:11:00,
2013-10-15 10:12:00,72.7,21.3,29.56,WNW,286,18.2,23.0,14,-99.99,,,0.00,629.4,rob ver 1B,2013-10-15 17:12:00,
2013-10-15 10:13:00,72.7,21.3,29.56,WNW,290,14.8,19.0,14,-99.99,,,0.00,632.3,rob ver 1B,2013-10-15 17:13:00,
2013-10-15 10:14:00,75.7,27.5,29.44,NW,315,12.3,16.3,16,-99.99,,,0.00,627,rob ver 1A,2013-10-15 17:14:00,
2013-10-15 10:15:00,72.8,21.2,29.56,West,280,16.2,21.2,14,-99.99,,,0.00,636.3,rob ver 1B,2013-10-15 17:15:00,
2013-10-15 10:16:00,72.6,21.3,29.56,West,275,16.4,19.8,14,-99.99,,,0.00,638.8,rob ver 1B,2013-10-15 17:16:00,
2013-10-15 10:17:00,72.9,21.3,29.56,WNW,284,14.9,19.5,14,-99.99,,,0.00,640.9,rob ver 1B,2013-10-15 17:17:00,
2013-10-15 10:18:00,73.0,21.2,29.56,West,280,15.7,18.4,14,-99.99,,,0.00,642.9,rob ver 1B,2013-10-15 17:18:00,
2013-10-15 10:19:00,75.8,27.3,29.41,NW,316,13.5,16.5,16,-99.99,,,0.00,637.7,rob ver 1A,2013-10-15 17:19:00,
2013-10-15 10:20:00,73.0,21.5,29.56,West,281,15.7,19.8,14,-99.99,,,0.00,647,rob ver 1B,2013-10-15 17:20:00,
2013-10-15 10:21:00,73.2,21.3,29.56,WNW,285,16.3,19.5,14,-99.99,,,0.00,648.3,rob ver 1B,2013-10-15 17:21:00,
2013-10-15 10:22:00,73.3,21.5,29.56,WNW,283,13.6,16.8,13,-99.99,,,0.00,651.8,rob ver 1B,2013-10-15 17:22:00,
2013-10-15 10:23:00,73.5,21.5,29.56,WNW,283,13.3,18.5,14,-99.99,,,0.00,653.1,rob ver 1B,2013-10-15 17:23:00,
2013-10-15 10:24:00,76.4,27.0,29.41,NW,309,11.4,14.3,16,-99.99,,,0.00,647.5,rob ver 1A,2013-10-15 17:24:00,
2013-10-15 10:25:00,73.6,21.3,29.56,West,281,17.4,19.9,14,-99.99,,,0.00,656.7,rob ver 1B,2013-10-15 17:25:00,
2013-10-15 10:26:00,73.5,21.4,29.56,West,280,16.3,22.0,14,-99.99,,,0.00,659.2,rob ver 1B,2013-10-15 17:26:00,
2013-10-15 10:27:00,73.5,21.4,29.53,WNW,289,20.4,23.2,14,-99.99,,,0.00,662,rob ver 1B,2013-10-15 17:27:00,
2013-10-15 10:28:00,73.2,21.4,29.56,WNW,294,16.8,20.2,14,-99.99,,,0.00,663.3,rob ver 1B,2013-10-15 17:28:00,
2013-10-15 10:29:00,76.9,27.4,29.44,NW,314,11.4,16.6,15,-99.99,,,0.00,657.4,rob ver 1A,2013-10-15 17:29:00,
2013-10-15 10:30:00,73.6,21.4,29.53,WNW,295,19.3,23.0,14,-99.99,,,0.00,666.3,rob ver 1B,2013-10-15 17:30:00,
2013-10-15 10:31:00,73.8,21.7,29.56,WNW,288,15.8,19.8,14,-99.99,,,0.00,668.7,rob ver 1B,2013-10-15 17:31:00,
2013-10-15 10:32:00,74.0,21.6,29.56,WNW,285,17.6,21.3,13,-99.99,,,0.00,671.5,rob ver 1B,2013-10-15 17:32:00,
2013-10-15 10:33:00,74.0,21.6,29.56,West,281,16.0,19.8,13,-99.99,,,0.00,673.5,rob ver 1B,2013-10-15 17:33:00,
2013-10-15 10:34:00,76.8,26.0,29.41,NW,304,14.6,18.3,15,-99.99,,,0.00,667.6,rob ver 1A,2013-10-15 17:34:00,
2013-10-15 10:35:00,74.2,21.6,29.56,WNW,284,16.6,21.5,13,-99.99,,,0.00,676.3,rob ver 1B,2013-10-15 17:35:00,
2013-10-15 10:36:00,74.0,21.5,29.56,West,279,18.5,23.4,13,-99.99,,,0.00,678.3,rob ver 1B,2013-10-15 17:36:00,
2013-10-15 10:37:00,74.0,21.6,29.56,WNW,288,18.5,23.1,13,-99.99,,,0.00,680.5,rob ver 1B,2013-10-15 17:37:00,
2013-10-15 10:38:00,73.9,21.5,29.53,WNW,303,17.2,20.5,13,-99.99,,,0.00,682.1,rob ver 1B,2013-10-15 17:38:00,
2013-10-15 10:39:00,76.7,26.1,29.41,NW,312,14.3,17.3,15,-99.99,,,0.00,678.1,rob ver 1A,2013-10-15 17:39:00,
2013-10-15 10:40:00,74.1,21.6,29.56,WNW,297,16.4,20.0,13,-99.99,,,0.00,686.7,rob ver 1B,2013-10-15 17:40:00,
2013-10-15 10:41:00,73.8,21.5,29.53,WNW,298,19.0,23.2,13,-99.99,,,0.00,687.7,rob ver 1B,2013-10-15 17:41:00,
2013-10-15 10:42:00,73.6,21.5,29.53,WNW,299,18.1,21.6,14,-99.99,,,0.00,689.2,rob ver 1B,2013-10-15 17:42:00,
2013-10-15 10:43:00,73.7,21.5,29.53,WNW,299,19.0,22.7,13,-99.99,,,0.00,691.5,rob ver 1B,2013-10-15 17:43:00,
2013-10-15 10:44:00,77.1,26.1,29.41,NW,309,14.5,17.9,15,-99.99,,,0.00,687.5,rob ver 1A,2013-10-15 17:44:00,
2013-10-15 10:45:00,74.0,21.7,29.53,WNW,290,17.3,21.7,13,-99.99,,,0.00,693.5,rob ver 1B,2013-10-15 17:45:00,
2013-10-15 10:46:00,74.2,21.5,29.53,WNW,298,18.1,20.5,13,-99.99,,,0.00,695.8,rob ver 1B,2013-10-15 17:46:00,
2013-10-15 10:47:00,74.0,21.5,29.53,WNW,301,17.1,19.9,13,-99.99,,,0.00,696.9,rob ver 1B,2013-10-15 17:47:00,
2013-10-15 10:48:00,74.0,21.6,29.53,NW,304,17.8,21.8,13,-99.99,,,0.00,697.6,rob ver 1B,2013-10-15 17:48:00,
2013-10-15 10:49:00,76.9,26.3,29.41,NW,324,13.2,18.5,15,-99.99,,,0.00,695.4,rob ver 1A,2013-10-15 17:49:00,
2013-10-15 10:50:00,74.4,21.8,29.56,NW,305,15.6,19.4,13,-99.99,,,0.00,701,rob ver 1B,2013-10-15 17:50:00,
2013-10-15 10:51:00,74.6,21.7,29.53,WNW,293,17.4,21.0,13,-99.99,,,0.00,703,rob ver 1B,2013-10-15 17:51:00,
2013-10-15 10:52:00,74.5,21.5,29.56,WNW,297,14.6,19.0,13,-99.99,,,0.00,704,rob ver 1B,2013-10-15 17:52:00,
2013-10-15 10:53:00,74.3,21.5,29.56,WNW,285,15.7,19.3,13,-99.99,,,0.00,706,rob ver 1B,2013-10-15 17:53:00,
2013-10-15 10:54:00,74.2,21.5,29.56,West,280,17.9,21.9,13,-99.99,,,0.00,708,rob ver 1B,2013-10-15 17:54:00,
2013-10-15 10:55:00,77.1,26.6,29.41,NW,325,13.1,16.3,15,-99.99,,,0.00,703,rob ver 1A,2013-10-15 17:55:00,
2013-10-15 10:56:00,74.0,21.5,29.56,WNW,287,13.9,18.1,13,-99.99,,,0.00,709,rob ver 1B,2013-10-15 17:56:00,
2013-10-15 10:57:00,74.4,21.6,29.56,WNW,293,16.0,19.3,13,-99.99,,,0.00,711,rob ver 1B,2013-10-15 17:57:00,
2013-10-15 10:58:00,74.4,21.5,29.56,WNW,285,13.5,18.8,13,-99.99,,,0.00,713,rob ver 1B,2013-10-15 17:58:00,
2013-10-15 10:59:00,74.7,21.7,29.56,WNW,300,10.8,13.3,13,-99.99,,,0.00,714,rob ver 1B,2013-10-15 17:59:00,
2013-10-15 11:00:00,77.4,26.4,29.41,NW,316,14.9,18.3,15,-99.99,,,0.00,710,rob ver 1A,2013-10-15 18:00:00,
2013-10-15 11:01:00,74.9,21.9,29.56,NW,314,15.9,20.3,13,-99.99,,,0.00,717,rob ver 1B,2013-10-15 18:01:00,
2013-10-15 11:02:00,74.8,21.8,29.56,WNW,303,14.3,18.3,13,-99.99,,,0.00,719,rob ver 1B,2013-10-15 18:02:00,
2013-10-15 11:03:00,74.6,21.7,29.56,NW,305,12.9,14.6,13,-99.99,,,0.00,720,rob ver 1B,2013-10-15 18:03:00,
2013-10-15 11:04:00,74.5,21.7,29.56,WNW,297,14.7,18.3,13,-99.99,,,0.00,721,rob ver 1B,2013-10-15 18:04:00,
2013-10-15 11:05:00,78.2,26.3,29.41,WNW,302,14.3,20.0,14,-99.99,,,0.00,718,rob ver 1A,2013-10-15 18:05:00,
2013-10-15 11:06:00,74.5,21.9,29.56,NW,309,15.6,19.0,13,-99.99,,,0.00,723,rob ver 1B,2013-10-15 18:06:00,
2013-10-15 11:07:00,74.4,21.9,29.56,NW,316,14.3,17.0,13,-99.99,,,0.00,723,rob ver 1B,2013-10-15 18:07:00,
2013-10-15 11:08:00,74.6,22.0,29.56,WNW,303,10.5,14.5,13,-99.99,,,0.00,723,rob ver 1B,2013-10-15 18:08:00,
2013-10-15 11:09:00,74.9,22.2,29.56,WNW,294,12.4,19.1,13,-99.99,,,0.00,726,rob ver 1B,2013-10-15 18:09:00,
2013-10-15 11:10:00,77.2,26.2,29.41,NW,312,14.8,17.9,15,-99.99,,,0.00,724,rob ver 1A,2013-10-15 18:10:00,
2013-10-15 11:11:00,75.2,21.9,29.56,WNW,290,13.1,16.6,13,-99.99,,,0.00,730,rob ver 1B,2013-10-15 18:11:00,
2013-10-15 11:12:00,75.1,22.1,29.56,WNW,302,12.8,20.4,13,-99.99,,,0.00,732,rob ver 1B,2013-10-15 18:12:00,
2013-10-15 11:13:00,75.1,22.1,29.56,NW,314,14.4,16.9,13,-99.99,,,0.00,733,rob ver 1B,2013-10-15 18:13:00,
2013-10-15 11:14:00,75.1,22.4,29.56,NW,317,11.3,16.6,13,-99.99,,,0.00,735,rob ver 1B,2013-10-15 18:14:00,
2013-10-15 11:15:00,77.8,26.3,29.41,NW,317,16.7,20.1,15,-99.99,,,0.00,730,rob ver 1A,2013-10-15 18:15:00,
2013-10-15 11:16:00,75.4,22.2,29.56,NW,322,14.6,18.8,13,-99.99,,,0.00,737,rob ver 1B,2013-10-15 18:16:00,
2013-10-15 11:17:00,75.1,22.1,29.56,NW,324,13.0,16.9,13,-99.99,,,0.00,737,rob ver 1B,2013-10-15 18:17:00,
2013-10-15 11:18:00,75.3,22.2,29.56,WNW,297,12.4,16.7,13,-99.99,,,0.00,739,rob ver 1B,2013-10-15 18:18:00,
2013-10-15 11:19:00,75.6,22.1,29.56,WNW,293,15.4,21.2,13,-99.99,,,0.00,740,rob ver 1B,2013-10-15 18:19:00,
2013-10-15 11:20:00,78.5,26.7,29.41,NW,322,15.9,20.1,14,-99.99,,,0.00,736,rob ver 1A,2013-10-15 18:20:00,
2013-10-15 11:21:00,75.1,22.1,29.56,WNW,282,15.5,19.0,13,-99.99,,,0.00,743,rob ver 1B,2013-10-15 18:21:00,
2013-10-15 11:22:00,75.2,22.2,29.56,WNW,291,13.2,17.2,13,-99.99,,,0.00,744,rob ver 1B,2013-10-15 18:22:00,
2013-10-15 11:23:00,75.6,22.3,29.56,WNW,301,13.0,18.4,13,-99.99,,,0.00,745,rob ver 1B,2013-10-15 18:23:00,
2013-10-15 11:24:00,75.9,22.3,29.53,WNW,298,16.2,23.0,13,-99.99,,,0.00,745,rob ver 1B,2013-10-15 18:24:00,
2013-10-15 11:25:00,78.3,26.3,29.41,NW,305,14.8,18.5,14,-99.99,,,0.00,742,rob ver 1A,2013-10-15 18:25:00,
2013-10-15 11:26:00,76.1,22.4,29.56,NW,308,12.5,18.1,13,-99.99,,,0.00,747,rob ver 1B,2013-10-15 18:26:00,
2013-10-15 11:27:00,76.3,22.4,29.56,NW,304,15.1,18.6,13,-99.99,,,0.00,748,rob ver 1B,2013-10-15 18:27:00,
2013-10-15 11:28:00,76.0,22.3,29.53,NW,312,17.6,22.1,13,-99.99,,,0.00,749,rob ver 1B,2013-10-15 18:28:00,
2013-10-15 11:29:00,75.6,22.3,29.56,NW,319,16.2,20.3,13,-99.99,,,0.00,750,rob ver 1B,2013-10-15 18:29:00,
2013-10-15 11:30:00,78.8,26.5,29.41,WNW,298,17.7,23.1,14,-99.99,,,0.00,745,rob ver 1A,2013-10-15 18:30:00,
2013-10-15 11:31:00,75.3,22.3,29.56,NW,324,11.0,15.8,13,-99.99,,,0.00,752,rob ver 1B,2013-10-15 18:31:00,
2013-10-15 11:32:00,75.5,22.5,29.53,NW,309,15.3,21.2,13,-99.99,,,0.00,755,rob ver 1B,2013-10-15 18:32:00,
2013-10-15 11:33:00,75.7,22.7,29.56,NW,310,14.0,18.0,13,-99.99,,,0.00,754,rob ver 1B,2013-10-15 18:33:00,
2013-10-15 11:34:00,76.3,22.8,29.56,WNW,303,14.6,21.9,13,-99.99,,,0.00,752,rob ver 1B,2013-10-15 18:34:00,
2013-10-15 11:35:00,78.8,26.1,29.41,WNW,292,16.9,19.9,14,-99.99,,,0.00,750,rob ver 1A,2013-10-15 18:35:00,
2013-10-15 11:36:00,76.6,22.4,29.53,NW,310,15.7,19.2,13,-99.99,,,0.00,756,rob ver 1B,2013-10-15 18:36:00,
2013-10-15 11:37:00,76.3,22.5,29.53,NW,310,16.5,20.8,13,-99.99,,,0.00,757,rob ver 1B,2013-10-15 18:37:00,
2013-10-15 11:38:00,75.9,22.2,29.56,NW,307,14.8,17.8,13,-99.99,,,0.00,757,rob ver 1B,2013-10-15 18:38:00,
2013-10-15 11:39:00,75.5,22.2,29.56,WNW,296,12.7,14.3,13,-99.99,,,0.00,758,rob ver 1B,2013-10-15 18:39:00,
2013-10-15 11:40:00,75.7,22.4,29.53,WNW,299,15.5,18.4,13,-99.99,,,0.00,758,rob ver 1B,2013-10-15 18:40:00,
2013-10-15 11:41:00,78.8,26.2,29.41,NW,308,16.5,19.3,14,-99.99,,,0.00,754,rob ver 1A,2013-10-15 18:41:00,
2013-10-15 11:42:00,75.6,22.3,29.56,NW,310,16.2,21.1,13,-99.99,,,0.00,759,rob ver 1B,2013-10-15 18:42:00,
2013-10-15 11:43:00,75.5,22.3,29.56,NW,308,15.5,19.7,13,-99.99,,,0.00,761,rob ver 1B,2013-10-15 18:43:00,
2013-10-15 11:44:00,75.5,22.3,29.53,NW,304,17.0,21.2,13,-99.99,,,0.00,761,rob ver 1B,2013-10-15 18:44:00,
2013-10-15 11:45:00,75.6,22.3,29.56,NW,322,13.4,17.5,13,-99.99,,,0.00,761,rob ver 1B,2013-10-15 18:45:00,
2013-10-15 11:46:00,79.2,26.3,29.41,NW,304,16.0,21.4,14,-99.99,,,0.00,758,rob ver 1A,2013-10-15 18:46:00,
2013-10-15 11:47:00,76.0,22.6,29.56,NW,307,12.6,17.3,13,-99.99,,,0.00,763,rob ver 1B,2013-10-15 18:47:00,
2013-10-15 11:48:00,76.1,22.5,29.53,WNW,295,12.2,17.0,13,-99.99,,,0.00,764,rob ver 1B,2013-10-15 18:48:00,
2013-10-15 11:49:00,76.3,22.5,29.53,WNW,295,15.3,18.4,13,-99.99,,,0.00,764,rob ver 1B,2013-10-15 18:49:00,
2013-10-15 11:50:00,76.5,22.7,29.53,NW,310,14.8,17.2,13,-99.99,,,0.00,765,rob ver 1B,2013-10-15 18:50:00,
2013-10-15 11:51:00,79.5,26.2,29.41,WNW,301,16.1,19.8,14,-99.99,,,0.00,760,rob ver 1A,2013-10-15 18:51:00,
2013-10-15 11:52:00,76.0,22.6,29.53,NW,309,14.4,17.5,13,-99.99,,,0.00,766,rob ver 1B,2013-10-15 18:52:00,
2013-10-15 11:53:00,75.8,22.6,29.53,NW,317,11.3,13.7,13,-99.99,,,0.00,766,rob ver 1B,2013-10-15 18:53:00,
2013-10-15 11:54:00,75.9,22.9,29.53,NW,308,12.9,17.2,13,-99.99,,,0.00,766,rob ver 1B,2013-10-15 18:54:00,
2013-10-15 11:55:00,76.4,23.0,29.53,NW,311,16.9,19.7,13,-99.99,,,0.00,768,rob ver 1B,2013-10-15 18:55:00,
2013-10-15 11:56:00,79.3,26.6,29.41,NW,323,12.6,16.5,14,-99.99,,,0.00,763,rob ver 1A,2013-10-15 18:56:00,
2013-10-15 11:57:00,76.2,22.8,29.53,NW,318,13.3,18.9,13,-99.99,,,0.00,768,rob ver 1B,2013-10-15 18:57:00,
2013-10-15 11:58:00,76.1,22.8,29.53,NW,317,11.9,15.8,13,-99.99,,,0.00,769,rob ver 1B,2013-10-15 18:58:00,
2013-10-15 11:59:00,76.4,22.8,29.53,WNW,295,15.4,18.3,13,-99.99,,,0.00,770,rob ver 1B,2013-10-15 18:59:00,
2013-10-15 12:00:00,76.6,22.6,29.53,WNW,294,16.7,21.1,13,-99.99,,,0.00,770,rob ver 1B,2013-10-15 19:00:00,
2013-10-15 12:01:00,79.2,26.0,29.41,NW,316,14.0,18.5,14,-99.99,,,0.00,766,rob ver 1A,2013-10-15 19:01:00,
2013-10-15 12:02:00,76.9,22.8,29.53,NW,305,14.9,17.8,13,-99.99,,,0.00,771,rob ver 1B,2013-10-15 19:02:00,
2013-10-15 12:03:00,76.5,22.8,29.53,NW,305,11.7,14.3,13,-99.99,,,0.00,771,rob ver 1B,2013-10-15 19:03:00,
2013-10-15 12:04:00,76.3,22.9,29.53,NW,304,11.4,17.6,13,-99.99,,,0.00,772,rob ver 1B,2013-10-15 19:04:00,
2013-10-15 12:05:00,76.5,22.8,29.53,NW,309,17.0,21.5,13,-99.99,,,0.00,771,rob ver 1B,2013-10-15 19:05:00,
2013-10-15 12:06:00,79.4,26.0,29.41,WNW,291,15.2,22.4,13,-99.99,,,0.00,766,rob ver 1A,2013-10-15 19:06:00,
2013-10-15 12:07:00,76.6,22.9,29.53,WNW,299,14.9,20.7,13,-99.99,,,0.00,773,rob ver 1B,2013-10-15 19:07:00,
2013-10-15 12:08:00,76.5,22.7,29.53,NW,309,12.7,16.6,13,-99.99,,,0.00,773,rob ver 1B,2013-10-15 19:08:00,
2013-10-15 12:09:00,76.4,22.8,29.53,WNW,302,13.6,20.7,13,-99.99,,,0.00,773,rob ver 1B,2013-10-15 19:09:00,
2013-10-15 12:10:00,76.5,22.5,29.53,WNW,289,17.3,22.1,13,-99.99,,,0.00,772,rob ver 1B,2013-10-15 19:10:00,
2013-10-15 12:11:00,79.8,26.0,29.41,WNW,297,16.3,19.3,13,-99.99,,,0.00,767,rob ver 1A,2013-10-15 19:11:00,
2013-10-15 12:12:00,76.3,22.5,29.53,WNW,299,14.0,18.6,13,-99.99,,,0.00,773,rob ver 1B,2013-10-15 19:12:00,
2013-10-15 12:13:00,76.4,22.8,29.53,NW,308,15.5,18.5,13,-99.99,,,0.00,775,rob ver 1B,2013-10-15 19:13:00,
2013-10-15 12:14:00,76.6,22.6,29.53,NW,307,16.7,22.2,13,-99.99,,,0.00,774,rob ver 1B,2013-10-15 19:14:00,
2013-10-15 12:15:00,76.3,22.7,29.53,NW,308,15.0,19.4,13,-99.99,,,0.00,773,rob ver 1B,2013-10-15 19:15:00,
2013-10-15 12:16:00,80.0,26.3,29.41,WNW,297,14.3,20.3,13,-99.99,,,0.00,770,rob ver 1A,2013-10-15 19:16:00,
2013-10-15 12:17:00,76.7,23.0,29.53,NW,304,14.7,20.4,13,-99.99,,,0.00,772,rob ver 1B,2013-10-15 19:17:00,
2013-10-15 12:18:00,77.0,23.3,29.53,NW,316,15.5,18.0,13,-99.99,,,0.00,773,rob ver 1B,2013-10-15 19:18:00,
2013-10-15 12:19:00,77.3,23.3,29.53,NW,314,13.8,17.0,13,-99.99,,,0.00,773,rob ver 1B,2013-10-15 19:19:00,
2013-10-15 12:20:00,77.5,23.5,29.53,NW,322,12.0,17.0,13,-99.99,,,0.00,773,rob ver 1B,2013-10-15 19:20:00,
2013-10-15 12:21:00,80.5,26.3,29.41,WNW,296,13.7,22.4,13,-99.99,,,0.00,770,rob ver 1A,2013-10-15 19:21:00,
2013-10-15 12:22:00,77.5,23.0,29.53,WNW,285,16.6,19.8,13,-99.99,,,0.00,773,rob ver 1B,2013-10-15 19:22:00,
2013-10-15 12:23:00,77.5,23.1,29.53,WNW,300,15.6,18.9,13,-99.99,,,0.00,774,rob ver 1B,2013-10-15 19:23:00,
2013-10-15 12:24:00,77.4,23.1,29.53,WNW,289,12.7,15.5,13,-99.99,,,0.00,772,rob ver 1B,2013-10-15 19:24:00,
2013-10-15 12:25:00,77.7,23.4,29.53,WNW,293,14.0,17.1,13,-99.99,,,0.00,773,rob ver 1B,2013-10-15 19:25:00,
2013-10-15 12:26:00,80.3,26.0,29.38,NW,306,15.3,19.8,13,-99.99,,,0.00,769,rob ver 1A,2013-10-15 19:26:00,
2013-10-15 12:27:00,78.1,23.6,29.53,WNW,297,12.8,16.2,13,-99.99,,,0.00,773,rob ver 1B,2013-10-15 19:27:00,
2013-10-15 12:28:00,78.2,23.5,29.53,WNW,290,12.5,15.2,13,-99.99,,,0.00,773,rob ver 1B,2013-10-15 19:28:00,
2013-10-15 12:29:00,78.1,23.5,29.53,WNW,288,15.9,22.0,13,-99.99,,,0.00,771,rob ver 1B,2013-10-15 19:29:00,
2013-10-15 12:30:00,77.8,23.4,29.53,WNW,291,18.1,22.4,13,-99.99,,,0.00,771,rob ver 1B,2013-10-15 19:30:00,
2013-10-15 12:31:00,80.9,25.7,29.38,WNW,297,15.7,18.1,13,-99.99,,,0.00,768,rob ver 1A,2013-10-15 19:31:00,
2013-10-15 12:32:00,77.5,23.3,29.53,WNW,293,16.1,20.0,13,-99.99,,,0.00,773,rob ver 1B,2013-10-15 19:32:00,
2013-10-15 12:33:00,77.6,23.1,29.53,WNW,282,16.6,21.0,13,-99.99,,,0.00,771,rob ver 1B,2013-10-15 19:33:00,
2013-10-15 12:34:00,77.4,23.2,29.53,WNW,288,14.0,16.5,13,-99.99,,,0.00,770,rob ver 1B,2013-10-15 19:34:00,
2013-10-15 12:35:00,77.3,23.3,29.53,WNW,294,12.6,17.9,13,-99.99,,,0.00,770,rob ver 1B,2013-10-15 19:35:00,
2013-10-15 12:36:00,77.3,23.3,29.53,WNW,292,12.6,15.9,13,-99.99,,,0.00,770,rob ver 1B,2013-10-15 19:36:00,
2013-10-15 12:37:00,81.0,26.1,29.38,WNW,302,15.8,19.4,13,-99.99,,,0.00,766,rob ver 1A,2013-10-15 19:37:00,
2013-10-15 12:38:00,77.7,23.4,29.53,WNW,294,13.6,19.4,13,-99.99,,,0.00,769,rob ver 1B,2013-10-15 19:38:00,
2013-10-15 12:39:00,77.7,23.4,29.53,WNW,283,15.7,19.1,13,-99.99,,,0.00,768,rob ver 1B,2013-10-15 19:39:00,
2013-10-15 12:40:00,77.6,23.3,29.53,WNW,284,13.7,17.2,13,-99.99,,,0.00,770,rob ver 1B,2013-10-15 19:40:00,
2013-10-15 12:41:00,77.9,23.5,29.53,West,276,12.9,15.9,13,-99.99,,,0.00,769,rob ver 1B,2013-10-15 19:41:00,
2013-10-15 12:42:00,80.7,25.3,29.38,WNW,284,14.5,17.3,12,-99.99,,,0.00,766,rob ver 1A,2013-10-15 19:42:00,
2013-10-15 12:43:00,78.2,23.4,29.53,WNW,298,11.8,15.3,12,-99.99,,,0.00,768,rob ver 1B,2013-10-15 19:43:00,
2013-10-15 12:44:00,78.2,23.4,29.53,WNW,296,10.9,16.9,12,-99.99,,,0.00,755,rob ver 1B,2013-10-15 19:44:00,
2013-10-15 12:45:00,78.1,23.1,29.53,NW,308,12.6,15.0,12,-99.99,,,0.00,766,rob ver 1B,2013-10-15 19:45:00,
2013-10-15 12:46:00,78.3,23.2,29.53,WNW,292,10.9,13.5,12,-99.99,,,0.00,766,rob ver 1B,2013-10-15 19:46:00,
2013-10-15 12:47:00,80.9,25.6,29.38,WNW,298,13.7,17.8,13,-99.99,,,0.00,766,rob ver 1A,2013-10-15 19:47:00,
2013-10-15 12:48:00,78.7,23.2,29.53,NW,326,12.3,16.4,12,-99.99,,,0.00,764,rob ver 1B,2013-10-15 19:48:00,
2013-10-15 12:49:00,78.5,22.5,29.53,NNW,338,14.0,16.6,12,-99.99,,,0.00,765,rob ver 1B,2013-10-15 19:49:00,
2013-10-15 12:50:00,78.0,23.0,29.53,NNW,336,13.7,17.2,13,-99.99,,,0.00,763,rob ver 1B,2013-10-15 19:50:00,
2013-10-15 12:51:00,78.0,23.4,29.53,NW,306,15.3,18.9,13,-99.99,,,0.00,763,rob ver 1B,2013-10-15 19:51:00,
2013-10-15 12:52:00,81.1,25.4,29.38,WNW,291,17.4,21.9,12,-99.99,,,0.00,763,rob ver 1A,2013-10-15 19:52:00,
2013-10-15 12:53:00,78.2,23.5,29.53,NW,304,16.4,21.5,13,-99.99,,,0.00,763,rob ver 1B,2013-10-15 19:53:00,
2013-10-15 12:54:00,78.1,23.2,29.53,WNW,293,17.0,20.5,13,-99.99,,,0.00,765,rob ver 1B,2013-10-15 19:54:00,
2013-10-15 12:55:00,77.8,23.1,29.53,WNW,299,13.4,18.2,13,-99.99,,,0.00,763,rob ver 1B,2013-10-15 19:55:00,
2013-10-15 12:56:00,77.5,23.1,29.53,WNW,301,7.3,9.8,13,-99.99,,,0.00,762,rob ver 1B,2013-10-15 19:56:00,
2013-10-15 12:57:00,81.1,25.3,29.38,WNW,297,16.1,19.6,12,-99.99,,,0.00,761,rob ver 1A,2013-10-15 19:57:00,
2013-10-15 12:58:00,77.8,22.9,29.50,WNW,284,15.1,19.5,12,-99.99,,,0.00,761,rob ver 1B,2013-10-15 19:58:00,
2013-10-15 12:59:00,77.9,23.1,29.50,WNW,292,13.3,19.1,13,-99.99,,,0.00,761,rob ver 1B,2013-10-15 19:59:00,
2013-10-15 13:00:00,78.3,23.0,29.50,WNW,290,15.6,19.0,12,-99.99,,,0.00,759,rob ver 1B,2013-10-15 20:00:00,
2013-10-15 13:01:00,78.3,23.1,29.50,WNW,285,14.4,19.6,12,-99.99,,,0.00,759,rob ver 1B,2013-10-15 20:01:00,
2013-10-15 13:02:00,81.2,25.4,29.38,NW,310,10.3,16.4,12,-99.99,,,0.00,754,rob ver 1A,2013-10-15 20:02:00,
2013-10-15 13:03:00,79.2,23.3,29.53,NW,322,12.7,16.3,12,-99.99,,,0.00,757,rob ver 1B,2013-10-15 20:03:00,
2013-10-15 13:04:00,79.6,23.2,29.50,NW,304,15.7,21.7,12,-99.99,,,0.00,756,rob ver 1B,2013-10-15 20:04:00,
2013-10-15 13:05:00,79.2,22.8,29.50,NW,310,12.5,18.6,12,-99.99,,,0.00,756,rob ver 1B,2013-10-15 20:05:00,
2013-10-15 13:06:00,78.7,22.8,29.50,NW,320,9.1,15.6,12,-99.99,,,0.00,755,rob ver 1B,2013-10-15 20:06:00,
2013-10-15 13:07:00,81.6,25.2,29.38,WNW,285,14.9,19.7,12,-99.99,,,0.00,754,rob ver 1A,2013-10-15 20:07:00,
2013-10-15 13:08:00,78.5,22.6,29.50,NW,326,11.1,14.0,12,-99.99,,,0.00,752,rob ver 1B,2013-10-15 20:08:00,
2013-10-15 13:09:00,78.5,22.8,29.50,WNW,295,12.1,16.4,12,-99.99,,,0.00,753,rob ver 1B,2013-10-15 20:09:00,
2013-10-15 13:10:00,78.5,23.0,29.50,WNW,296,9.0,12.8,12,-99.99,,,0.00,751,rob ver 1B,2013-10-15 20:10:00,
2013-10-15 13:11:00,78.6,23.0,29.50,WNW,290,10.6,15.1,12,-99.99,,,0.00,751,rob ver 1B,2013-10-15 20:11:00,
2013-10-15 13:12:00,81.4,25.3,29.38,NW,314,10.4,13.5,12,-99.99,,,0.00,749,rob ver 1A,2013-10-15 20:12:00,
2013-10-15 13:13:00,78.9,22.7,29.50,NW,307,16.1,19.0,12,-99.99,,,0.00,749,rob ver 1B,2013-10-15 20:13:00,
2013-10-15 13:14:00,78.7,22.5,29.50,NW,326,9.8,14.4,12,-99.99,,,0.00,748,rob ver 1B,2013-10-15 20:14:00,
2013-10-15 13:15:00,78.8,22.8,29.50,NW,320,11.0,14.7,12,-99.99,,,0.00,748,rob ver 1B,2013-10-15 20:15:00,
2013-10-15 13:16:00,79.0,22.7,29.50,NW,324,12.2,15.2,12,-99.99,,,0.00,747,rob ver 1B,2013-10-15 20:16:00,
2013-10-15 13:17:00,81.8,23.9,29.38,West,278,14.6,18.9,11,-99.99,,,0.00,744,rob ver 1A,2013-10-15 20:17:00,
2013-10-15 13:18:00,79.3,22.9,29.50,NW,308,11.7,15.0,12,-99.99,,,0.00,745,rob ver 1B,2013-10-15 20:18:00,
2013-10-15 13:19:00,79.3,22.6,29.50,NW,320,11.4,13.4,12,-99.99,,,0.00,745,rob ver 1B,2013-10-15 20:19:00,
2013-10-15 13:20:00,79.0,22.4,29.50,NNW,333,10.5,13.6,12,-99.99,,,0.00,742,rob ver 1B,2013-10-15 20:20:00,
2013-10-15 13:21:00,78.9,22.6,29.50,NNW,331,7.9,12.7,12,-99.99,,,0.00,742,rob ver 1B,2013-10-15 20:21:00,
2013-10-15 13:22:00,82.0,24.1,29.38,WNW,299,13.1,16.4,12,-99.99,,,0.00,739,rob ver 1A,2013-10-15 20:22:00,
2013-10-15 13:23:00,79.7,22.7,29.50,WNW,301,11.6,17.3,12,-99.99,,,0.00,740,rob ver 1B,2013-10-15 20:23:00,
2013-10-15 13:24:00,79.5,23.1,29.50,WNW,303,10.9,16.9,12,-99.99,,,0.00,738,rob ver 1B,2013-10-15 20:24:00,
2013-10-15 13:25:00,79.4,22.9,29.50,WNW,292,12.5,15.2,12,-99.99,,,0.00,737,rob ver 1B,2013-10-15 20:25:00,
2013-10-15 13:26:00,79.6,23.1,29.50,WNW,301,11.9,15.7,12,-99.99,,,0.00,735,rob ver 1B,2013-10-15 20:26:00,
2013-10-15 13:27:00,81.9,24.1,29.38,WNW,294,10.2,14.0,11,-99.99,,,0.00,736,rob ver 1A,2013-10-15 20:27:00,
2013-10-15 13:28:00,79.7,22.9,29.50,NW,311,12.0,15.2,12,-99.99,,,0.00,732,rob ver 1B,2013-10-15 20:28:00,
2013-10-15 13:29:00,79.6,22.6,29.50,NW,325,13.0,17.3,11,-99.99,,,0.00,733,rob ver 1B,2013-10-15 20:29:00,
2013-10-15 13:30:00,79.4,22.6,29.50,NW,326,10.8,14.9,12,-99.99,,,0.00,731,rob ver 1B,2013-10-15 20:30:00,
2013-10-15 13:31:00,79.3,22.7,29.50,NW,321,15.2,20.6,12,-99.99,,,0.00,731,rob ver 1B,2013-10-15 20:31:00,
2013-10-15 13:32:00,79.0,22.9,29.50,NW,308,13.1,17.2,12,-99.99,,,0.00,729,rob ver 1B,2013-10-15 20:32:00,
2013-10-15 13:33:00,82.6,24.1,29.38,NW,321,14.5,18.2,11,-99.99,,,0.00,730,rob ver 1A,2013-10-15 20:33:00,
2013-10-15 13:34:00,78.9,22.9,29.50,NW,314,12.6,15.4,12,-99.99,,,0.00,727,rob ver 1B,2013-10-15 20:34:00,
2013-10-15 13:35:00,78.8,22.7,29.50,NW,314,8.4,11.8,12,-99.99,,,0.00,726,rob ver 1B,2013-10-15 20:35:00,
2013-10-15 13:36:00,78.7,22.7,29.50,NNW,333,7.4,9.2,12,-99.99,,,0.00,723,rob ver 1B,2013-10-15 20:36:00,
2013-10-15 13:37:00,78.8,22.7,29.50,WNW,285,6.6,9.6,12,-99.99,,,0.00,723,rob ver 1B,2013-10-15 20:37:00,
2013-10-15 13:38:00,82.7,23.4,29.35,WNW,298,17.6,21.6,11,-99.99,,,0.00,723,rob ver 1A,2013-10-15 20:38:00,
2013-10-15 13:39:00,79.0,22.8,29.50,WNW,292,6.9,9.3,12,-99.99,,,0.00,720,rob ver 1B,2013-10-15 20:39:00,
2013-10-15 13:40:00,79.2,22.5,29.50,WNW,294,12.2,19.9,12,-99.99,,,0.00,719,rob ver 1B,2013-10-15 20:40:00,
2013-10-15 13:41:00,79.2,22.3,29.50,WNW,287,12.8,17.0,12,-99.99,,,0.00,719,rob ver 1B,2013-10-15 20:41:00,
2013-10-15 13:42:00,79.2,22.5,29.50,WNW,289,15.9,19.1,12,-99.99,,,0.00,716,rob ver 1B,2013-10-15 20:42:00,
2013-10-15 13:43:00,82.8,23.4,29.35,NW,304,16.1,20.9,10,-99.99,,,0.00,717,rob ver 1A,2013-10-15 20:43:00,
2013-10-15 13:44:00,79.0,22.5,29.50,WNW,285,8.9,11.5,12,-99.99,,,0.00,714,rob ver 1B,2013-10-15 20:44:00,
2013-10-15 13:45:00,79.3,22.7,29.50,WNW,287,8.4,11.0,12,-99.99,,,0.00,711,rob ver 1B,2013-10-15 20:45:00,
2013-10-15 13:46:00,79.6,22.8,29.50,WNW,299,9.7,14.6,12,-99.99,,,0.00,710,rob ver 1B,2013-10-15 20:46:00,
2013-10-15 13:47:00,80.1,22.8,29.50,WNW,284,11.9,16.4,11,-99.99,,,0.00,708,rob ver 1B,2013-10-15 20:47:00,
2013-10-15 13:48:00,82.5,21.7,29.35,WNW,295,10.5,18.8,10,-99.99,,,0.00,711,rob ver 1A,2013-10-15 20:48:00,
2013-10-15 13:49:00,80.3,22.5,29.50,NNW,345,12.6,14.9,11,-99.99,,,0.00,704,rob ver 1B,2013-10-15 20:49:00,
2013-10-15 13:50:00,80.0,22.6,29.50,NW,314,9.4,14.2,11,-99.99,,,0.00,703,rob ver 1B,2013-10-15 20:50:00,
2013-10-15 13:51:00,80.1,22.7,29.50,WNW,289,11.0,13.3,11,-99.99,,,0.00,699.6,rob ver 1B,2013-10-15 20:51:00,
2013-10-15 13:52:00,80.1,22.7,29.50,NW,306,15.7,21.3,11,-99.99,,,0.00,699.8,rob ver 1B,2013-10-15 20:52:00,
2013-10-15 13:53:00,82.0,22.1,29.35,NW,306,16.3,20.2,10,-99.99,,,0.00,702,rob ver 1A,2013-10-15 20:53:00,
2013-10-15 13:54:00,80.0,22.6,29.50,NW,307,10.7,13.6,11,-99.99,,,0.00,696.5,rob ver 1B,2013-10-15 20:54:00,
2013-10-15 13:55:00,79.7,22.4,29.50,NW,310,8.7,11.3,11,-99.99,,,0.00,695.3,rob ver 1B,2013-10-15 20:55:00,
2013-10-15 13:56:00,79.5,22.4,29.50,NW,318,10.2,12.7,11,-99.99,,,0.00,694,rob ver 1B,2013-10-15 20:56:00,
2013-10-15 13:57:00,79.4,22.2,29.50,WNW,298,6.3,7.8,11,-99.99,,,0.00,692.7,rob ver 1B,2013-10-15 20:57:00,
2013-10-15 13:58:00,82.0,22.9,29.35,WNW,303,13.4,23.4,11,-99.99,,,0.00,693.2,rob ver 1A,2013-10-15 20:58:00,
2013-10-15 13:59:00,80.1,22.4,29.50,WNW,291,12.7,16.0,11,-99.99,,,0.00,690.8,rob ver 1B,2013-10-15 20:59:00,
2013-10-15 14:00:00,80.1,22.3,29.50,WNW,288,12.5,16.2,11,-99.99,,,0.00,688.9,rob ver 1B,2013-10-15 21:00:00,
2013-10-15 14:01:00,79.8,22.4,29.50,West,275,8.1,9.6,11,-99.99,,,0.00,687.4,rob ver 1B,2013-10-15 21:01:00,
2013-10-15 14:02:00,79.8,22.3,29.50,West,277,10.1,14.1,11,-99.99,,,0.00,685.7,rob ver 1B,2013-10-15 21:02:00,
2013-10-15 14:03:00,82.4,21.1,29.35,West,275,17.5,21.0,10,-99.99,,,0.00,684.5,rob ver 1A,2013-10-15 21:03:00,
2013-10-15 14:04:00,80.2,22.1,29.50,WNW,283,13.9,17.2,11,-99.99,,,0.00,681.9,rob ver 1B,2013-10-15 21:04:00,
2013-10-15 14:05:00,80.2,22.1,29.50,WNW,287,10.9,12.4,11,-99.99,,,0.00,679.6,rob ver 1B,2013-10-15 21:05:00,
2013-10-15 14:06:00,80.2,22.3,29.50,WNW,302,9.3,12.6,11,-99.99,,,0.00,677.3,rob ver 1B,2013-10-15 21:06:00,
2013-10-15 14:07:00,80.2,22.1,29.50,NW,316,8.8,12.0,11,-99.99,,,0.00,675.2,rob ver 1B,2013-10-15 21:07:00,
2013-10-15 14:08:00,82.4,21.8,29.35,West,277,14.0,16.2,10,-99.99,,,0.00,676.9,rob ver 1A,2013-10-15 21:08:00,
2013-10-15 14:09:00,80.0,21.8,29.50,NW,309,8.8,11.7,11,-99.99,,,0.00,671.4,rob ver 1B,2013-10-15 21:09:00,
2013-10-15 14:10:00,79.8,21.9,29.50,WNW,300,8.7,12.6,11,-99.99,,,0.00,669.4,rob ver 1B,2013-10-15 21:10:00,
2013-10-15 14:11:00,79.8,22.4,29.50,NW,308,9.5,14.3,11,-99.99,,,0.00,667.4,rob ver 1B,2013-10-15 21:11:00,
2013-10-15 14:12:00,79.9,22.3,29.50,NW,310,9.9,15.4,11,-99.99,,,0.00,664.5,rob ver 1B,2013-10-15 21:12:00,
2013-10-15 14:13:00,83.0,20.3,29.35,WNW,283,16.9,21.3,9,-99.99,,,0.00,667.7,rob ver 1A,2013-10-15 21:13:00,
2013-10-15 14:14:00,79.7,22.0,29.50,NW,311,8.8,13.5,11,-99.99,,,0.00,661.3,rob ver 1B,2013-10-15 21:14:00,
2013-10-15 14:15:00,79.9,21.9,29.50,WNW,288,9.6,12.4,11,-99.99,,,0.00,658.9,rob ver 1B,2013-10-15 21:15:00,
2013-10-15 14:16:00,79.8,21.9,29.50,West,273,6.8,10.5,11,-99.99,,,0.00,656.9,rob ver 1B,2013-10-15 21:16:00,
2013-10-15 14:17:00,79.9,22.4,29.50,NW,322,5.8,8.5,11,-99.99,,,0.00,656.6,rob ver 1B,2013-10-15 21:17:00,
2013-10-15 14:18:00,82.6,20.9,29.35,WNW,291,15.4,21.3,10,-99.99,,,0.00,658,rob ver 1A,2013-10-15 21:18:00,
2013-10-15 14:19:00,80.3,22.3,29.50,WNW,288,6.9,10.7,11,-99.99,,,0.00,651.8,rob ver 1B,2013-10-15 21:19:00,
2013-10-15 14:20:00,80.3,22.4,29.50,WNW,297,5.9,10.0,11,-99.99,,,0.00,650.3,rob ver 1B,2013-10-15 21:20:00,
2013-10-15 14:21:00,80.4,22.0,29.50,West,280,9.9,12.3,11,-99.99,,,0.00,648.3,rob ver 1B,2013-10-15 21:21:00,
2013-10-15 14:22:00,80.2,22.0,29.47,WNW,291,10.7,14.0,11,-99.99,,,0.00,646.7,rob ver 1B,2013-10-15 21:22:00,
2013-10-15 14:23:00,82.2,21.1,29.35,NW,304,11.4,14.0,10,-99.99,,,0.00,644.6,rob ver 1A,2013-10-15 21:23:00,
2013-10-15 14:24:00,79.9,22.1,29.50,WNW,285,11.3,15.3,11,-99.99,,,0.00,642.6,rob ver 1B,2013-10-15 21:24:00,
2013-10-15 14:25:00,79.7,21.9,29.50,WNW,286,8.1,11.1,11,-99.99,,,0.00,640.2,rob ver 1B,2013-10-15 21:25:00,
2013-10-15 14:26:00,79.7,21.9,29.47,WNW,297,7.5,9.2,11,-99.99,,,0.00,637.8,rob ver 1B,2013-10-15 21:26:00,
2013-10-15 14:27:00,79.8,22.1,29.47,West,274,9.3,12.7,11,-99.99,,,0.00,635.5,rob ver 1B,2013-10-15 21:27:00,
2013-10-15 14:28:00,79.7,22.0,29.50,West,262,5.6,8.3,11,-99.99,,,0.00,632.7,rob ver 1B,2013-10-15 21:28:00,
2013-10-15 14:29:00,82.6,20.8,29.35,WNW,293,14.7,21.7,10,-99.99,,,0.00,637.5,rob ver 1A,2013-10-15 21:29:00,
2013-10-15 14:30:00,80.0,22.3,29.47,West,280,8.8,11.5,11,-99.99,,,0.00,628.4,rob ver 1B,2013-10-15 21:30:00,
2013-10-15 14:31:00,80.2,22.2,29.47,West,271,9.6,12.4,11,-99.99,,,0.00,627.6,rob ver 1B,2013-10-15 21:31:00,
2013-10-15 14:32:00,80.1,21.9,29.47,WSW,257,9.3,12.1,11,-99.99,,,0.00,625.3,rob ver 1B,2013-10-15 21:32:00,
2013-10-15 14:33:00,79.9,22.0,29.50,WSW,241,6.4,7.4,11,-99.99,,,0.00,622.6,rob ver 1B,2013-10-15 21:33:00,
2013-10-15 14:34:00,82.2,21.2,29.35,NW,305,11.6,16.6,10,-99.99,,,0.00,625.3,rob ver 1A,2013-10-15 21:34:00,
2013-10-15 14:35:00,80.2,22.1,29.47,WSW,239,6.7,8.7,11,-99.99,,,0.00,618.9,rob ver 1B,2013-10-15 21:35:00,
2013-10-15 14:36:00,80.3,22.2,29.47,WSW,250,7.8,9.6,11,-99.99,,,0.00,618.7,rob ver 1B,2013-10-15 21:36:00,
2013-10-15 14:37:00,80.3,22.2,29.47,WNW,295,10.8,14.2,11,-99.99,,,0.00,617.1,rob ver 1B,2013-10-15 21:37:00,
2013-10-15 14:38:00,80.5,22.1,29.47,NNW,340,10.5,13.4,11,-99.99,,,0.00,614.7,rob ver 1B,2013-10-15 21:38:00,
2013-10-15 14:39:00,82.6,21.2,29.35,WNW,293,17.3,21.6,10,-99.99,,,0.00,612.1,rob ver 1A,2013-10-15 21:39:00,
2013-10-15 14:40:00,80.5,21.8,29.47,NNW,343,7.6,10.9,11,-99.99,,,0.00,608.8,rob ver 1B,2013-10-15 21:40:00,
2013-10-15 14:41:00,80.4,21.7,29.47,NNW,334,6.6,9.9,11,-99.99,,,0.00,606.5,rob ver 1B,2013-10-15 21:41:00,
2013-10-15 14:42:00,80.3,22.0,29.47,WNW,289,4.5,5.8,11,-99.99,,,0.00,604.5,rob ver 1B,2013-10-15 21:42:00,
2013-10-15 14:43:00,80.5,22.1,29.47,West,281,7.2,9.9,11,-99.99,,,0.00,600.2,rob ver 1B,2013-10-15 21:43:00,
2013-10-15 14:44:00,81.9,20.8,29.35,WNW,298,9.6,16.4,10,-99.99,,,0.00,602.2,rob ver 1A,2013-10-15 21:44:00,
2013-10-15 14:45:00,80.9,22.2,29.47,NW,322,12.3,15.1,11,-99.99,,,0.00,595.3,rob ver 1B,2013-10-15 21:45:00,
2013-10-15 14:46:00,80.4,22.3,29.47,NW,312,8.8,10.7,11,-99.99,,,0.00,594.1,rob ver 1B,2013-10-15 21:46:00,
2013-10-15 14:47:00,80.4,22.5,29.47,NW,308,8.8,10.9,11,-99.99,,,0.00,591.5,rob ver 1B,2013-10-15 21:47:00,
2013-10-15 14:48:00,80.7,22.2,29.47,WNW,299,11.5,13.7,11,-99.99,,,0.00,588.3,rob ver 1B,2013-10-15 21:48:00,
2013-10-15 14:49:00,81.9,19.9,29.35,NW,312,10.5,14.2,9,-99.99,,,0.00,588.2,rob ver 1A,2013-10-15 21:49:00,
2013-10-15 14:50:00,80.1,22.0,29.47,WNW,302,7.1,10.6,11,-99.99,,,0.00,581.9,rob ver 1B,2013-10-15 21:50:00,
2013-10-15 14:51:00,80.2,21.9,29.47,WNW,282,10.6,15.2,11,-99.99,,,0.00,580.3,rob ver 1B,2013-10-15 21:51:00,
2013-10-15 14:52:00,80.4,21.9,29.47,WNW,282,12.3,16.7,11,-99.99,,,0.00,577.5,rob ver 1B,2013-10-15 21:52:00,
2013-10-15 14:53:00,80.5,21.5,29.47,West,264,11.6,15.3,11,-99.99,,,0.00,575.3,rob ver 1B,2013-10-15 21:53:00,
2013-10-15 14:54:00,82.3,21.1,29.35,NW,310,13.4,18.4,10,-99.99,,,0.00,578.3,rob ver 1A,2013-10-15 21:54:00,
2013-10-15 14:55:00,80.3,21.3,29.47,West,281,8.8,11.8,11,-99.99,,,0.00,570.9,rob ver 1B,2013-10-15 21:55:00,
2013-10-15 14:56:00,80.3,21.2,29.47,West,268,8.5,13.3,10,-99.99,,,0.00,568.4,rob ver 1B,2013-10-15 21:56:00,
2013-10-15 14:57:00,80.5,21.2,29.47,WNW,284,11.2,14.7,11,-99.99,,,0.00,566.9,rob ver 1B,2013-10-15 21:57:00,
2013-10-15 14:58:00,80.5,21.8,29.47,WNW,287,10.4,12.2,11,-99.99,,,0.00,564.8,rob ver 1B,2013-10-15 21:58:00,
2013-10-15 14:59:00,82.7,21.0,29.35,West,279,14.3,17.6,10,-99.99,,,0.00,566.1,rob ver 1A,2013-10-15 21:59:00,
2013-10-15 15:00:00,80.6,22.2,29.47,WNW,286,11.2,13.8,11,-99.99,,,0.00,559.7,rob ver 1B,2013-10-15 22:00:00,
2013-10-15 15:01:00,80.3,22.1,29.47,West,280,9.9,13.3,11,-99.99,,,0.00,556.2,rob ver 1B,2013-10-15 22:01:00,
2013-10-15 15:02:00,80.4,21.8,29.47,West,267,11.8,15.9,11,-99.99,,,0.00,553.8,rob ver 1B,2013-10-15 22:02:00,
2013-10-15 15:03:00,80.5,21.8,29.47,West,268,9.7,12.8,11,-99.99,,,0.00,551.1,rob ver 1B,2013-10-15 22:03:00,
2013-10-15 15:04:00,82.8,21.7,29.35,WNW,296,17.0,20.4,10,-99.99,,,0.00,549.6,rob ver 1A,2013-10-15 22:04:00,
2013-10-15 15:05:00,80.7,21.7,29.47,WSW,256,11.1,15.5,11,-99.99,,,0.00,545.4,rob ver 1B,2013-10-15 22:05:00,
2013-10-15 15:06:00,80.7,21.6,29.47,West,265,9.8,11.9,11,-99.99,,,0.00,541.9,rob ver 1B,2013-10-15 22:06:00,
2013-10-15 15:07:00,80.7,21.6,29.47,West,259,9.9,11.8,11,-99.99,,,0.00,539.8,rob ver 1B,2013-10-15 22:07:00,
2013-10-15 15:08:00,80.8,21.7,29.47,WSW,251,7.7,10.2,11,-99.99,,,0.00,536.3,rob ver 1B,2013-10-15 22:08:00,
2013-10-15 15:09:00,82.2,22.6,29.35,NW,307,8.7,11.7,10,-99.99,,,0.00,534.7,rob ver 1A,2013-10-15 22:09:00,
2013-10-15 15:10:00,80.7,21.9,29.47,WNW,287,12.0,14.2,11,-99.99,,,0.00,531,rob ver 1B,2013-10-15 22:10:00,
2013-10-15 15:11:00,80.6,22.2,29.47,WNW,284,7.9,9.7,11,-99.99,,,0.00,527.6,rob ver 1B,2013-10-15 22:11:00,
2013-10-15 15:12:00,80.3,21.9,29.47,West,271,7.0,9.9,11,-99.99,,,0.00,525.6,rob ver 1B,2013-10-15 22:12:00,
2013-10-15 15:13:00,80.4,21.7,29.47,WNW,292,10.1,13.1,11,-99.99,,,0.00,522.5,rob ver 1B,2013-10-15 22:13:00,
2013-10-15 15:14:00,83.2,22.5,29.35,NW,307,11.4,13.4,10,-99.99,,,0.00,523.3,rob ver 1A,2013-10-15 22:14:00,
2013-10-15 15:15:00,80.6,21.9,29.47,West,276,9.9,12.6,11,-99.99,,,0.00,518.3,rob ver 1B,2013-10-15 22:15:00,
2013-10-15 15:16:00,80.7,21.8,29.47,West,266,10.1,11.7,11,-99.99,,,0.00,514.4,rob ver 1B,2013-10-15 22:16:00,
2013-10-15 15:17:00,80.7,22.1,29.47,WNW,283,8.8,11.5,11,-99.99,,,0.00,512.2,rob ver 1B,2013-10-15 22:17:00,
2013-10-15 15:18:00,80.7,22.2,29.47,WNW,284,2.7,6.0,11,-99.99,,,0.00,508.9,rob ver 1B,2013-10-15 22:18:00,
2013-10-15 15:19:00,82.9,22.4,29.35,WNW,292,15.8,19.5,10,-99.99,,,0.00,507,rob ver 1A,2013-10-15 22:19:00,
2013-10-15 15:20:00,80.8,22.2,29.47,WNW,294,9.9,14.7,11,-99.99,,,0.00,504.3,rob ver 1B,2013-10-15 22:20:00,
2013-10-15 15:21:00,80.7,22.2,29.47,WNW,297,5.4,6.8,11,-99.99,,,0.00,501,rob ver 1B,2013-10-15 22:21:00,
2013-10-15 15:22:00,80.7,22.2,29.47,West,279,4.9,6.9,11,-99.99,,,0.00,497.7,rob ver 1B,2013-10-15 22:22:00,
2013-10-15 15:23:00,80.8,21.9,29.47,West,260,5.5,9.6,11,-99.99,,,0.00,494.5,rob ver 1B,2013-10-15 22:23:00,
2013-10-15 15:24:00,82.8,21.1,29.35,WNW,300,15.5,18.6,10,-99.99,,,0.00,494.3,rob ver 1A,2013-10-15 22:24:00,
2013-10-15 15:25:00,80.9,21.6,29.47,West,279,6.6,9.3,11,-99.99,,,0.00,489.3,rob ver 1B,2013-10-15 22:25:00,
2013-10-15 15:26:00,80.9,21.8,29.47,West,273,13.2,16.8,11,-99.99,,,0.00,486.9,rob ver 1B,2013-10-15 22:26:00,
2013-10-15 15:27:00,80.8,21.7,29.47,West,269,12.1,14.9,11,-99.99,,,0.00,483.1,rob ver 1B,2013-10-15 22:27:00,
2013-10-15 15:28:00,80.7,21.8,29.47,West,261,10.2,12.8,11,-99.99,,,0.00,480.3,rob ver 1B,2013-10-15 22:28:00,
2013-10-15 15:29:00,82.9,21.3,29.35,NW,307,13.3,16.1,10,-99.99,,,0.00,479.3,rob ver 1A,2013-10-15 22:29:00,
2013-10-15 15:30:00,80.6,21.8,29.47,WSW,248,6.0,9.7,11,-99.99,,,0.00,475.2,rob ver 1B,2013-10-15 22:30:00,
2013-10-15 15:31:00,80.6,21.8,29.47,WSW,254,7.1,9.0,11,-99.99,,,0.00,472.4,rob ver 1B,2013-10-15 22:31:00,
2013-10-15 15:32:00,80.7,21.7,29.47,SW,232,5.0,10.4,11,-99.99,,,0.00,469.6,rob ver 1B,2013-10-15 22:32:00,
2013-10-15 15:33:00,80.8,21.7,29.47,West,261,5.6,8.5,11,-99.99,,,0.00,466.6,rob ver 1B,2013-10-15 22:33:00,
2013-10-15 15:34:00,81.0,21.8,29.47,WNW,286,9.1,12.5,10,-99.99,,,0.00,463.8,rob ver 1B,2013-10-15 22:34:00,
2013-10-15 15:35:00,82.8,20.9,29.35,WNW,296,15.2,20.5,10,-99.99,,,0.00,463.4,rob ver 1A,2013-10-15 22:35:00,
2013-10-15 15:36:00,81.5,22.5,29.47,WNW,300,11.7,15.6,11,-99.99,,,0.00,458.7,rob ver 1B,2013-10-15 22:36:00,
2013-10-15 15:37:00,81.4,22.4,29.47,WNW,296,10.1,13.0,11,-99.99,,,0.00,455.2,rob ver 1B,2013-10-15 22:37:00,
2013-10-15 15:38:00,81.4,22.5,29.47,WNW,302,9.7,11.8,11,-99.99,,,0.00,452.4,rob ver 1B,2013-10-15 22:38:00,
2013-10-15 15:39:00,81.3,22.5,29.47,NW,307,8.4,10.9,11,-99.99,,,0.00,448.5,rob ver 1B,2013-10-15 22:39:00,
2013-10-15 15:40:00,82.4,20.8,29.35,WNW,292,13.2,17.5,10,-99.99,,,0.00,449.6,rob ver 1A,2013-10-15 22:40:00,
2013-10-15 15:41:00,81.2,22.8,29.47,NW,325,7.3,10.6,11,-99.99,,,0.00,442.2,rob ver 1B,2013-10-15 22:41:00,
2013-10-15 15:42:00,81.3,22.7,29.47,NW,319,7.0,10.5,11,-99.99,,,0.00,439.4,rob ver 1B,2013-10-15 22:42:00,
2013-10-15 15:43:00,81.2,22.4,29.47,NNW,330,6.0,9.4,11,-99.99,,,0.00,436.1,rob ver 1B,2013-10-15 22:43:00,
2013-10-15 15:44:00,81.1,22.4,29.47,NW,311,5.4,7.0,11,-99.99,,,0.00,433,rob ver 1B,2013-10-15 22:44:00,
2013-10-15 15:45:00,82.8,21.0,29.35,NW,323,10.4,15.2,9,-99.99,,,0.00,432.8,rob ver 1A,2013-10-15 22:45:00,
2013-10-15 15:46:00,80.9,22.4,29.47,West,279,8.3,14.0,11,-99.99,,,0.00,427,rob ver 1B,2013-10-15 22:46:00,
2013-10-15 15:47:00,80.9,22.3,29.47,NW,305,10.8,13.8,11,-99.99,,,0.00,423.6,rob ver 1B,2013-10-15 22:47:00,
2013-10-15 15:48:00,80.9,22.5,29.47,NW,307,8.8,13.9,11,-99.99,,,0.00,420.1,rob ver 1B,2013-10-15 22:48:00,
2013-10-15 15:49:00,81.1,22.3,29.47,WNW,300,11.4,13.2,11,-99.99,,,0.00,417.2,rob ver 1B,2013-10-15 22:49:00,
2013-10-15 15:50:00,83.0,20.5,29.35,NNW,327,12.9,17.2,9,-99.99,,,0.00,418.6,rob ver 1A,2013-10-15 22:50:00,
2013-10-15 15:51:00,80.9,22.3,29.47,WNW,294,10.6,12.1,11,-99.99,,,0.00,410.2,rob ver 1B,2013-10-15 22:51:00,
2013-10-15 15:52:00,80.9,22.1,29.47,NW,304,8.7,11.5,11,-99.99,,,0.00,408.3,rob ver 1B,2013-10-15 22:52:00,
2013-10-15 15:53:00,80.9,22.2,29.47,WNW,291,9.5,11.7,11,-99.99,,,0.00,405,rob ver 1B,2013-10-15 22:53:00,
2013-10-15 15:54:00,81.1,22.1,29.47,West,281,11.0,14.5,11,-99.99,,,0.00,401.5,rob ver 1B,2013-10-15 22:54:00,
2013-10-15 15:55:00,82.3,20.7,29.35,WNW,287,12.7,18.4,10,-99.99,,,0.00,401,rob ver 1A,2013-10-15 22:55:00,
2013-10-15 15:56:00,81.1,22.1,29.47,WNW,284,8.5,10.4,11,-99.99,,,0.00,394.1,rob ver 1B,2013-10-15 22:56:00,
2013-10-15 15:57:00,81.2,22.3,29.47,West,281,7.7,9.1,11,-99.99,,,0.00,391.3,rob ver 1B,2013-10-15 22:57:00,
2013-10-15 15:58:00,81.2,22.2,29.47,West,273,7.3,12.1,11,-99.99,,,0.00,387.5,rob ver 1B,2013-10-15 22:58:00,
2013-10-15 15:59:00,81.0,22.2,29.47,WNW,292,5.3,7.1,11,-99.99,,,0.00,384.5,rob ver 1B,2013-10-15 22:59:00,
2013-10-15 16:00:00,82.7,21.0,29.35,NW,317,16.5,21.1,10,-99.99,,,0.00,381.9,rob ver 1A,2013-10-15 23:00:00,
2013-10-15 16:01:00,81.1,22.2,29.47,West,270,9.0,12.8,11,-99.99,,,0.00,377.8,rob ver 1B,2013-10-15 23:01:00,
2013-10-15 16:02:00,81.0,22.2,29.47,WNW,302,9.9,12.3,11,-99.99,,,0.00,375,rob ver 1B,2013-10-15 23:02:00,
2013-10-15 16:03:00,80.9,22.2,29.47,NW,308,11.5,13.7,11,-99.99,,,0.00,371.2,rob ver 1B,2013-10-15 23:03:00,
2013-10-15 16:04:00,80.7,22.1,29.47,NW,323,7.9,11.7,11,-99.99,,,0.00,367.9,rob ver 1B,2013-10-15 23:04:00,
2013-10-15 16:05:00,82.4,21.1,29.35,NW,311,13.7,16.8,10,-99.99,,,0.00,364.9,rob ver 1A,2013-10-15 23:05:00,
2013-10-15 16:06:00,80.7,22.2,29.47,WNW,301,7.3,15.3,11,-99.99,,,0.00,361.3,rob ver 1B,2013-10-15 23:06:00,
2013-10-15 16:07:00,80.6,22.1,29.47,West,276,10.1,14.6,11,-99.99,,,0.00,358,rob ver 1B,2013-10-15 23:07:00,
2013-10-15 16:08:00,80.6,22.2,29.47,WNW,298,8.8,11.3,11,-99.99,,,0.00,354.2,rob ver 1B,2013-10-15 23:08:00,
2013-10-15 16:09:00,80.7,21.9,29.47,West,280,9.8,12.6,11,-99.99,,,0.00,352.1,rob ver 1B,2013-10-15 23:09:00,
2013-10-15 16:10:00,80.8,21.9,29.47,West,271,9.2,11.4,11,-99.99,,,0.00,348.8,rob ver 1B,2013-10-15 23:10:00,
2013-10-15 16:11:00,82.6,21.3,29.35,WNW,296,16.1,19.0,10,-99.99,,,0.00,348.7,rob ver 1A,2013-10-15 23:11:00,
2013-10-15 16:12:00,81.4,21.8,29.47,West,275,8.8,12.0,10,-99.99,,,0.00,342.3,rob ver 1B,2013-10-15 23:12:00,
2013-10-15 16:13:00,81.3,21.9,29.47,West,276,9.5,11.7,11,-99.99,,,0.00,339.5,rob ver 1B,2013-10-15 23:13:00,
2013-10-15 16:14:00,81.1,21.8,29.47,West,275,6.6,8.4,11,-99.99,,,0.00,335.2,rob ver 1B,2013-10-15 23:14:00,
2013-10-15 16:15:00,81.2,21.9,29.47,WSW,251,8.2,10.0,11,-99.99,,,0.00,332.3,rob ver 1B,2013-10-15 23:15:00,
2013-10-15 16:16:00,82.3,21.4,29.35,WNW,291,14.1,18.1,10,-99.99,,,0.00,332.4,rob ver 1A,2013-10-15 23:16:00,
2013-10-15 16:17:00,81.4,21.8,29.47,WSW,256,11.7,13.9,10,-99.99,,,0.00,324.5,rob ver 1B,2013-10-15 23:17:00,
2013-10-15 16:18:00,81.3,21.5,29.47,West,259,10.9,13.2,10,-99.99,,,0.00,321.4,rob ver 1B,2013-10-15 23:18:00,
2013-10-15 16:19:00,81.1,21.5,29.47,West,267,9.2,11.3,10,-99.99,,,0.00,318.3,rob ver 1B,2013-10-15 23:19:00,
2013-10-15 16:20:00,80.9,21.6,29.47,West,278,8.7,9.9,11,-99.99,,,0.00,315,rob ver 1B,2013-10-15 23:20:00,
2013-10-15 16:21:00,82.2,21.4,29.35,NW,318,13.2,17.6,10,-99.99,,,0.00,316.4,rob ver 1A,2013-10-15 23:21:00,
2013-10-15 16:22:00,81.0,21.5,29.47,WSW,252,10.1,15.5,10,-99.99,,,0.00,308.5,rob ver 1B,2013-10-15 23:22:00,
2013-10-15 16:23:00,81.2,21.5,29.47,West,269,12.7,15.1,10,-99.99,,,0.00,305.1,rob ver 1B,2013-10-15 23:23:00,
2013-10-15 16:24:00,81.1,21.4,29.47,West,277,10.9,12.9,10,-99.99,,,0.00,301.5,rob ver 1B,2013-10-15 23:24:00,
2013-10-15 16:25:00,81.0,21.3,29.47,WNW,289,8.9,10.7,10,-99.99,,,0.00,298.5,rob ver 1B,2013-10-15 23:25:00,
2013-10-15 16:26:00,82.4,21.2,29.35,NW,319,12.4,14.9,10,-99.99,,,0.00,295.5,rob ver 1A,2013-10-15 23:26:00,
2013-10-15 16:27:00,81.0,21.1,29.47,West,275,7.7,9.7,10,-99.99,,,0.00,291.7,rob ver 1B,2013-10-15 23:27:00,
2013-10-15 16:28:00,81.0,21.2,29.47,West,268,10.3,14.1,10,-99.99,,,0.00,288.8,rob ver 1B,2013-10-15 23:28:00,
2013-10-15 16:29:00,80.8,21.3,29.47,West,264,10.3,14.1,10,-99.99,,,0.00,285.1,rob ver 1B,2013-10-15 23:29:00,
2013-10-15 16:30:00,80.7,21.2,29.47,West,272,10.8,12.7,10,-99.99,,,0.00,281.8,rob ver 1B,2013-10-15 23:30:00,
2013-10-15 16:31:00,82.7,21.6,29.35,NW,314,12.1,15.7,10,-99.99,,,0.00,278.9,rob ver 1A,2013-10-15 23:31:00,
2013-10-15 16:32:00,80.9,22.2,29.47,WNW,299,10.7,14.3,11,-99.99,,,0.00,274.8,rob ver 1B,2013-10-15 23:32:00,
2013-10-15 16:33:00,80.9,22.3,29.47,NW,307,9.6,12.3,11,-99.99,,,0.00,271.3,rob ver 1B,2013-10-15 23:33:00,
2013-10-15 16:34:00,80.9,22.6,29.47,NW,314,9.6,11.5,11,-99.99,,,0.00,267.3,rob ver 1B,2013-10-15 23:34:00,
2013-10-15 16:35:00,80.9,22.4,29.47,NW,311,9.3,11.9,11,-99.99,,,0.00,264.4,rob ver 1B,2013-10-15 23:35:00,
2013-10-15 16:36:00,82.6,21.4,29.35,WNW,298,11.1,13.3,10,-99.99,,,0.00,260.1,rob ver 1A,2013-10-15 23:36:00,
2013-10-15 16:37:00,80.8,22.2,29.47,WNW,293,8.9,11.3,11,-99.99,,,0.00,257.8,rob ver 1B,2013-10-15 23:37:00,
2013-10-15 16:38:00,80.8,22.1,29.47,WNW,288,9.9,12.0,11,-99.99,,,0.00,254.6,rob ver 1B,2013-10-15 23:38:00,
2013-10-15 16:39:00,80.8,22.3,29.47,WNW,293,10.3,13.2,11,-99.99,,,0.00,250.7,rob ver 1B,2013-10-15 23:39:00,
2013-10-15 16:40:00,81.0,22.0,29.47,WNW,288,11.6,13.8,11,-99.99,,,0.00,247.7,rob ver 1B,2013-10-15 23:40:00,
2013-10-15 16:41:00,80.9,21.9,29.47,WNW,285,11.4,13.8,11,-99.99,,,0.00,243.6,rob ver 1B,2013-10-15 23:41:00,
2013-10-15 16:42:00,82.1,20.5,29.35,NNW,328,16.8,21.7,10,-99.99,,,0.00,242.4,rob ver 1A,2013-10-15 23:42:00,
2013-10-15 16:43:00,80.5,21.9,29.47,WNW,284,7.9,9.9,11,-99.99,,,0.00,236.7,rob ver 1B,2013-10-15 23:43:00,
2013-10-15 16:44:00,80.5,21.9,29.47,WNW,301,7.5,9.2,11,-99.99,,,0.00,233.2,rob ver 1B,2013-10-15 23:44:00,
2013-10-15 16:45:00,80.5,22.1,29.47,WNW,290,8.5,11.2,11,-99.99,,,0.00,229.3,rob ver 1B,2013-10-15 23:45:00,
2013-10-15 16:46:00,80.6,22.0,29.47,West,279,10.6,12.9,11,-99.99,,,0.00,226.5,rob ver 1B,2013-10-15 23:46:00,
2013-10-15 16:47:00,82.0,20.2,29.35,NW,309,15.2,19.4,10,-99.99,,,0.00,226.6,rob ver 1A,2013-10-15 23:47:00,
2013-10-15 16:48:00,80.5,21.7,29.47,NW,318,10.6,12.4,11,-99.99,,,0.00,219.5,rob ver 1B,2013-10-15 23:48:00,
2013-10-15 16:49:00,80.4,22.0,29.47,NW,317,8.7,13.7,11,-99.99,,,0.00,215.8,rob ver 1B,2013-10-15 23:49:00,
2013-10-15 16:50:00,80.4,22.0,29.47,NW,321,10.9,12.6,11,-99.99,,,0.00,212.5,rob ver 1B,2013-10-15 23:50:00,
2013-10-15 16:51:00,80.3,21.9,29.47,NW,321,8.2,11.0,11,-99.99,,,0.00,209.7,rob ver 1B,2013-10-15 23:51:00,
2013-10-15 16:52:00,82.1,20.3,29.35,NW,322,12.8,15.9,10,-99.99,,,0.00,209.6,rob ver 1A,2013-10-15 23:52:00,
2013-10-15 16:53:00,80.5,21.9,29.47,WNW,302,7.6,11.8,11,-99.99,,,0.00,203.6,rob ver 1B,2013-10-15 23:53:00,
2013-10-15 16:54:00,80.5,22.2,29.47,NW,306,7.0,10.6,11,-99.99,,,0.00,200.1,rob ver 1B,2013-10-15 23:54:00,
2013-10-15 16:55:00,80.5,22.2,29.47,WNW,303,7.3,9.1,11,-99.99,,,0.00,196.5,rob ver 1B,2013-10-15 23:55:00,
2013-10-15 16:56:00,80.5,22.4,29.47,NNW,330,6.8,8.3,11,-99.99,,,0.00,193.5,rob ver 1B,2013-10-15 23:56:00,
2013-10-15 16:57:00,82.0,20.1,29.35,NW,325,14.4,17.5,10,-99.99,,,0.00,193.8,rob ver 1A,2013-10-15 23:57:00,
2013-10-15 16:58:00,80.6,22.1,29.47,WNW,292,6.1,7.1,11,-99.99,,,0.00,186.2,rob ver 1B,2013-10-15 23:58:00,
2013-10-15 16:59:00,80.6,22.0,29.47,WNW,295,8.0,12.5,11,-99.99,,,0.00,183.3,rob ver 1B,2013-10-15 23:59:00,
2013-10-15 17:00:00,80.5,22.1,29.47,NW,307,8.1,10.4,11,-99.99,,,0.00,180,rob ver 1B,2013-10-16 00:00:00,
2013-10-15 17:01:00,80.5,22.1,29.47,WNW,299,7.2,8.6,11,-99.99,,,0.00,176.7,rob ver 1B,2013-10-16 00:01:00,
2013-10-15 17:02:00,81.7,20.1,29.35,NW,315,10.1,13.9,10,-99.99,,,0.00,177.8,rob ver 1A,2013-10-16 00:02:00,
2013-10-15 17:03:00,80.5,22.0,29.47,WNW,301,10.7,14.0,11,-99.99,,,0.00,170.8,rob ver 1B,2013-10-16 00:03:00,
2013-10-15 17:04:00,80.6,22.0,29.47,WNW,289,11.0,12.1,11,-99.99,,,0.00,167.5,rob ver 1B,2013-10-16 00:04:00,
2013-10-15 17:05:00,80.4,22.1,29.47,WNW,292,9.9,11.4,11,-99.99,,,0.00,164,rob ver 1B,2013-10-16 00:05:00,
2013-10-15 17:06:00,80.4,22.2,29.44,NW,315,8.3,10.2,11,-99.99,,,0.00,160.7,rob ver 1B,2013-10-16 00:06:00,
2013-10-15 17:07:00,81.9,19.2,29.35,WNW,301,13.6,16.9,9,-99.99,,,0.00,162.3,rob ver 1A,2013-10-16 00:07:00,
2013-10-15 17:08:00,80.2,22.1,29.47,NW,315,8.2,11.7,11,-99.99,,,0.00,154.4,rob ver 1B,2013-10-16 00:08:00,
2013-10-15 17:09:00,80.2,22.1,29.47,NW,308,7.1,8.6,11,-99.99,,,0.00,150.8,rob ver 1B,2013-10-16 00:09:00,
2013-10-15 17:10:00,80.2,22.0,29.44,WNW,292,7.5,9.0,11,-99.99,,,0.00,147.8,rob ver 1B,2013-10-16 00:10:00,
2013-10-15 17:11:00,80.4,22.1,29.47,WNW,290,8.7,13.0,11,-99.99,,,0.00,144.7,rob ver 1B,2013-10-16 00:11:00,
2013-10-15 17:12:00,81.6,19.1,29.35,WNW,301,15.5,20.4,9,-99.99,,,0.00,146.2,rob ver 1A,2013-10-16 00:12:00,
2013-10-15 17:13:00,80.3,22.2,29.47,WNW,285,12.3,16.0,11,-99.99,,,0.00,138.1,rob ver 1B,2013-10-16 00:13:00,
2013-10-15 17:14:00,80.3,22.2,29.44,WNW,296,11.4,13.1,11,-99.99,,,0.00,135.2,rob ver 1B,2013-10-16 00:14:00,
2013-10-15 17:15:00,80.3,22.3,29.44,WNW,298,10.1,11.5,11,-99.99,,,0.00,131.9,rob ver 1B,2013-10-16 00:15:00,
2013-10-15 17:16:00,80.2,22.3,29.47,NW,306,10.7,12.4,11,-99.99,,,0.00,128.9,rob ver 1B,2013-10-16 00:16:00,
2013-10-15 17:17:00,81.4,19.1,29.35,WNW,297,13.8,16.4,9,-99.99,,,0.00,129.9,rob ver 1A,2013-10-16 00:17:00,
2013-10-15 17:18:00,80.0,22.2,29.47,WNW,301,10.5,12.5,11,-99.99,,,0.00,123,rob ver 1B,2013-10-16 00:18:00,
2013-10-15 17:19:00,79.9,22.0,29.44,NW,316,8.0,10.1,11,-99.99,,,0.00,120,rob ver 1B,2013-10-16 00:19:00,
2013-10-15 17:20:00,79.9,22.1,29.44,NW,314,6.2,7.9,11,-99.99,,,0.00,117,rob ver 1B,2013-10-16 00:20:00,
2013-10-15 17:21:00,79.9,22.3,29.47,WNW,302,6.3,10.6,11,-99.99,,,0.00,114.1,rob ver 1B,2013-10-16 00:21:00,
2013-10-15 17:22:00,81.3,18.6,29.35,WNW,294,16.2,22.2,9,-99.99,,,0.00,112.1,rob ver 1A,2013-10-16 00:22:00,
2013-10-15 17:23:00,79.9,22.2,29.44,WNW,303,9.6,12.2,11,-99.99,,,0.00,107.8,rob ver 1B,2013-10-16 00:23:00,
2013-10-15 17:24:00,79.9,22.2,29.44,NW,305,9.7,11.2,11,-99.99,,,0.00,105.2,rob ver 1B,2013-10-16 00:24:00,
2013-10-15 17:25:00,79.8,22.4,29.47,NW,307,8.1,10.1,11,-99.99,,,0.00,101.9,rob ver 1B,2013-10-16 00:25:00,
2013-10-15 17:26:00,79.8,22.1,29.47,WNW,299,9.8,12.0,11,-99.99,,,0.00,98.9,rob ver 1B,2013-10-16 00:26:00,
2013-10-15 17:27:00,81.1,18.9,29.35,NW,305,14.8,17.7,9,-99.99,,,0.00,97.2,rob ver 1A,2013-10-16 00:27:00,
2013-10-15 17:28:00,79.8,21.9,29.44,WNW,295,10.1,13.8,11,-99.99,,,0.00,93,rob ver 1B,2013-10-16 00:28:00,
2013-10-15 17:29:00,79.7,21.8,29.44,West,278,9.2,11.5,11,-99.99,,,0.00,90.2,rob ver 1B,2013-10-16 00:29:00,
2013-10-15 17:30:00,79.7,21.7,29.47,WNW,289,8.9,10.9,11,-99.99,,,0.00,87.4,rob ver 1B,2013-10-16 00:30:00,
2013-10-15 17:31:00,79.6,21.6,29.47,West,279,7.9,10.3,11,-99.99,,,0.00,84.2,rob ver 1B,2013-10-16 00:31:00,
2013-10-15 17:32:00,80.7,18.9,29.35,NW,317,13.6,18.1,9,-99.99,,,0.00,82.1,rob ver 1A,2013-10-16 00:32:00,
2013-10-15 17:33:00,79.7,21.7,29.47,WNW,284,10.6,12.8,11,-99.99,,,0.00,78.8,rob ver 1B,2013-10-16 00:33:00,
2013-10-15 17:34:00,79.6,21.5,29.47,West,280,10.7,12.5,11,-99.99,,,0.00,75.7,rob ver 1B,2013-10-16 00:34:00,
2013-10-15 17:35:00,79.5,21.5,29.47,WNW,288,10.5,12.3,11,-99.99,,,0.00,72.9,rob ver 1B,2013-10-16 00:35:00,
2013-10-15 17:36:00,79.4,21.6,29.47,West,281,7.5,9.3,11,-99.99,,,0.00,70.2,rob ver 1B,2013-10-16 00:36:00,
2013-10-15 17:37:00,80.6,18.4,29.35,NW,309,17.3,21.8,9,-99.99,,,0.00,67.58,rob ver 1A,2013-10-16 00:37:00,
2013-10-15 17:38:00,79.4,21.6,29.47,WNW,286,8.3,10.0,11,-99.99,,,0.00,64.61,rob ver 1B,2013-10-16 00:38:00,
2013-10-15 17:39:00,79.3,21.7,29.47,WNW,296,6.8,8.1,11,-99.99,,,0.00,61.64,rob ver 1B,2013-10-16 00:39:00,
2013-10-15 17:40:00,79.3,21.8,29.47,WNW,302,6.7,9.5,11,-99.99,,,0.00,58.84,rob ver 1B,2013-10-16 00:40:00,
2013-10-15 17:41:00,79.3,21.8,29.47,NW,307,9.0,10.6,11,-99.99,,,0.00,56.04,rob ver 1B,2013-10-16 00:41:00,
2013-10-15 17:42:00,80.3,18.3,29.35,NW,304,16.6,20.7,9,-99.99,,,0.00,53.4,rob ver 1A,2013-10-16 00:42:00,
2013-10-15 17:43:00,79.2,21.8,29.47,NW,309,7.6,9.5,11,-99.99,,,0.00,51.1,rob ver 1B,2013-10-16 00:43:00,
2013-10-15 17:44:00,79.1,21.8,29.47,NW,311,7.3,9.1,11,-99.99,,,0.00,48.46,rob ver 1B,2013-10-16 00:44:00,
2013-10-15 17:45:00,79.0,21.8,29.47,WNW,302,7.4,9.1,11,-99.99,,,0.00,45.49,rob ver 1B,2013-10-16 00:45:00,
2013-10-15 17:46:00,79.0,21.7,29.47,WNW,297,7.7,9.3,11,-99.99,,,0.00,43.02,rob ver 1B,2013-10-16 00:46:00,
2013-10-15 17:47:00,78.9,21.7,29.47,WNW,296,8.0,10.2,11,-99.99,,,0.00,40.38,rob ver 1B,2013-10-16 00:47:00,
2013-10-15 17:48:00,79.9,18.4,29.38,NW,318,11.4,14.9,9,-99.99,,,0.00,40.22,rob ver 1A,2013-10-16 00:48:00,
2013-10-15 17:49:00,78.9,21.5,29.47,WNW,285,8.7,11.0,11,-99.99,,,0.00,35.27,rob ver 1B,2013-10-16 00:49:00,
2013-10-15 17:50:00,78.8,21.5,29.47,WNW,298,8.8,11.5,11,-99.99,,,0.00,33.29,rob ver 1B,2013-10-16 00:50:00,
2013-10-15 17:51:00,78.7,21.4,29.47,WNW,285,8.4,10.0,11,-99.99,,,0.00,30.33,rob ver 1B,2013-10-16 00:51:00,
2013-10-15 17:52:00,78.7,21.3,29.47,WNW,285,8.7,10.8,11,-99.99,,,0.00,28.19,rob ver 1B,2013-10-16 00:52:00,
2013-10-15 17:53:00,79.6,18.4,29.35,NNW,327,13.5,16.9,10,-99.99,,,0.00,27.69,rob ver 1A,2013-10-16 00:53:00,
2013-10-15 17:54:00,78.5,21.5,29.47,WNW,290,9.7,11.5,12,-99.99,,,0.00,23.41,rob ver 1B,2013-10-16 00:54:00,
2013-10-15 17:55:00,78.5,21.6,29.47,WNW,286,8.5,11.0,12,-99.99,,,0.00,21.1,rob ver 1B,2013-10-16 00:55:00,
2013-10-15 17:56:00,78.4,21.6,29.47,WNW,287,8.0,9.2,12,-99.99,,,0.00,16.32,rob ver 1B,2013-10-16 00:56:00,
2013-10-15 17:57:00,78.3,21.6,29.47,WNW,289,7.9,9.3,12,-99.99,,,0.00,10.22,rob ver 1B,2013-10-16 00:57:00,
2013-10-15 17:58:00,79.3,18.6,29.38,NW,313,11.5,13.6,10,-99.99,,,0.00,15.49,rob ver 1A,2013-10-16 00:58:00,
2013-10-15 17:59:00,78.1,21.6,29.47,WNW,288,7.6,9.0,12,-99.99,,,0.00,6.922,rob ver 1B,2013-10-16 00:59:00,
2013-10-15 18:00:00,78.0,21.5,29.47,WNW,286,7.2,8.8,12,-99.99,,,0.00,6.263,rob ver 1B,2013-10-16 01:00:00,
2013-10-15 18:01:00,77.9,21.6,29.47,WNW,286,9.2,11.1,12,-99.99,,,0.00,5.604,rob ver 1B,2013-10-16 01:01:00,
2013-10-15 18:02:00,77.9,21.6,29.47,WNW,292,9.9,11.8,12,-99.99,,,0.00,4.944,rob ver 1B,2013-10-16 01:02:00,
2013-10-15 18:03:00,78.9,18.7,29.38,NW,315,12.2,14.9,10,-99.99,,,0.00,5.934,rob ver 1A,2013-10-16 01:03:00,
2013-10-15 18:04:00,77.8,21.6,29.47,WNW,293,9.3,10.8,12,-99.99,,,0.00,3.956,rob ver 1B,2013-10-16 01:04:00,
2013-10-15 18:05:00,77.8,21.6,29.47,WNW,290,8.7,9.8,12,-99.99,,,0.00,3.626,rob ver 1B,2013-10-16 01:05:00,
2013-10-15 18:06:00,77.7,21.6,29.47,WNW,288,7.3,8.9,12,-99.99,,,0.00,2.967,rob ver 1B,2013-10-16 01:06:00,
2013-10-15 18:07:00,77.6,21.6,29.47,WNW,288,7.8,9.5,12,-99.99,,,0.00,2.802,rob ver 1B,2013-10-16 01:07:00,
2013-10-15 18:08:00,78.5,18.9,29.38,NW,314,10.2,12.3,10,-99.99,,,0.00,3.296,rob ver 1A,2013-10-16 01:08:00,
2013-10-15 18:09:00,77.4,21.5,29.47,WNW,289,7.1,8.3,12,-99.99,,,0.00,2.472,rob ver 1B,2013-10-16 01:09:00,
2013-10-15 18:10:00,77.3,21.5,29.47,WNW,289,6.5,7.3,12,-99.99,,,0.00,1.978,rob ver 1B,2013-10-16 01:10:00,
2013-10-15 18:11:00,77.2,21.5,29.47,WNW,287,6.5,7.7,12,-99.99,,,0.00,1.978,rob ver 1B,2013-10-16 01:11:00,
2013-10-15 18:12:00,77.1,21.6,29.47,WNW,286,7.2,8.6,12,-99.99,,,0.00,1.483,rob ver 1B,2013-10-16 01:12:00,
2013-10-15 18:13:00,78.5,19.0,29.38,NW,321,10.4,12.5,10,-99.99,,,0.00,1.319,rob ver 1A,2013-10-16 01:13:00,
2013-10-15 18:14:00,77.0,21.6,29.47,WNW,286,6.4,7.4,12,-99.99,,,0.00,1.154,rob ver 1B,2013-10-16 01:14:00,
2013-10-15 18:15:00,76.9,21.5,29.47,WNW,285,6.3,7.9,12,-99.99,,,0.00,.824,rob ver 1B,2013-10-16 01:15:00,
2013-10-15 18:16:00,76.8,21.5,29.47,WNW,287,6.5,7.5,12,-99.99,,,0.00,.659,rob ver 1B,2013-10-16 01:16:00,
2013-10-15 18:17:00,76.7,21.5,29.47,WNW,287,6.3,7.3,12,-99.99,,,0.00,.659,rob ver 1B,2013-10-16 01:17:00,
2013-10-15 18:18:00,78.2,19.1,29.38,NW,318,11.0,13.3,10,-99.99,,,0.00,.659,rob ver 1A,2013-10-16 01:18:00,
2013-10-15 18:19:00,76.5,21.5,29.47,WNW,288,5.9,6.9,12,-99.99,,,0.00,.33,rob ver 1B,2013-10-16 01:19:00,
2013-10-15 18:20:00,76.4,21.5,29.47,WNW,288,5.7,6.8,12,-99.99,,,0.00,.33,rob ver 1B,2013-10-16 01:20:00,
2013-10-15 18:21:00,76.3,21.5,29.47,WNW,289,6.1,7.2,12,-99.99,,,0.00,.33,rob ver 1B,2013-10-16 01:21:00,
2013-10-15 18:22:00,76.3,21.4,29.47,WNW,289,6.3,7.2,12,-99.99,,,0.00,0,rob ver 1B,2013-10-16 01:22:00,
2013-10-15 18:23:00,78.1,19.1,29.38,NW,319,10.4,13.2,10,-99.99,,,0.00,0,rob ver 1A,2013-10-16 01:23:00,
2013-10-15 18:24:00,76.2,21.4,29.47,WNW,285,5.9,6.9,12,-99.99,,,0.00,0,rob ver 1B,2013-10-16 01:24:00,
2013-10-15 18:25:00,76.1,21.5,29.47,WNW,285,5.7,6.6,12,-99.99,,,0.00,0,rob ver 1B,2013-10-16 01:25:00,
2013-10-15 18:26:00,76.0,21.5,29.47,WNW,286,5.7,6.4,12,-99.99,,,0.00,0,rob ver 1B,2013-10-16 01:26:00,
2013-10-15 18:27:00,75.9,21.4,29.47,WNW,287,5.7,6.9,12,-99.99,,,0.00,0,rob ver 1B,2013-10-16 01:27:00,
2013-10-15 18:28:00,77.8,19.2,29.38,NW,315,9.2,14.0,11,-99.99,,,0.00,0,rob ver 1A,2013-10-16 01:28:00,
2013-10-15 18:29:00,75.7,21.4,29.47,WNW,286,5.6,6.6,13,-99.99,,,0.00,0,rob ver 1B,2013-10-16 01:29:00,
2013-10-15 18:30:00,75.6,21.3,29.47,WNW,287,6.2,8.1,12,-99.99,,,0.00,0,rob ver 1B,2013-10-16 01:30:00,
2013-10-15 18:31:00,75.6,21.3,29.47,WNW,288,6.1,7.3,12,-99.99,,,0.00,0,rob ver 1B,2013-10-16 01:31:00,
2013-10-15 18:32:00,75.6,21.2,29.47,WNW,288,7.1,9.7,12,-99.99,,,0.00,0,rob ver 1B,2013-10-16 01:32:00,
2013-10-15 18:33:00,75.6,21.2,29.47,WNW,289,6.5,8.2,12,-99.99,,,0.00,0,rob ver 1B,2013-10-16 01:33:00,
2013-10-15 18:34:00,77.6,19.2,29.38,NW,322,9.3,11.7,11,-99.99,,,0.00,0,rob ver 1A,2013-10-16 01:34:00,
2013-10-15 18:35:00,75.6,21.2,29.47,WNW,287,6.5,8.1,12,-99.99,,,0.00,0,rob ver 1B,2013-10-16 01:35:00,
2013-10-15 18:36:00,75.5,21.2,29.47,WNW,284,6.3,7.4,13,-99.99,,,0.00,0,rob ver 1B,2013-10-16 01:36:00,
2013-10-15 18:37:00,75.5,21.1,29.47,WNW,282,5.8,6.9,12,-99.99,,,0.00,0,rob ver 1B,2013-10-16 01:37:00,
2013-10-15 18:38:00,75.3,21.1,29.47,West,276,5.5,6.4,13,-99.99,,,0.00,0,rob ver 1B,2013-10-16 01:38:00,
2013-10-15 18:39:00,77.7,19.1,29.38,NW,325,8.9,10.7,11,-99.99,,,0.00,0,rob ver 1A,2013-10-16 01:39:00,
2013-10-15 18:40:00,75.0,21.2,29.47,West,264,4.4,5.3,13,-99.99,,,0.00,0,rob ver 1B,2013-10-16 01:40:00,
2013-10-15 18:41:00,74.7,21.2,29.47,West,263,4.5,5.4,13,-99.99,,,0.00,0,rob ver 1B,2013-10-16 01:41:00,
2013-10-15 18:42:00,74.4,21.3,29.47,West,263,5.0,5.5,13,-99.99,,,0.00,0,rob ver 1B,2013-10-16 01:42:00,
2013-10-15 18:43:00,74.1,21.5,29.47,West,263,4.9,5.6,13,-99.99,,,0.00,0,rob ver 1B,2013-10-16 01:43:00,
2013-10-15 18:44:00,77.4,19.2,29.38,NNW,327,7.6,10.3,11,-99.99,,,0.00,0,rob ver 1A,2013-10-16 01:44:00,
2013-10-15 18:45:00,73.7,21.8,29.47,West,266,4.9,5.5,14,-99.99,,,0.00,0,rob ver 1B,2013-10-16 01:45:00,
2013-10-15 18:46:00,73.5,21.8,29.47,West,269,4.7,5.5,14,-99.99,,,0.00,0,rob ver 1B,2013-10-16 01:46:00,
2013-10-15 18:47:00,73.4,21.9,29.47,West,269,4.8,5.6,14,-99.99,,,0.00,0,rob ver 1B,2013-10-16 01:47:00,
2013-10-15 18:48:00,73.3,21.8,29.47,West,269,4.8,5.5,14,-99.99,,,0.00,0,rob ver 1B,2013-10-16 01:48:00,
2013-10-15 18:49:00,77.5,19.3,29.38,NW,325,8.4,10.5,11,-99.99,,,0.00,0,rob ver 1A,2013-10-16 01:49:00,
2013-10-15 18:50:00,73.2,21.6,29.47,West,270,4.8,5.3,14,-99.99,,,0.00,0,rob ver 1B,2013-10-16 01:50:00,
2013-10-15 18:51:00,73.2,21.5,29.47,West,272,4.8,5.3,14,-99.99,,,0.00,0,rob ver 1B,2013-10-16 01:51:00,
2013-10-15 18:52:00,73.1,21.4,29.47,West,267,4.6,5.2,14,-99.99,,,0.00,0,rob ver 1B,2013-10-16 01:52:00,
2013-10-15 18:53:00,73.1,21.4,29.47,West,262,4.4,4.9,14,-99.99,,,0.00,0,rob ver 1B,2013-10-16 01:53:00,
2013-10-15 18:54:00,77.2,19.5,29.38,NW,325,7.6,9.6,11,-99.99,,,0.00,0,rob ver 1A,2013-10-16 01:54:00,
2013-10-15 18:55:00,72.9,21.3,29.47,West,271,4.8,5.8,14,-99.99,,,0.00,0,rob ver 1B,2013-10-16 01:55:00,
2013-10-15 18:56:00,72.9,21.3,29.47,West,273,5.0,5.6,14,-99.99,,,0.00,0,rob ver 1B,2013-10-16 01:56:00,
2013-10-15 18:57:00,72.9,21.3,29.47,West,274,5.0,5.9,14,-99.99,,,0.00,0,rob ver 1B,2013-10-16 01:57:00,
2013-10-15 18:58:00,72.8,21.3,29.47,West,278,5.1,5.6,14,-99.99,,,0.00,0,rob ver 1B,2013-10-16 01:58:00,
2013-10-15 18:59:00,76.7,19.6,29.38,NW,316,8.9,10.6,11,-99.99,,,0.00,0,rob ver 1A,2013-10-16 01:59:00,
2013-10-15 19:00:00,72.8,21.3,29.47,West,280,4.9,5.5,14,-99.99,,,0.00,0,rob ver 1B,2013-10-16 02:00:00,
2013-10-15 19:01:00,72.8,21.3,29.47,WNW,282,5.1,5.4,14,-99.99,,,0.00,0,rob ver 1B,2013-10-16 02:01:00,
2013-10-15 19:02:00,72.7,21.2,29.47,WNW,282,4.8,5.3,14,-99.99,,,0.00,0,rob ver 1B,2013-10-16 02:02:00,
2013-10-15 19:03:00,72.7,21.2,29.47,West,281,4.8,5.3,14,-99.99,,,0.00,0,rob ver 1B,2013-10-16 02:03:00,
2013-10-15 19:04:00,72.7,21.2,29.47,WNW,283,4.8,5.2,14,-99.99,,,0.00,0,rob ver 1B,2013-10-16 02:04:00,
2013-10-15 19:05:00,76.4,19.6,29.38,NW,319,8.1,10.5,11,-99.99,,,0.00,0,rob ver 1A,2013-10-16 02:05:00,
2013-10-15 19:06:00,72.7,21.2,29.47,WNW,283,4.3,5.0,14,-99.99,,,0.00,0,rob ver 1B,2013-10-16 02:06:00,
2013-10-15 19:07:00,72.7,21.1,29.47,WNW,283,4.1,4.5,14,-99.99,,,0.00,0,rob ver 1B,2013-10-16 02:07:00,
2013-10-15 19:08:00,72.6,21.1,29.47,WNW,283,4.2,4.6,14,-99.99,,,0.00,0,rob ver 1B,2013-10-16 02:08:00,
2013-10-15 19:09:00,72.5,21.1,29.47,West,280,3.8,4.1,14,-99.99,,,0.00,0,rob ver 1B,2013-10-16 02:09:00,
2013-10-15 19:10:00,76.6,19.6,29.38,NW,309,8.1,9.1,11,-99.99,,,0.00,0,rob ver 1A,2013-10-16 02:10:00,
2013-10-15 19:11:00,72.2,21.1,29.47,West,274,3.5,3.8,14,-99.99,,,0.00,0,rob ver 1B,2013-10-16 02:11:00,
2013-10-15 19:12:00,72.1,21.3,29.47,West,276,3.9,4.2,14,-99.99,,,0.00,0,rob ver 1B,2013-10-16 02:12:00,
2013-10-15 19:13:00,72.0,21.3,29.47,West,281,4.1,4.6,14,-99.99,,,0.00,0,rob ver 1B,2013-10-16 02:13:00,
2013-10-15 19:14:00,71.9,21.2,29.47,West,281,4.1,4.6,14,-99.99,,,0.00,0,rob ver 1B,2013-10-16 02:14:00,
2013-10-15 19:15:00,76.2,19.6,29.41,NW,309,10.4,12.8,11,-99.99,,,0.00,0,rob ver 1A,2013-10-16 02:15:00,
2013-10-15 19:16:00,71.7,21.2,29.47,West,279,4.1,4.5,14,-99.99,,,0.00,0,rob ver 1B,2013-10-16 02:16:00,
2013-10-15 19:17:00,71.5,21.1,29.47,West,274,4.1,4.5,14,-99.99,,,0.00,0,rob ver 1B,2013-10-16 02:17:00,
2013-10-15 19:18:00,71.4,21.1,29.47,West,268,3.7,4.1,14,-99.99,,,0.00,0,rob ver 1B,2013-10-16 02:18:00,
2013-10-15 19:19:00,71.3,21.3,29.47,West,267,3.7,3.9,15,-99.99,,,0.00,0,rob ver 1B,2013-10-16 02:19:00,
2013-10-15 19:20:00,76.0,19.8,29.38,NW,310,7.7,9.2,11,-99.99,,,0.00,0,rob ver 1A,2013-10-16 02:20:00,
2013-10-15 19:21:00,70.9,21.3,29.47,West,264,3.3,3.6,15,-99.99,,,0.00,0,rob ver 1B,2013-10-16 02:21:00,
2013-10-15 19:22:00,70.8,21.3,29.47,West,271,3.1,3.3,15,-99.99,,,0.00,0,rob ver 1B,2013-10-16 02:22:00,
2013-10-15 19:23:00,70.8,21.3,29.47,West,277,3.0,3.2,15,-99.99,,,0.00,0,rob ver 1B,2013-10-16 02:23:00,
2013-10-15 19:24:00,70.7,21.2,29.47,WNW,282,2.9,3.2,15,-99.99,,,0.00,0,rob ver 1B,2013-10-16 02:24:00,
2013-10-15 19:25:00,75.5,19.7,29.41,NW,313,7.6,9.0,12,-99.99,,,0.00,0,rob ver 1A,2013-10-16 02:25:00,
2013-10-15 19:26:00,70.6,21.2,29.47,WNW,288,3.0,3.3,15,-99.99,,,0.00,0,rob ver 1B,2013-10-16 02:26:00,
2013-10-15 19:27:00,70.6,21.1,29.47,WNW,290,2.9,3.1,15,-99.99,,,0.00,0,rob ver 1B,2013-10-16 02:27:00,
2013-10-15 19:28:00,70.7,21.1,29.47,WNW,293,2.9,3.4,15,-99.99,,,0.00,0,rob ver 1B,2013-10-16 02:28:00,
2013-10-15 19:29:00,70.8,21.0,29.47,WNW,294,3.0,3.4,15,-99.99,,,0.00,0,rob ver 1B,2013-10-16 02:29:00,
2013-10-15 19:30:00,74.9,19.7,29.41,NW,320,6.0,7.2,12,-99.99,,,0.00,0,rob ver 1A,2013-10-16 02:30:00,
2013-10-15 19:31:00,70.7,21.0,29.47,WNW,294,3.4,3.7,15,-99.99,,,0.00,0,rob ver 1B,2013-10-16 02:31:00,
2013-10-15 19:32:00,70.8,20.9,29.47,WNW,294,3.6,4.1,15,-99.99,,,0.00,0,rob ver 1B,2013-10-16 02:32:00,
2013-10-15 19:33:00,70.8,20.9,29.47,WNW,296,3.7,3.9,15,-99.99,,,0.00,0,rob ver 1B,2013-10-16 02:33:00,
2013-10-15 19:34:00,70.8,20.8,29.47,WNW,293,3.6,3.9,14,-99.99,,,0.00,0,rob ver 1B,2013-10-16 02:34:00,
2013-10-15 19:35:00,70.8,20.8,29.47,WNW,294,3.6,3.9,14,-99.99,,,0.00,0,rob ver 1B,2013-10-16 02:35:00,
2013-10-15 19:36:00,74.6,19.7,29.41,NW,320,5.2,6.3,12,-99.99,,,0.00,0,rob ver 1A,2013-10-16 02:36:00,
2013-10-15 19:37:00,70.8,20.7,29.47,WNW,296,3.0,3.2,14,-99.99,,,0.00,0,rob ver 1B,2013-10-16 02:37:00,
2013-10-15 19:38:00,70.6,20.7,29.47,WNW,295,2.8,3.0,14,-99.99,,,0.00,0,rob ver 1B,2013-10-16 02:38:00,
2013-10-15 19:39:00,70.5,20.6,29.47,WNW,300,2.6,2.8,14,-99.99,,,0.00,0,rob ver 1B,2013-10-16 02:39:00,
2013-10-15 19:40:00,70.4,20.6,29.47,WNW,302,2.3,3.1,15,-99.99,,,0.00,0,rob ver 1B,2013-10-16 02:40:00,
2013-10-15 19:41:00,74.4,19.7,29.41,NW,323,3.9,4.7,12,-99.99,,,0.00,0,rob ver 1A,2013-10-16 02:41:00,
2013-10-15 19:42:00,70.3,20.5,29.47,WNW,299,2.2,2.5,15,-99.99,,,0.00,0,rob ver 1B,2013-10-16 02:42:00,
2013-10-15 19:43:00,70.3,20.5,29.47,WNW,287,2.2,2.8,14,-99.99,,,0.00,0,rob ver 1B,2013-10-16 02:43:00,
2013-10-15 19:44:00,70.2,20.3,29.47,West,277,2.0,2.2,15,-99.99,,,0.00,0,rob ver 1B,2013-10-16 02:44:00,
2013-10-15 19:45:00,70.1,20.6,29.47,West,277,2.3,2.6,15,-99.99,,,0.00,0,rob ver 1B,2013-10-16 02:45:00,
2013-10-15 19:46:00,73.9,19.7,29.41,NW,323,3.9,4.4,12,-99.99,,,0.00,0,rob ver 1A,2013-10-16 02:46:00,
2013-10-15 19:47:00,70.0,20.6,29.47,WNW,287,3.4,4.1,15,-99.99,,,0.00,0,rob ver 1B,2013-10-16 02:47:00,
2013-10-15 19:48:00,70.1,20.6,29.47,WNW,288,3.7,4.0,15,-99.99,,,0.00,0,rob ver 1B,2013-10-16 02:48:00,
2013-10-15 19:49:00,70.1,20.6,29.47,WNW,285,3.7,4.1,15,-99.99,,,0.00,0,rob ver 1B,2013-10-16 02:49:00,
2013-10-15 19:50:00,70.1,20.6,29.47,West,266,3.2,4.0,15,-99.99,,,0.00,0,rob ver 1B,2013-10-16 02:50:00,
2013-10-15 19:51:00,73.6,19.7,29.41,NW,323,3.3,3.9,12,-99.99,,,0.00,0,rob ver 1A,2013-10-16 02:51:00,
2013-10-15 19:52:00,69.6,20.7,29.47,West,259,2.7,3.1,15,-99.99,,,0.00,0,rob ver 1B,2013-10-16 02:52:00,
2013-10-15 19:53:00,69.5,20.6,29.47,WSW,256,2.8,3.1,15,-99.99,,,0.00,0,rob ver 1B,2013-10-16 02:53:00,
2013-10-15 19:54:00,69.3,20.9,29.47,WSW,258,2.6,2.9,16,-99.99,,,0.00,0,rob ver 1B,2013-10-16 02:54:00,
2013-10-15 19:55:00,69.2,21.4,29.47,WSW,256,2.6,2.9,16,-99.99,,,0.00,0,rob ver 1B,2013-10-16 02:55:00,
2013-10-15 19:56:00,73.4,19.7,29.41,NNW,328,3.5,4.0,13,-99.99,,,0.00,0,rob ver 1A,2013-10-16 02:56:00,
2013-10-15 19:57:00,69.2,21.4,29.47,WSW,241,2.4,2.7,16,-99.99,,,0.00,0,rob ver 1B,2013-10-16 02:57:00,
2013-10-15 19:58:00,69.2,22.1,29.47,SW,235,2.7,2.9,16,-99.99,,,0.00,0,rob ver 1B,2013-10-16 02:58:00,
2013-10-15 19:59:00,69.1,22.5,29.47,SW,232,2.9,3.0,17,-99.99,,,0.00,0,rob ver 1B,2013-10-16 02:59:00,
2013-10-15 20:00:00,69.0,22.6,29.47,SW,233,3.2,3.5,17,-99.99,,,0.00,0,rob ver 1B,2013-10-16 03:00:00,
2013-10-15 20:01:00,72.7,19.6,29.41,NW,311,2.3,2.4,13,-99.99,,,0.00,0,rob ver 1A,2013-10-16 03:01:00,
2013-10-15 20:02:00,68.9,22.7,29.47,WSW,251,3.5,3.6,17,-99.99,,,0.00,0,rob ver 1B,2013-10-16 03:02:00,
2013-10-15 20:03:00,68.9,23.4,29.47,WSW,252,3.3,3.6,17,-99.99,,,0.00,0,rob ver 1B,2013-10-16 03:03:00,
2013-10-15 20:04:00,69.0,23.3,29.47,WSW,255,3.3,3.5,17,-99.99,,,0.00,0,rob ver 1B,2013-10-16 03:04:00,
2013-10-15 20:05:00,69.1,22.9,29.47,WSW,257,3.3,3.6,17,-99.99,,,0.00,0,rob ver 1B,2013-10-16 03:05:00,
2013-10-15 20:06:00,72.4,19.7,29.41,NNW,328,2.8,3.2,13,-99.99,,,0.00,0,rob ver 1A,2013-10-16 03:06:00,
2013-10-15 20:07:00,69.2,22.1,29.47,West,260,3.3,4.0,16,-99.99,,,0.00,0,rob ver 1B,2013-10-16 03:07:00,
2013-10-15 20:08:00,69.3,22.8,29.47,WSW,257,3.4,3.9,17,-99.99,,,0.00,0,rob ver 1B,2013-10-16 03:08:00,
2013-10-15 20:09:00,69.3,22.7,29.47,WSW,256,3.4,3.7,17,-99.99,,,0.00,0,rob ver 1B,2013-10-16 03:09:00,
2013-10-15 20:10:00,69.4,22.8,29.47,West,261,3.3,4.1,17,-99.99,,,0.00,0,rob ver 1B,2013-10-16 03:10:00,
2013-10-15 20:11:00,72.2,19.6,29.41,NNW,346,4.6,5.1,13,-99.99,,,0.00,0,rob ver 1A,2013-10-16 03:11:00,
2013-10-15 20:12:00,69.5,22.9,29.47,West,259,3.0,4.6,16,-99.99,,,0.00,0,rob ver 1B,2013-10-16 03:12:00,
2013-10-15 20:13:00,69.4,23.1,29.47,West,266,3.2,4.2,17,-99.99,,,0.00,0,rob ver 1B,2013-10-16 03:13:00,
2013-10-15 20:14:00,69.6,23.3,29.47,West,269,3.0,3.5,17,-99.99,,,0.00,0,rob ver 1B,2013-10-16 03:14:00,
2013-10-15 20:15:00,69.7,23.9,29.47,West,269,2.9,3.6,17,-99.99,,,0.00,0,rob ver 1B,2013-10-16 03:15:00,
2013-10-15 20:16:00,72.2,19.7,29.41,NNW,338,4.3,4.8,13,-99.99,,,0.00,0,rob ver 1A,2013-10-16 03:16:00,
2013-10-15 20:17:00,69.6,23.1,29.47,West,275,3.3,3.5,17,-99.99,,,0.00,0,rob ver 1B,2013-10-16 03:17:00,
2013-10-15 20:18:00,69.6,23.4,29.47,West,271,3.0,3.4,17,-99.99,,,0.00,0,rob ver 1B,2013-10-16 03:18:00,
2013-10-15 20:19:00,69.5,23.5,29.47,West,281,3.1,3.6,17,-99.99,,,0.00,0,rob ver 1B,2013-10-16 03:19:00,
2013-10-15 20:20:00,69.4,23.2,29.47,WNW,286,2.7,3.0,17,-99.99,,,0.00,0,rob ver 1B,2013-10-16 03:20:00,
2013-10-15 20:21:00,69.3,22.9,29.47,WNW,293,2.4,2.6,17,-99.99,,,0.00,0,rob ver 1B,2013-10-16 03:21:00,
2013-10-15 20:22:00,72.3,19.7,29.41,NNW,344,3.7,4.2,13,-99.99,,,0.00,0,rob ver 1A,2013-10-16 03:22:00,
2013-10-15 20:23:00,69.0,22.5,29.47,WNW,297,2.0,2.3,17,-99.99,,,0.00,0,rob ver 1B,2013-10-16 03:23:00,
2013-10-15 20:24:00,68.9,22.3,29.47,WNW,288,2.1,2.3,17,-99.99,,,0.00,0,rob ver 1B,2013-10-16 03:24:00,
2013-10-15 20:25:00,68.8,22.5,29.47,West,280,2.4,2.7,17,-99.99,,,0.00,0,rob ver 1B,2013-10-16 03:25:00,
2013-10-15 20:26:00,68.7,22.7,29.47,West,274,3.1,3.4,17,-99.99,,,0.00,0,rob ver 1B,2013-10-16 03:26:00,
2013-10-15 20:27:00,71.7,19.6,29.41,North,357,3.6,4.2,13,-99.99,,,0.00,0,rob ver 1A,2013-10-16 03:27:00,
2013-10-15 20:28:00,68.8,23.2,29.47,West,263,3.4,3.7,17,-99.99,,,0.00,0,rob ver 1B,2013-10-16 03:28:00,
2013-10-15 20:29:00,68.9,23.5,29.47,West,261,3.2,3.7,17,-99.99,,,0.00,0,rob ver 1B,2013-10-16 03:29:00,
2013-10-15 20:30:00,68.9,23.6,29.47,West,259,3.0,3.3,17,-99.99,,,0.00,0,rob ver 1B,2013-10-16 03:30:00,
2013-10-15 20:31:00,68.8,23.6,29.47,West,263,2.8,3.0,18,-99.99,,,0.00,0,rob ver 1B,2013-10-16 03:31:00,
2013-10-15 20:32:00,71.6,19.4,29.41,NNW,337,3.5,4.5,13,-99.99,,,0.00,0,rob ver 1A,2013-10-16 03:32:00,
2013-10-15 20:33:00,68.7,23.8,29.47,West,270,2.8,3.0,18,-99.99,,,0.00,0,rob ver 1B,2013-10-16 03:33:00,
2013-10-15 20:34:00,68.7,23.8,29.47,West,271,2.7,3.0,18,-99.99,,,0.00,0,rob ver 1B,2013-10-16 03:34:00,
2013-10-15 20:35:00,68.6,23.9,29.47,West,272,2.5,2.8,18,-99.99,,,0.00,0,rob ver 1B,2013-10-16 03:35:00,
2013-10-15 20:36:00,68.6,23.8,29.47,West,270,2.4,2.6,18,-99.99,,,0.00,0,rob ver 1B,2013-10-16 03:36:00,
2013-10-15 20:37:00,69.8,19.3,29.41,SW,226,4.0,4.4,14,-99.99,,,0.00,0,rob ver 1A,2013-10-16 03:37:00,
2013-10-15 20:38:00,68.4,23.9,29.47,West,279,1.8,1.9,18,-99.99,,,0.00,0,rob ver 1B,2013-10-16 03:38:00,
2013-10-15 20:39:00,68.4,23.9,29.47,WNW,282,1.7,1.9,18,-99.99,,,0.00,0,rob ver 1B,2013-10-16 03:39:00,
2013-10-15 20:40:00,68.3,23.8,29.47,WNW,295,1.3,1.4,18,-99.99,,,0.00,0,rob ver 1B,2013-10-16 03:40:00,
2013-10-15 20:41:00,68.3,23.6,29.47,WNW,289,1.2,1.5,18,-99.99,,,0.00,0,rob ver 1B,2013-10-16 03:41:00,
2013-10-15 20:42:00,69.0,19.2,29.41,WSW,243,3.2,3.8,14,-99.99,,,0.00,0,rob ver 1A,2013-10-16 03:42:00,
2013-10-15 20:43:00,68.2,23.7,29.47,West,273,1.5,1.7,18,-99.99,,,0.00,0,rob ver 1B,2013-10-16 03:43:00,
2013-10-15 20:44:00,68.1,23.6,29.47,West,266,1.2,1.6,18,-99.99,,,0.00,0,rob ver 1B,2013-10-16 03:44:00,
2013-10-15 20:45:00,68.0,23.6,29.47,West,270,1.5,2.0,18,-99.99,,,0.00,0,rob ver 1B,2013-10-16 03:45:00,
2013-10-15 20:46:00,67.9,23.5,29.47,West,273,1.3,1.7,18,-99.99,,,0.00,0,rob ver 1B,2013-10-16 03:46:00,
2013-10-15 20:47:00,69.7,19.3,29.41,SW,233,3.7,4.5,14,-99.99,,,0.00,0,rob ver 1A,2013-10-16 03:47:00,
2013-10-15 20:48:00,67.9,23.4,29.47,West,279,1.6,2.1,18,-99.99,,,0.00,0,rob ver 1B,2013-10-16 03:48:00,
2013-10-15 20:49:00,68.0,23.4,29.47,West,279,1.6,1.8,18,-99.99,,,0.00,0,rob ver 1B,2013-10-16 03:49:00,
2013-10-15 20:50:00,68.0,23.4,29.47,West,273,2.0,2.2,18,-99.99,,,0.00,0,rob ver 1B,2013-10-16 03:50:00,
2013-10-15 20:51:00,68.1,23.4,29.47,West,269,2.2,2.8,18,-99.99,,,0.00,0,rob ver 1B,2013-10-16 03:51:00,
2013-10-15 20:52:00,68.6,19.3,29.44,SW,232,3.4,4.0,15,-99.99,,,0.00,0,rob ver 1A,2013-10-16 03:52:00,
2013-10-15 20:53:00,68.2,23.3,29.47,West,268,2.7,3.0,18,-99.99,,,0.00,0,rob ver 1B,2013-10-16 03:53:00,
2013-10-15 20:54:00,68.2,23.4,29.47,West,269,2.9,3.0,18,-99.99,,,0.00,0,rob ver 1B,2013-10-16 03:54:00,
2013-10-15 20:55:00,68.3,23.3,29.47,West,268,2.8,3.1,18,-99.99,,,0.00,0,rob ver 1B,2013-10-16 03:55:00,
2013-10-15 20:56:00,68.3,23.2,29.47,West,269,2.7,3.0,17,-99.99,,,0.00,0,rob ver 1B,2013-10-16 03:56:00,
2013-10-15 20:57:00,68.2,19.4,29.44,SW,223,3.3,3.7,15,-99.99,,,0.00,0,rob ver 1A,2013-10-16 03:57:00,
2013-10-15 20:58:00,68.5,23.1,29.47,West,275,2.3,2.4,17,-99.99,,,0.00,0,rob ver 1B,2013-10-16 03:58:00,
2013-10-15 20:59:00,68.5,23.2,29.47,WNW,287,2.0,2.2,17,-99.99,,,0.00,0,rob ver 1B,2013-10-16 03:59:00,
2013-10-15 21:00:00,68.5,23.1,29.47,WNW,301,1.8,1.9,17,-99.99,,,0.00,0,rob ver 1B,2013-10-16 04:00:00,
2013-10-15 21:01:00,67.8,19.3,29.44,SW,217,2.3,2.9,15,-99.99,,,0.00,0,rob ver 1A,2013-10-16 04:01:00,
2013-10-15 21:02:00,67.8,19.1,29.44,SW,219,2.4,3.0,15,-99.99,,,0.00,0,rob ver 1A,2013-10-16 04:02:00,
2013-10-15 21:03:00,68.4,22.8,29.47,WNW,301,1.9,2.0,17,-99.99,,,0.00,0,rob ver 1B,2013-10-16 04:03:00,
2013-10-15 21:04:00,68.4,22.8,29.47,WNW,301,1.9,2.0,17,-99.99,,,0.00,0,rob ver 1B,2013-10-16 04:04:00,
2013-10-15 21:05:00,67.6,19.2,29.44,SW,232,2.6,3.2,15,-99.99,,,0.00,0,rob ver 1A,2013-10-16 04:05:00,
2013-10-15 21:06:00,68.4,22.5,29.47,NW,316,2.0,2.2,17,-99.99,,,0.00,0,rob ver 1B,2013-10-16 04:06:00,
2013-10-15 21:07:00,67.5,19.4,29.44,WSW,237,2.4,2.9,15,-99.99,,,0.00,0,rob ver 1A,2013-10-16 04:07:00,
2013-10-15 21:08:00,68.4,22.5,29.47,NW,317,1.7,1.9,17,-99.99,,,0.00,0,rob ver 1B,2013-10-16 04:08:00,
2013-10-15 21:09:00,68.4,22.5,29.47,WNW,298,1.7,1.9,17,-99.99,,,0.00,0,rob ver 1B,2013-10-16 04:09:00,
2013-10-15 21:10:00,67.5,20.0,29.44,SW,232,3.0,3.2,16,-99.99,,,0.00,0,rob ver 1A,2013-10-16 04:10:00,
2013-10-15 21:11:00,68.3,22.6,29.47,WNW,301,1.9,2.0,17,-99.99,,,0.00,0,rob ver 1B,2013-10-16 04:11:00,
2013-10-15 21:12:00,68.4,22.5,29.47,NW,309,1.8,1.9,17,-99.99,,,0.00,0,rob ver 1B,2013-10-16 04:12:00,
2013-10-15 21:13:00,68.4,22.4,29.47,NW,310,2.0,2.1,17,-99.99,,,0.00,0,rob ver 1B,2013-10-16 04:13:00,
2013-10-15 21:14:00,68.5,22.5,29.47,NW,310,1.9,2.0,17,-99.99,,,0.00,0,rob ver 1B,2013-10-16 04:14:00,
2013-10-15 21:15:00,67.8,19.5,29.44,WSW,249,2.8,3.3,15,-99.99,,,0.00,0,rob ver 1A,2013-10-16 04:15:00,
2013-10-15 21:16:00,68.6,22.4,29.47,NNW,328,1.6,1.7,17,-99.99,,,0.00,0,rob ver 1B,2013-10-16 04:16:00,
2013-10-15 21:17:00,68.4,22.0,29.47,NNE,24,1.8,2.6,17,-99.99,,,0.00,0,rob ver 1B,2013-10-16 04:17:00,
2013-10-15 21:18:00,68.1,22.0,29.47,NE,42,2.5,3.1,17,-99.99,,,0.00,0,rob ver 1B,2013-10-16 04:18:00,
2013-10-15 21:19:00,68.1,22.3,29.47,NNE,21,1.6,2.3,17,-99.99,,,0.00,0,rob ver 1B,2013-10-16 04:19:00,
2013-10-15 21:20:00,68.2,19.7,29.44,West,270,2.1,2.4,15,-99.99,,,0.00,0,rob ver 1A,2013-10-16 04:20:00,
2013-10-15 21:21:00,68.2,22.0,29.47,NNW,333,1.2,1.5,16,-99.99,,,0.00,0,rob ver 1B,2013-10-16 04:21:00,
2013-10-15 21:22:00,68.2,21.8,29.47,NNW,342,1.4,1.7,17,-99.99,,,0.00,0,rob ver 1B,2013-10-16 04:22:00,
2013-10-15 21:23:00,68.2,21.8,29.50,NNW,339,1.5,1.9,17,-99.99,,,0.00,0,rob ver 1B,2013-10-16 04:23:00,
2013-10-15 21:24:00,68.2,21.9,29.47,NNW,331,1.7,2.2,17,-99.99,,,0.00,0,rob ver 1B,2013-10-16 04:24:00,
2013-10-15 21:25:00,68.3,19.4,29.44,West,263,2.1,2.4,15,-99.99,,,0.00,0,rob ver 1A,2013-10-16 04:25:00,
2013-10-15 21:26:00,68.3,22.1,29.47,North,358,2.1,2.5,17,-99.99,,,0.00,0,rob ver 1B,2013-10-16 04:26:00,
2013-10-15 21:27:00,68.4,21.8,29.47,North,5,2.4,2.6,16,-99.99,,,0.00,0,rob ver 1B,2013-10-16 04:27:00,
2013-10-15 21:28:00,68.6,21.5,29.47,North,2,2.5,2.8,16,-99.99,,,0.00,0,rob ver 1B,2013-10-16 04:28:00,
2013-10-15 21:29:00,68.7,21.1,29.47,North,3,2.7,3.0,16,-99.99,,,0.00,0,rob ver 1B,2013-10-16 04:29:00,
2013-10-15 21:30:00,68.5,19.4,29.44,West,263,2.1,2.4,15,-99.99,,,0.00,0,rob ver 1A,2013-10-16 04:30:00,
2013-10-15 21:31:00,68.5,21.4,29.47,NNE,29,2.8,3.1,16,-99.99,,,0.00,0,rob ver 1B,2013-10-16 04:31:00,
2013-10-15 21:32:00,68.3,20.6,29.47,NNE,29,2.9,3.2,16,-99.99,,,0.00,0,rob ver 1B,2013-10-16 04:32:00,
2013-10-15 21:33:00,68.1,21.1,29.47,NNE,30,2.9,3.1,16,-99.99,,,0.00,0,rob ver 1B,2013-10-16 04:33:00,
2013-10-15 21:34:00,67.6,20.8,29.47,NE,34,2.8,3.1,16,-99.99,,,0.00,0,rob ver 1B,2013-10-16 04:34:00,
2013-10-15 21:35:00,68.4,19.4,29.44,WSW,258,2.5,2.8,15,-99.99,,,0.00,0,rob ver 1A,2013-10-16 04:35:00,
2013-10-15 21:36:00,66.9,20.8,29.47,NNE,19,3.1,3.5,17,-99.99,,,0.00,0,rob ver 1B,2013-10-16 04:36:00,
2013-10-15 21:37:00,66.7,21.0,29.47,NNE,12,2.7,3.4,17,-99.99,,,0.00,0,rob ver 1B,2013-10-16 04:37:00,
2013-10-15 21:38:00,66.5,20.8,29.47,NNE,14,2.5,3.1,17,-99.99,,,0.00,0,rob ver 1B,2013-10-16 04:38:00,
2013-10-15 21:39:00,66.4,21.0,29.47,North,3,2.4,2.7,17,-99.99,,,0.00,0,rob ver 1B,2013-10-16 04:39:00,
2013-10-15 21:40:00,68.1,19.4,29.44,WSW,258,2.5,3.0,15,-99.99,,,0.00,0,rob ver 1A,2013-10-16 04:40:00,
2013-10-15 21:41:00,66.1,21.2,29.50,NNW,340,1.4,1.9,18,-99.99,,,0.00,0,rob ver 1B,2013-10-16 04:41:00,
2013-10-15 21:42:00,65.9,21.5,29.47,NNW,343,1.9,2.7,18,-99.99,,,0.00,0,rob ver 1B,2013-10-16 04:42:00,
2013-10-15 21:43:00,65.8,21.4,29.47,North,356,2.2,3.2,18,-99.99,,,0.00,0,rob ver 1B,2013-10-16 04:43:00,
2013-10-15 21:44:00,65.8,21.5,29.47,North,357,1.9,2.7,18,-99.99,,,0.00,0,rob ver 1B,2013-10-16 04:44:00,
2013-10-15 21:45:00,65.6,21.3,29.47,North,1,2.3,2.7,18,-99.99,,,0.00,0,rob ver 1B,2013-10-16 04:45:00,
2013-10-15 21:46:00,68.1,19.3,29.44,West,273,2.6,2.7,15,-99.99,,,0.00,0,rob ver 1A,2013-10-16 04:46:00,
2013-10-15 21:47:00,65.4,21.3,29.47,North,2,2.0,2.4,18,-99.99,,,0.00,0,rob ver 1B,2013-10-16 04:47:00,
2013-10-15 21:48:00,65.4,21.2,29.50,North,0,1.9,2.2,18,-99.99,,,0.00,0,rob ver 1B,2013-10-16 04:48:00,
2013-10-15 21:49:00,65.3,21.2,29.47,North,349,1.6,1.8,18,-99.99,,,0.00,0,rob ver 1B,2013-10-16 04:49:00,
2013-10-15 21:50:00,65.2,21.2,29.47,NNW,338,1.3,1.7,18,-99.99,,,0.00,0,rob ver 1B,2013-10-16 04:50:00,
2013-10-15 21:51:00,68.6,19.5,29.44,West,262,3.4,3.9,15,-99.99,,,0.00,0,rob ver 1A,2013-10-16 04:51:00,
2013-10-15 21:52:00,65.0,21.2,29.50,NNW,328,0.9,1.1,18,-99.99,,,0.00,0,rob ver 1B,2013-10-16 04:52:00,
2013-10-15 21:53:00,64.9,21.1,29.47,NNW,346,1.1,1.3,18,-99.99,,,0.00,0,rob ver 1B,2013-10-16 04:53:00,
2013-10-15 21:54:00,64.8,21.1,29.47,NNW,329,1.0,1.3,18,-99.99,,,0.00,0,rob ver 1B,2013-10-16 04:54:00,
2013-10-15 21:55:00,64.8,21.2,29.47,NW,320,1.1,1.4,18,-99.99,,,0.00,0,rob ver 1B,2013-10-16 04:55:00,
2013-10-15 21:56:00,68.4,19.6,29.44,West,267,3.9,4.2,15,-99.99,,,0.00,0,rob ver 1A,2013-10-16 04:56:00,
2013-10-15 21:57:00,64.7,21.4,29.47,West,273,1.9,2.3,18,-99.99,,,0.00,0,rob ver 1B,2013-10-16 04:57:00,
2013-10-15 21:58:00,64.9,21.5,29.47,West,268,1.9,2.2,18,-99.99,,,0.00,0,rob ver 1B,2013-10-16 04:58:00,
2013-10-15 21:59:00,65.0,21.5,29.50,West,272,2.1,2.4,18,-99.99,,,0.00,0,rob ver 1B,2013-10-16 04:59:00,
2013-10-15 22:00:00,65.2,21.4,29.47,WNW,285,2.2,2.3,18,-99.99,,,0.00,0,rob ver 1B,2013-10-16 05:00:00,
2013-10-15 22:01:00,67.7,20.5,29.44,West,263,3.2,3.5,16,-99.99,,,0.00,0,rob ver 1A,2013-10-16 05:01:00,
2013-10-15 22:02:00,65.6,21.5,29.47,NW,307,2.4,2.7,18,-99.99,,,0.00,0,rob ver 1B,2013-10-16 05:02:00,
2013-10-15 22:03:00,65.7,21.5,29.50,WNW,285,2.1,2.7,18,-99.99,,,0.00,0,rob ver 1B,2013-10-16 05:03:00,
2013-10-15 22:04:00,65.7,21.6,29.47,WSW,247,2.3,2.6,18,-99.99,,,0.00,0,rob ver 1B,2013-10-16 05:04:00,
2013-10-15 22:05:00,65.6,21.1,29.47,West,259,1.5,2.6,18,-99.99,,,0.00,0,rob ver 1B,2013-10-16 05:05:00,
2013-10-15 22:06:00,67.1,20.8,29.44,West,276,3.0,3.7,16,-99.99,,,0.00,0,rob ver 1A,2013-10-16 05:06:00,
2013-10-15 22:07:00,65.1,21.2,29.50,West,268,1.5,1.7,18,-99.99,,,0.00,0,rob ver 1B,2013-10-16 05:07:00,
2013-10-15 22:08:00,64.8,21.1,29.47,West,260,1.2,1.4,19,-99.99,,,0.00,0,rob ver 1B,2013-10-16 05:08:00,
2013-10-15 22:09:00,64.5,21.7,29.50,West,271,1.0,1.6,19,-99.99,,,0.00,0,rob ver 1B,2013-10-16 05:09:00,
2013-10-15 22:10:00,64.1,21.6,29.50,WNW,293,0.9,1.2,19,-99.99,,,0.00,0,rob ver 1B,2013-10-16 05:10:00,
2013-10-15 22:11:00,67.5,20.5,29.44,West,279,3.1,3.3,16,-99.99,,,0.00,0,rob ver 1A,2013-10-16 05:11:00,
2013-10-15 22:12:00,63.7,21.8,29.47,North,356,1.0,1.2,20,-99.99,,,0.00,0,rob ver 1B,2013-10-16 05:12:00,
2013-10-15 22:13:00,63.5,21.9,29.50,NNE,19,1.1,1.3,20,-99.99,,,0.00,0,rob ver 1B,2013-10-16 05:13:00,
2013-10-15 22:14:00,63.2,21.3,29.50,NNE,13,1.2,1.3,19,-99.99,,,0.00,0,rob ver 1B,2013-10-16 05:14:00,
2013-10-15 22:15:00,63.2,21.4,29.50,NNW,345,0.9,1.1,20,-99.99,,,0.00,0,rob ver 1B,2013-10-16 05:15:00,
2013-10-15 22:16:00,67.5,20.7,29.44,WNW,301,2.8,3.2,16,-99.99,,,0.00,0,rob ver 1A,2013-10-16 05:16:00,
2013-10-15 22:17:00,62.9,21.8,29.50,West,269,1.4,1.7,20,-99.99,,,0.00,0,rob ver 1B,2013-10-16 05:17:00,
2013-10-15 22:18:00,63.0,22.0,29.50,NW,312,1.7,2.0,20,-99.99,,,0.00,0,rob ver 1B,2013-10-16 05:18:00,
2013-10-15 22:19:00,63.2,22.1,29.50,North,350,2.3,2.9,20,-99.99,,,0.00,0,rob ver 1B,2013-10-16 05:19:00,
2013-10-15 22:20:00,63.5,22.0,29.47,North,0,2.9,3.3,20,-99.99,,,0.00,0,rob ver 1B,2013-10-16 05:20:00,
2013-10-15 22:21:00,67.3,20.8,29.44,WNW,286,3.0,3.6,17,-99.99,,,0.00,0,rob ver 1A,2013-10-16 05:21:00,
2013-10-15 22:22:00,64.1,21.9,29.50,North,0,3.3,3.6,19,-99.99,,,0.00,0,rob ver 1B,2013-10-16 05:22:00,
2013-10-15 22:23:00,64.2,21.8,29.47,North,3,3.4,3.7,19,-99.99,,,0.00,0,rob ver 1B,2013-10-16 05:23:00,
2013-10-15 22:24:00,64.3,21.7,29.50,North,4,3.7,4.0,19,-99.99,,,0.00,0,rob ver 1B,2013-10-16 05:24:00,
2013-10-15 22:25:00,64.2,21.6,29.50,North,6,3.6,3.9,19,-99.99,,,0.00,0,rob ver 1B,2013-10-16 05:25:00,
2013-10-15 22:26:00,66.8,21.0,29.44,NW,310,3.1,3.5,17,-99.99,,,0.00,0,rob ver 1A,2013-10-16 05:26:00,
2013-10-15 22:27:00,64.0,21.7,29.47,North,2,4.0,4.3,19,-99.99,,,0.00,0,rob ver 1B,2013-10-16 05:27:00,
2013-10-15 22:28:00,64.0,21.8,29.50,North,0,4.1,4.3,19,-99.99,,,0.00,0,rob ver 1B,2013-10-16 05:28:00,
2013-10-15 22:29:00,64.0,21.9,29.50,North,1,4.3,4.5,19,-99.99,,,0.00,0,rob ver 1B,2013-10-16 05:29:00,
2013-10-15 22:30:00,64.1,21.9,29.47,North,0,4.2,4.6,19,-99.99,,,0.00,0,rob ver 1B,2013-10-16 05:30:00,
2013-10-15 22:31:00,64.2,22.0,29.47,North,359,4.3,4.7,19,-99.99,,,0.00,0,rob ver 1B,2013-10-16 05:31:00,
2013-10-15 22:32:00,66.6,20.9,29.44,NW,323,3.4,3.8,17,-99.99,,,0.00,0,rob ver 1A,2013-10-16 05:32:00,
2013-10-15 22:33:00,64.2,21.9,29.50,North,357,4.7,5.0,19,-99.99,,,0.00,0,rob ver 1B,2013-10-16 05:33:00,
2013-10-15 22:34:00,64.2,22.0,29.47,North,356,4.6,5.0,19,-99.99,,,0.00,0,rob ver 1B,2013-10-16 05:34:00,
2013-10-15 22:35:00,64.2,22.0,29.47,North,355,4.2,4.8,19,-99.99,,,0.00,0,rob ver 1B,2013-10-16 05:35:00,
2013-10-15 22:36:00,64.1,21.9,29.50,WNW,292,1.8,3.2,19,-99.99,,,0.00,0,rob ver 1B,2013-10-16 05:36:00,
2013-10-15 22:37:00,66.3,20.9,29.44,NW,320,3.1,3.5,17,-99.99,,,0.00,0,rob ver 1A,2013-10-16 05:37:00,
2013-10-15 22:38:00,63.6,22.2,29.47,NW,322,2.8,4.1,20,-99.99,,,0.00,0,rob ver 1B,2013-10-16 05:38:00,
2013-10-15 22:39:00,63.7,22.3,29.50,NW,315,2.6,3.8,20,-99.99,,,0.00,0,rob ver 1B,2013-10-16 05:39:00,
2013-10-15 22:40:00,63.8,22.0,29.50,West,263,1.8,2.4,19,-99.99,,,0.00,0,rob ver 1B,2013-10-16 05:40:00,
2013-10-15 22:41:00,63.8,22.0,29.47,SW,226,2.0,2.3,20,-99.99,,,0.00,0,rob ver 1B,2013-10-16 05:41:00,
2013-10-15 22:42:00,66.4,20.8,29.44,NW,316,3.9,4.0,17,-99.99,,,0.00,0,rob ver 1A,2013-10-16 05:42:00,
2013-10-15 22:43:00,63.5,22.1,29.50,SW,221,3.5,4.2,20,-99.99,,,0.00,0,rob ver 1B,2013-10-16 05:43:00,
2013-10-15 22:44:00,63.4,22.5,29.50,SW,220,4.0,4.6,21,-99.99,,,0.00,0,rob ver 1B,2013-10-16 05:44:00,
2013-10-15 22:45:00,63.4,22.8,29.50,SW,228,3.2,3.7,20,-99.99,,,0.00,0,rob ver 1B,2013-10-16 05:45:00,
2013-10-15 22:46:00,63.2,22.5,29.50,SW,232,3.2,3.7,20,-99.99,,,0.00,0,rob ver 1B,2013-10-16 05:46:00,
2013-10-15 22:47:00,66.4,20.8,29.44,NW,312,3.8,4.0,17,-99.99,,,0.00,0,rob ver 1A,2013-10-16 05:47:00,
2013-10-15 22:48:00,63.0,22.2,29.50,WSW,245,2.6,3.0,20,-99.99,,,0.00,0,rob ver 1B,2013-10-16 05:48:00,
2013-10-15 22:49:00,63.0,22.2,29.50,WSW,257,2.5,3.0,20,-99.99,,,0.00,0,rob ver 1B,2013-10-16 05:49:00,
2013-10-15 22:50:00,63.0,22.1,29.50,WSW,256,2.5,2.8,20,-99.99,,,0.00,0,rob ver 1B,2013-10-16 05:50:00,
2013-10-15 22:51:00,63.2,22.0,29.50,WSW,255,2.5,2.9,20,-99.99,,,0.00,0,rob ver 1B,2013-10-16 05:51:00,
2013-10-15 22:52:00,66.5,20.7,29.47,NW,310,4.0,4.8,17,-99.99,,,0.00,0,rob ver 1A,2013-10-16 05:52:00,
2013-10-15 22:53:00,63.2,22.0,29.50,WSW,237,4.6,5.1,20,-99.99,,,0.00,0,rob ver 1B,2013-10-16 05:53:00,
2013-10-15 22:54:00,63.1,22.0,29.50,WSW,241,3.6,4.1,20,-99.99,,,0.00,0,rob ver 1B,2013-10-16 05:54:00,
2013-10-15 22:55:00,63.0,22.0,29.50,WSW,250,3.0,3.5,20,-99.99,,,0.00,0,rob ver 1B,2013-10-16 05:55:00,
2013-10-15 22:56:00,62.9,22.2,29.47,WSW,250,2.9,3.2,20,-99.99,,,0.00,0,rob ver 1B,2013-10-16 05:56:00,
2013-10-15 22:57:00,66.6,20.5,29.44,NW,311,4.0,4.2,17,-99.99,,,0.00,0,rob ver 1A,2013-10-16 05:57:00,
2013-10-15 22:58:00,62.9,22.3,29.50,SW,233,3.8,4.0,21,-99.99,,,0.00,0,rob ver 1B,2013-10-16 05:58:00,
2013-10-15 22:59:00,62.7,22.3,29.50,WSW,238,3.6,3.8,21,-99.99,,,0.00,0,rob ver 1B,2013-10-16 05:59:00,
2013-10-15 23:00:00,62.6,22.5,29.50,SW,236,3.6,3.9,21,-99.99,,,0.00,0,rob ver 1B,2013-10-16 06:00:00,
2013-10-15 23:01:00,62.6,22.5,29.50,SW,235,3.6,3.8,21,-99.99,,,0.00,0,rob ver 1B,2013-10-16 06:01:00,
2013-10-15 23:02:00,66.8,20.1,29.47,WNW,289,5.1,5.8,16,-99.99,,,0.00,0,rob ver 1A,2013-10-16 06:02:00,
2013-10-15 23:03:00,62.8,22.7,29.47,WSW,244,3.3,3.4,21,-99.99,,,0.00,0,rob ver 1B,2013-10-16 06:03:00,
2013-10-15 23:04:00,63.0,22.7,29.47,WSW,240,3.3,3.5,21,-99.99,,,0.00,0,rob ver 1B,2013-10-16 06:04:00,
2013-10-15 23:05:00,63.2,22.8,29.50,WSW,239,3.4,3.5,21,-99.99,,,0.00,0,rob ver 1B,2013-10-16 06:05:00,
2013-10-15 23:06:00,63.3,22.8,29.50,WSW,238,3.3,3.6,21,-99.99,,,0.00,0,rob ver 1B,2013-10-16 06:06:00,
2013-10-15 23:07:00,66.0,20.4,29.44,WNW,296,4.6,4.9,17,-99.99,,,0.00,0,rob ver 1A,2013-10-16 06:07:00,
2013-10-15 23:08:00,63.4,22.9,29.47,WSW,250,3.1,3.4,21,-99.99,,,0.00,0,rob ver 1B,2013-10-16 06:08:00,
2013-10-15 23:09:00,63.3,22.9,29.50,WSW,248,3.3,3.5,21,-99.99,,,0.00,0,rob ver 1B,2013-10-16 06:09:00,
2013-10-15 23:10:00,63.3,22.7,29.47,WSW,252,3.4,3.7,20,-99.99,,,0.00,0,rob ver 1B,2013-10-16 06:10:00,
2013-10-15 23:11:00,63.4,22.5,29.47,West,260,3.2,3.4,20,-99.99,,,0.00,0,rob ver 1B,2013-10-16 06:11:00,
2013-10-15 23:12:00,65.7,20.6,29.44,WNW,303,4.2,4.7,17,-99.99,,,0.00,0,rob ver 1A,2013-10-16 06:12:00,
2013-10-15 23:13:00,63.6,22.3,29.47,WSW,258,2.9,3.2,20,-99.99,,,0.00,0,rob ver 1B,2013-10-16 06:13:00,
2013-10-15 23:14:00,63.8,22.4,29.47,West,261,3.3,3.6,20,-99.99,,,0.00,0,rob ver 1B,2013-10-16 06:14:00,
2013-10-15 23:15:00,63.8,22.4,29.47,West,265,3.6,3.9,20,-99.99,,,0.00,0,rob ver 1B,2013-10-16 06:15:00,
2013-10-15 23:16:00,63.9,22.3,29.47,West,269,2.9,3.5,20,-99.99,,,0.00,0,rob ver 1B,2013-10-16 06:16:00,
2013-10-15 23:17:00,65.2,20.8,29.47,NW,318,4.1,4.5,18,-99.99,,,0.00,0,rob ver 1A,2013-10-16 06:17:00,
2013-10-15 23:18:00,63.8,22.5,29.47,West,260,2.9,3.0,20,-99.99,,,0.00,0,rob ver 1B,2013-10-16 06:18:00,
2013-10-15 23:19:00,63.6,22.4,29.47,WSW,249,3.3,3.6,20,-99.99,,,0.00,0,rob ver 1B,2013-10-16 06:19:00,
2013-10-15 23:20:00,63.5,22.3,29.47,WSW,251,3.0,3.3,20,-99.99,,,0.00,0,rob ver 1B,2013-10-16 06:20:00,
2013-10-15 23:21:00,63.4,22.5,29.47,WSW,249,2.6,2.9,20,-99.99,,,0.00,0,rob ver 1B,2013-10-16 06:21:00,
2013-10-15 23:22:00,63.2,22.8,29.47,WSW,252,2.8,2.9,21,-99.99,,,0.00,0,rob ver 1B,2013-10-16 06:22:00,
2013-10-15 23:23:00,65.0,20.7,29.44,NW,308,4.5,5.0,18,-99.99,,,0.00,0,rob ver 1A,2013-10-16 06:23:00,
2013-10-15 23:24:00,62.9,22.7,29.50,WSW,251,2.8,3.0,21,-99.99,,,0.00,0,rob ver 1B,2013-10-16 06:24:00,
2013-10-15 23:25:00,62.8,22.7,29.47,WSW,251,2.9,3.1,21,-99.99,,,0.00,0,rob ver 1B,2013-10-16 06:25:00,
2013-10-15 23:26:00,62.8,22.6,29.47,WSW,254,2.6,2.9,21,-99.99,,,0.00,0,rob ver 1B,2013-10-16 06:26:00,
2013-10-15 23:27:00,62.8,22.6,29.47,WSW,255,2.8,3.0,21,-99.99,,,0.00,0,rob ver 1B,2013-10-16 06:27:00,
2013-10-15 23:28:00,64.8,20.7,29.47,NW,322,4.4,4.9,18,-99.99,,,0.00,0,rob ver 1A,2013-10-16 06:28:00,
2013-10-15 23:29:00,62.8,22.5,29.47,West,266,2.2,2.4,21,-99.99,,,0.00,0,rob ver 1B,2013-10-16 06:29:00,
2013-10-15 23:30:00,62.7,22.5,29.47,West,269,2.1,2.4,21,-99.99,,,0.00,0,rob ver 1B,2013-10-16 06:30:00,
2013-10-15 23:31:00,62.7,22.5,29.47,WNW,286,2.1,2.3,21,-99.99,,,0.00,0,rob ver 1B,2013-10-16 06:31:00,
2013-10-15 23:32:00,62.7,22.5,29.47,WNW,296,2.1,2.4,21,-99.99,,,0.00,0,rob ver 1B,2013-10-16 06:32:00,
2013-10-15 23:33:00,64.7,20.6,29.47,NW,320,5.1,5.4,18,-99.99,,,0.00,0,rob ver 1A,2013-10-16 06:33:00,
2013-10-15 23:34:00,62.5,22.4,29.47,West,281,2.0,2.3,21,-99.99,,,0.00,0,rob ver 1B,2013-10-16 06:34:00,
2013-10-15 23:35:00,62.5,22.4,29.47,West,277,2.1,2.3,21,-99.99,,,0.00,0,rob ver 1B,2013-10-16 06:35:00,
2013-10-15 23:36:00,62.5,22.5,29.47,West,277,2.1,2.3,21,-99.99,,,0.00,0,rob ver 1B,2013-10-16 06:36:00,
2013-10-15 23:37:00,62.5,22.5,29.47,West,272,2.3,2.5,21,-99.99,,,0.00,0,rob ver 1B,2013-10-16 06:37:00,
2013-10-15 23:38:00,64.9,20.5,29.47,NW,322,4.5,5.0,18,-99.99,,,0.00,0,rob ver 1A,2013-10-16 06:38:00,
2013-10-15 23:39:00,62.5,22.4,29.47,West,273,2.2,2.3,21,-99.99,,,0.00,0,rob ver 1B,2013-10-16 06:39:00,
2013-10-15 23:40:00,62.5,22.4,29.47,West,274,2.0,2.2,21,-99.99,,,0.00,0,rob ver 1B,2013-10-16 06:40:00,
2013-10-15 23:41:00,62.6,22.4,29.47,West,272,2.0,2.1,21,-99.99,,,0.00,0,rob ver 1B,2013-10-16 06:41:00,
2013-10-15 23:42:00,62.7,22.3,29.47,West,276,1.8,1.9,21,-99.99,,,0.00,0,rob ver 1B,2013-10-16 06:42:00,
2013-10-15 23:43:00,64.9,20.5,29.47,NW,322,4.4,4.7,18,-99.99,,,0.00,0,rob ver 1A,2013-10-16 06:43:00,
2013-10-15 23:44:00,62.8,22.3,29.47,WNW,297,1.3,1.4,20,-99.99,,,0.00,0,rob ver 1B,2013-10-16 06:44:00,
2013-10-15 23:45:00,62.8,22.4,29.47,NW,310,1.3,1.4,21,-99.99,,,0.00,0,rob ver 1B,2013-10-16 06:45:00,
2013-10-15 23:46:00,62.8,22.4,29.47,NW,323,1.3,1.4,21,-99.99,,,0.00,0,rob ver 1B,2013-10-16 06:46:00,
2013-10-15 23:47:00,62.7,22.4,29.47,NNW,344,1.6,1.8,21,-99.99,,,0.00,0,rob ver 1B,2013-10-16 06:47:00,
2013-10-15 23:48:00,64.6,20.6,29.47,NW,322,3.9,4.7,18,-99.99,,,0.00,0,rob ver 1A,2013-10-16 06:48:00,
2013-10-15 23:49:00,62.6,22.4,29.47,North,2,2.1,2.3,21,-99.99,,,0.00,0,rob ver 1B,2013-10-16 06:49:00,
2013-10-15 23:50:00,62.6,22.4,29.47,North,5,2.2,2.3,21,-99.99,,,0.00,0,rob ver 1B,2013-10-16 06:50:00,
2013-10-15 23:51:00,62.8,22.4,29.47,North,8,2.3,2.7,21,-99.99,,,0.00,0,rob ver 1B,2013-10-16 06:51:00,
2013-10-15 23:52:00,62.9,22.3,29.47,NNE,13,2.6,2.8,20,-99.99,,,0.00,0,rob ver 1B,2013-10-16 06:52:00,
2013-10-15 23:53:00,64.4,20.3,29.47,NW,326,4.6,5.2,18,-99.99,,,0.00,0,rob ver 1A,2013-10-16 06:53:00,
2013-10-15 23:54:00,63.2,22.2,29.47,North,7,2.5,2.6,20,-99.99,,,0.00,0,rob ver 1B,2013-10-16 06:54:00,
2013-10-15 23:55:00,63.3,22.1,29.47,North,6,2.5,2.7,20,-99.99,,,0.00,0,rob ver 1B,2013-10-16 06:55:00,
2013-10-15 23:56:00,63.5,22.0,29.50,North,4,2.5,2.6,20,-99.99,,,0.00,0,rob ver 1B,2013-10-16 06:56:00,
2013-10-15 23:57:00,63.5,21.9,29.47,North,357,2.4,2.5,20,-99.99,,,0.00,0,rob ver 1B,2013-10-16 06:57:00,
2013-10-15 23:58:00,64.2,20.4,29.47,NNW,332,4.9,5.9,18,-99.99,,,0.00,0,rob ver 1A,2013-10-16 06:58:00,
2013-10-15 23:59:00,63.6,22.0,29.47,NNW,345,2.1,2.3,20,-99.99,,,0.00,0,rob ver 1B,2013-10-16 06:59:00,